<?xml version="1.0" encoding="UTF-8"?><gpx creator="Wikiloc - https://www.wikiloc.com" version="1.1" xmlns="http://www.topografix.com/GPX/1/1" xmlns:xsi="http://www.w3.org/2001/XMLSchema-instance" xsi:schemaLocation="http://www.topografix.com/GPX/1/1 http://www.topografix.com/GPX/1/1/gpx.xsd"><metadata><name>Wikiloc - סינגל רכס רמים</name><author><name>Tzvi</name><link href="https://www.wikiloc.com/wikiloc/user.do?id=217528"><text>Tzvi on Wikiloc</text></link></author><link href="https://www.wikiloc.com/mountain-biking-trails/syngl-rks-rmym-5971163"><text>סינגל רכס רמים on Wikiloc</text></link><time>2014-01-17T08:32:38Z</time></metadata><trk><name>סינגל רכס רמים</name><cmt></cmt><desc></desc><trkseg><trkpt lat="33.238981" lon="35.571621"><ele>363.766</ele><time>2014-01-17T05:59:21Z</time></trkpt><trkpt lat="33.238981" lon="35.571621"><ele>363.729</ele><time>2014-01-17T06:00:01Z</time></trkpt><trkpt lat="33.238981" lon="35.571621"><ele>363.721</ele><time>2014-01-17T06:00:41Z</time></trkpt><trkpt lat="33.238981" lon="35.571621"><ele>363.707</ele><time>2014-01-17T06:01:21Z</time></trkpt><trkpt lat="33.238981" lon="35.571621"><ele>363.711</ele><time>2014-01-17T06:02:01Z</time></trkpt><trkpt lat="33.238830" lon="35.571483"><ele>362.465</ele><time>2014-01-17T06:02:26Z</time></trkpt><trkpt lat="33.238763" lon="35.571559"><ele>363.333</ele><time>2014-01-17T06:02:33Z</time></trkpt><trkpt lat="33.238748" lon="35.571442"><ele>364.527</ele><time>2014-01-17T06:02:39Z</time></trkpt><trkpt lat="33.238695" lon="35.571329"><ele>365.337</ele><time>2014-01-17T06:02:46Z</time></trkpt><trkpt lat="33.238587" lon="35.571168"><ele>364.332</ele><time>2014-01-17T06:03:06Z</time></trkpt><trkpt lat="33.238590" lon="35.571160"><ele>367.689</ele><time>2014-01-17T06:03:46Z</time></trkpt><trkpt lat="33.238386" lon="35.571167"><ele>367.391</ele><time>2014-01-17T06:03:55Z</time></trkpt><trkpt lat="33.238301" lon="35.571103"><ele>366.681</ele><time>2014-01-17T06:04:00Z</time></trkpt><trkpt lat="33.238196" lon="35.571081"><ele>367.019</ele><time>2014-01-17T06:04:05Z</time></trkpt><trkpt lat="33.238121" lon="35.570996"><ele>368.507</ele><time>2014-01-17T06:04:10Z</time></trkpt><trkpt lat="33.238040" lon="35.570923"><ele>370.854</ele><time>2014-01-17T06:04:16Z</time></trkpt><trkpt lat="33.237969" lon="35.570849"><ele>371.958</ele><time>2014-01-17T06:04:21Z</time></trkpt><trkpt lat="33.237893" lon="35.570787"><ele>372.366</ele><time>2014-01-17T06:04:26Z</time></trkpt><trkpt lat="33.237832" lon="35.570691"><ele>373.720</ele><time>2014-01-17T06:04:32Z</time></trkpt><trkpt lat="33.237732" lon="35.570632"><ele>376.320</ele><time>2014-01-17T06:04:36Z</time></trkpt><trkpt lat="33.237639" lon="35.570606"><ele>379.565</ele><time>2014-01-17T06:04:42Z</time></trkpt><trkpt lat="33.237568" lon="35.570523"><ele>380.272</ele><time>2014-01-17T06:04:46Z</time></trkpt><trkpt lat="33.237479" lon="35.570496"><ele>380.156</ele><time>2014-01-17T06:04:50Z</time></trkpt><trkpt lat="33.237408" lon="35.570408"><ele>380.659</ele><time>2014-01-17T06:04:55Z</time></trkpt><trkpt lat="33.237374" lon="35.570302"><ele>381.114</ele><time>2014-01-17T06:05:00Z</time></trkpt><trkpt lat="33.237319" lon="35.570230"><ele>382.507</ele><time>2014-01-17T06:05:10Z</time></trkpt><trkpt lat="33.237105" lon="35.570002"><ele>388.320</ele><time>2014-01-17T06:05:25Z</time></trkpt><trkpt lat="33.237031" lon="35.569938"><ele>390.094</ele><time>2014-01-17T06:05:30Z</time></trkpt><trkpt lat="33.236939" lon="35.569805"><ele>390.932</ele><time>2014-01-17T06:05:43Z</time></trkpt><trkpt lat="33.236831" lon="35.569776"><ele>392.166</ele><time>2014-01-17T06:05:48Z</time></trkpt><trkpt lat="33.236718" lon="35.569711"><ele>391.866</ele><time>2014-01-17T06:05:57Z</time></trkpt><trkpt lat="33.236631" lon="35.569613"><ele>390.351</ele><time>2014-01-17T06:06:00Z</time></trkpt><trkpt lat="33.236551" lon="35.569527"><ele>389.688</ele><time>2014-01-17T06:06:03Z</time></trkpt><trkpt lat="33.236488" lon="35.569440"><ele>390.375</ele><time>2014-01-17T06:06:10Z</time></trkpt><trkpt lat="33.236391" lon="35.569368"><ele>389.928</ele><time>2014-01-17T06:06:14Z</time></trkpt><trkpt lat="33.236284" lon="35.569319"><ele>389.520</ele><time>2014-01-17T06:06:17Z</time></trkpt><trkpt lat="33.236238" lon="35.569210"><ele>391.907</ele><time>2014-01-17T06:06:21Z</time></trkpt><trkpt lat="33.236156" lon="35.569146"><ele>392.842</ele><time>2014-01-17T06:06:26Z</time></trkpt><trkpt lat="33.236081" lon="35.569081"><ele>392.036</ele><time>2014-01-17T06:06:31Z</time></trkpt><trkpt lat="33.235987" lon="35.569032"><ele>391.234</ele><time>2014-01-17T06:06:34Z</time></trkpt><trkpt lat="33.235891" lon="35.569004"><ele>392.168</ele><time>2014-01-17T06:06:37Z</time></trkpt><trkpt lat="33.235798" lon="35.568959"><ele>393.048</ele><time>2014-01-17T06:06:41Z</time></trkpt><trkpt lat="33.235702" lon="35.568980"><ele>395.963</ele><time>2014-01-17T06:06:46Z</time></trkpt><trkpt lat="33.235611" lon="35.568908"><ele>397.070</ele><time>2014-01-17T06:06:49Z</time></trkpt><trkpt lat="33.235515" lon="35.568884"><ele>397.787</ele><time>2014-01-17T06:06:53Z</time></trkpt><trkpt lat="33.235399" lon="35.568855"><ele>397.842</ele><time>2014-01-17T06:06:56Z</time></trkpt><trkpt lat="33.235308" lon="35.568829"><ele>397.926</ele><time>2014-01-17T06:06:58Z</time></trkpt><trkpt lat="33.235199" lon="35.568754"><ele>398.007</ele><time>2014-01-17T06:07:01Z</time></trkpt><trkpt lat="33.235084" lon="35.568739"><ele>397.573</ele><time>2014-01-17T06:07:05Z</time></trkpt><trkpt lat="33.234974" lon="35.568716"><ele>397.367</ele><time>2014-01-17T06:07:07Z</time></trkpt><trkpt lat="33.234889" lon="35.568765"><ele>397.615</ele><time>2014-01-17T06:07:14Z</time></trkpt><trkpt lat="33.234888" lon="35.568875"><ele>396.579</ele><time>2014-01-17T06:07:17Z</time></trkpt><trkpt lat="33.234875" lon="35.568983"><ele>395.049</ele><time>2014-01-17T06:07:20Z</time></trkpt><trkpt lat="33.234840" lon="35.569086"><ele>393.544</ele><time>2014-01-17T06:07:23Z</time></trkpt><trkpt lat="33.234833" lon="35.569234"><ele>391.821</ele><time>2014-01-17T06:07:27Z</time></trkpt><trkpt lat="33.234852" lon="35.569378"><ele>390.083</ele><time>2014-01-17T06:07:30Z</time></trkpt><trkpt lat="33.234871" lon="35.569510"><ele>388.925</ele><time>2014-01-17T06:07:32Z</time></trkpt><trkpt lat="33.234915" lon="35.569607"><ele>388.217</ele><time>2014-01-17T06:07:34Z</time></trkpt><trkpt lat="33.234984" lon="35.569687"><ele>388.107</ele><time>2014-01-17T06:07:36Z</time></trkpt><trkpt lat="33.235040" lon="35.569804"><ele>387.713</ele><time>2014-01-17T06:07:40Z</time></trkpt><trkpt lat="33.235103" lon="35.569897"><ele>388.127</ele><time>2014-01-17T06:07:43Z</time></trkpt><trkpt lat="33.235174" lon="35.570020"><ele>388.535</ele><time>2014-01-17T06:07:49Z</time></trkpt><trkpt lat="33.235231" lon="35.570144"><ele>388.169</ele><time>2014-01-17T06:07:53Z</time></trkpt><trkpt lat="33.235297" lon="35.570226"><ele>388.399</ele><time>2014-01-17T06:07:56Z</time></trkpt><trkpt lat="33.235377" lon="35.570292"><ele>387.154</ele><time>2014-01-17T06:07:59Z</time></trkpt><trkpt lat="33.235449" lon="35.570363"><ele>387.071</ele><time>2014-01-17T06:08:02Z</time></trkpt><trkpt lat="33.235565" lon="35.570372"><ele>385.226</ele><time>2014-01-17T06:08:06Z</time></trkpt><trkpt lat="33.235667" lon="35.570424"><ele>384.647</ele><time>2014-01-17T06:08:10Z</time></trkpt><trkpt lat="33.235758" lon="35.570460"><ele>384.711</ele><time>2014-01-17T06:08:13Z</time></trkpt><trkpt lat="33.235855" lon="35.570528"><ele>383.607</ele><time>2014-01-17T06:08:17Z</time></trkpt><trkpt lat="33.235947" lon="35.570569"><ele>382.987</ele><time>2014-01-17T06:08:20Z</time></trkpt><trkpt lat="33.236044" lon="35.570591"><ele>382.931</ele><time>2014-01-17T06:08:23Z</time></trkpt><trkpt lat="33.236145" lon="35.570600"><ele>382.859</ele><time>2014-01-17T06:08:27Z</time></trkpt><trkpt lat="33.236245" lon="35.570659"><ele>383.363</ele><time>2014-01-17T06:08:31Z</time></trkpt><trkpt lat="33.236342" lon="35.570724"><ele>383.783</ele><time>2014-01-17T06:08:35Z</time></trkpt><trkpt lat="33.236391" lon="35.570829"><ele>384.268</ele><time>2014-01-17T06:08:38Z</time></trkpt><trkpt lat="33.236472" lon="35.570920"><ele>384.985</ele><time>2014-01-17T06:08:41Z</time></trkpt><trkpt lat="33.236592" lon="35.571017"><ele>384.384</ele><time>2014-01-17T06:08:44Z</time></trkpt><trkpt lat="33.236687" lon="35.571095"><ele>382.807</ele><time>2014-01-17T06:08:46Z</time></trkpt><trkpt lat="33.236771" lon="35.571156"><ele>382.617</ele><time>2014-01-17T06:08:48Z</time></trkpt><trkpt lat="33.236864" lon="35.571283"><ele>382.407</ele><time>2014-01-17T06:08:51Z</time></trkpt><trkpt lat="33.236906" lon="35.571413"><ele>381.913</ele><time>2014-01-17T06:08:54Z</time></trkpt><trkpt lat="33.236939" lon="35.571533"><ele>382.017</ele><time>2014-01-17T06:08:56Z</time></trkpt><trkpt lat="33.236967" lon="35.571638"><ele>382.075</ele><time>2014-01-17T06:08:58Z</time></trkpt><trkpt lat="33.237029" lon="35.571765"><ele>380.899</ele><time>2014-01-17T06:09:01Z</time></trkpt><trkpt lat="33.237056" lon="35.571874"><ele>379.769</ele><time>2014-01-17T06:09:03Z</time></trkpt><trkpt lat="33.237120" lon="35.571999"><ele>378.744</ele><time>2014-01-17T06:09:05Z</time></trkpt><trkpt lat="33.237191" lon="35.572074"><ele>378.061</ele><time>2014-01-17T06:09:07Z</time></trkpt><trkpt lat="33.237274" lon="35.572164"><ele>376.781</ele><time>2014-01-17T06:09:09Z</time></trkpt><trkpt lat="33.237343" lon="35.572275"><ele>375.861</ele><time>2014-01-17T06:09:11Z</time></trkpt><trkpt lat="33.237320" lon="35.572412"><ele>375.317</ele><time>2014-01-17T06:09:13Z</time></trkpt><trkpt lat="33.237300" lon="35.572564"><ele>374.607</ele><time>2014-01-17T06:09:15Z</time></trkpt><trkpt lat="33.237290" lon="35.572696"><ele>374.143</ele><time>2014-01-17T06:09:17Z</time></trkpt><trkpt lat="33.237232" lon="35.572787"><ele>373.667</ele><time>2014-01-17T06:09:19Z</time></trkpt><trkpt lat="33.237142" lon="35.572880"><ele>372.885</ele><time>2014-01-17T06:09:21Z</time></trkpt><trkpt lat="33.237064" lon="35.572939"><ele>371.689</ele><time>2014-01-17T06:09:23Z</time></trkpt><trkpt lat="33.236999" lon="35.573013"><ele>370.669</ele><time>2014-01-17T06:09:25Z</time></trkpt><trkpt lat="33.236986" lon="35.573165"><ele>368.794</ele><time>2014-01-17T06:09:29Z</time></trkpt><trkpt lat="33.236964" lon="35.573243"><ele>367.781</ele><time>2014-01-17T06:09:39Z</time></trkpt><trkpt lat="33.236964" lon="35.573243"><ele>367.724</ele><time>2014-01-17T06:10:19Z</time></trkpt><trkpt lat="33.236937" lon="35.573350"><ele>364.204</ele><time>2014-01-17T06:10:22Z</time></trkpt><trkpt lat="33.236971" lon="35.573490"><ele>363.214</ele><time>2014-01-17T06:10:27Z</time></trkpt><trkpt lat="33.237040" lon="35.573586"><ele>362.107</ele><time>2014-01-17T06:10:30Z</time></trkpt><trkpt lat="33.237045" lon="35.573731"><ele>360.357</ele><time>2014-01-17T06:10:33Z</time></trkpt><trkpt lat="33.237024" lon="35.573851"><ele>360.541</ele><time>2014-01-17T06:10:36Z</time></trkpt><trkpt lat="33.236971" lon="35.573947"><ele>360.489</ele><time>2014-01-17T06:10:39Z</time></trkpt><trkpt lat="33.236924" lon="35.574048"><ele>360.093</ele><time>2014-01-17T06:10:42Z</time></trkpt><trkpt lat="33.236853" lon="35.574159"><ele>359.323</ele><time>2014-01-17T06:10:45Z</time></trkpt><trkpt lat="33.236794" lon="35.574253"><ele>359.198</ele><time>2014-01-17T06:10:47Z</time></trkpt><trkpt lat="33.236699" lon="35.574343"><ele>359.165</ele><time>2014-01-17T06:10:49Z</time></trkpt><trkpt lat="33.236601" lon="35.574415"><ele>359.195</ele><time>2014-01-17T06:10:51Z</time></trkpt><trkpt lat="33.236515" lon="35.574467"><ele>358.949</ele><time>2014-01-17T06:10:53Z</time></trkpt><trkpt lat="33.236392" lon="35.574500"><ele>359.223</ele><time>2014-01-17T06:10:56Z</time></trkpt><trkpt lat="33.236302" lon="35.574510"><ele>359.407</ele><time>2014-01-17T06:10:58Z</time></trkpt><trkpt lat="33.236182" lon="35.574535"><ele>360.284</ele><time>2014-01-17T06:11:01Z</time></trkpt><trkpt lat="33.236055" lon="35.574535"><ele>360.368</ele><time>2014-01-17T06:11:04Z</time></trkpt><trkpt lat="33.235957" lon="35.574539"><ele>360.366</ele><time>2014-01-17T06:11:06Z</time></trkpt><trkpt lat="33.235839" lon="35.574552"><ele>360.160</ele><time>2014-01-17T06:11:08Z</time></trkpt><trkpt lat="33.235731" lon="35.574543"><ele>360.070</ele><time>2014-01-17T06:11:10Z</time></trkpt><trkpt lat="33.235633" lon="35.574544"><ele>360.265</ele><time>2014-01-17T06:11:13Z</time></trkpt><trkpt lat="33.235533" lon="35.574559"><ele>360.032</ele><time>2014-01-17T06:11:16Z</time></trkpt><trkpt lat="33.235432" lon="35.574545"><ele>360.369</ele><time>2014-01-17T06:11:18Z</time></trkpt><trkpt lat="33.235324" lon="35.574517"><ele>360.504</ele><time>2014-01-17T06:11:20Z</time></trkpt><trkpt lat="33.235232" lon="35.574485"><ele>361.124</ele><time>2014-01-17T06:11:22Z</time></trkpt><trkpt lat="33.235137" lon="35.574451"><ele>360.807</ele><time>2014-01-17T06:11:24Z</time></trkpt><trkpt lat="33.235013" lon="35.574437"><ele>361.071</ele><time>2014-01-17T06:11:27Z</time></trkpt><trkpt lat="33.234895" lon="35.574420"><ele>361.055</ele><time>2014-01-17T06:11:29Z</time></trkpt><trkpt lat="33.234799" lon="35.574368"><ele>360.833</ele><time>2014-01-17T06:11:31Z</time></trkpt><trkpt lat="33.234685" lon="35.574286"><ele>361.067</ele><time>2014-01-17T06:11:34Z</time></trkpt><trkpt lat="33.234605" lon="35.574238"><ele>360.927</ele><time>2014-01-17T06:11:36Z</time></trkpt><trkpt lat="33.234497" lon="35.574149"><ele>361.352</ele><time>2014-01-17T06:11:39Z</time></trkpt><trkpt lat="33.234407" lon="35.574053"><ele>361.229</ele><time>2014-01-17T06:11:42Z</time></trkpt><trkpt lat="33.234336" lon="35.573957"><ele>361.372</ele><time>2014-01-17T06:11:45Z</time></trkpt><trkpt lat="33.234255" lon="35.573870"><ele>361.213</ele><time>2014-01-17T06:11:49Z</time></trkpt><trkpt lat="33.234170" lon="35.573825"><ele>361.114</ele><time>2014-01-17T06:11:52Z</time></trkpt><trkpt lat="33.234081" lon="35.573726"><ele>361.407</ele><time>2014-01-17T06:11:55Z</time></trkpt><trkpt lat="33.234009" lon="35.573626"><ele>361.752</ele><time>2014-01-17T06:11:58Z</time></trkpt><trkpt lat="33.233947" lon="35.573540"><ele>362.066</ele><time>2014-01-17T06:12:01Z</time></trkpt><trkpt lat="33.233885" lon="35.573449"><ele>362.224</ele><time>2014-01-17T06:12:04Z</time></trkpt><trkpt lat="33.233892" lon="35.573321"><ele>362.358</ele><time>2014-01-17T06:12:09Z</time></trkpt><trkpt lat="33.233973" lon="35.573239"><ele>361.948</ele><time>2014-01-17T06:12:13Z</time></trkpt><trkpt lat="33.234092" lon="35.573246"><ele>363.193</ele><time>2014-01-17T06:12:18Z</time></trkpt><trkpt lat="33.234184" lon="35.573308"><ele>363.870</ele><time>2014-01-17T06:12:21Z</time></trkpt><trkpt lat="33.234289" lon="35.573357"><ele>364.125</ele><time>2014-01-17T06:12:24Z</time></trkpt><trkpt lat="33.234399" lon="35.573376"><ele>364.226</ele><time>2014-01-17T06:12:27Z</time></trkpt><trkpt lat="33.234505" lon="35.573430"><ele>364.408</ele><time>2014-01-17T06:12:31Z</time></trkpt><trkpt lat="33.234622" lon="35.573485"><ele>364.707</ele><time>2014-01-17T06:12:34Z</time></trkpt><trkpt lat="33.234706" lon="35.573532"><ele>365.327</ele><time>2014-01-17T06:12:38Z</time></trkpt><trkpt lat="33.234773" lon="35.573644"><ele>365.181</ele><time>2014-01-17T06:12:42Z</time></trkpt><trkpt lat="33.234829" lon="35.573765"><ele>365.439</ele><time>2014-01-17T06:12:46Z</time></trkpt><trkpt lat="33.234903" lon="35.573836"><ele>366.053</ele><time>2014-01-17T06:12:49Z</time></trkpt><trkpt lat="33.234987" lon="35.573892"><ele>366.733</ele><time>2014-01-17T06:12:52Z</time></trkpt><trkpt lat="33.235077" lon="35.573914"><ele>367.798</ele><time>2014-01-17T06:12:56Z</time></trkpt><trkpt lat="33.235169" lon="35.573946"><ele>367.845</ele><time>2014-01-17T06:13:00Z</time></trkpt><trkpt lat="33.235256" lon="35.573990"><ele>368.481</ele><time>2014-01-17T06:13:03Z</time></trkpt><trkpt lat="33.235370" lon="35.574023"><ele>368.861</ele><time>2014-01-17T06:13:06Z</time></trkpt><trkpt lat="33.235484" lon="35.574022"><ele>368.817</ele><time>2014-01-17T06:13:10Z</time></trkpt><trkpt lat="33.235609" lon="35.574023"><ele>369.007</ele><time>2014-01-17T06:13:13Z</time></trkpt><trkpt lat="33.235721" lon="35.573977"><ele>369.533</ele><time>2014-01-17T06:13:16Z</time></trkpt><trkpt lat="33.235780" lon="35.573868"><ele>369.277</ele><time>2014-01-17T06:13:20Z</time></trkpt><trkpt lat="33.235827" lon="35.573748"><ele>368.995</ele><time>2014-01-17T06:13:24Z</time></trkpt><trkpt lat="33.235844" lon="35.573629"><ele>369.369</ele><time>2014-01-17T06:13:29Z</time></trkpt><trkpt lat="33.235752" lon="35.573597"><ele>371.359</ele><time>2014-01-17T06:13:36Z</time></trkpt><trkpt lat="33.235650" lon="35.573585"><ele>371.954</ele><time>2014-01-17T06:13:42Z</time></trkpt><trkpt lat="33.235570" lon="35.573500"><ele>373.851</ele><time>2014-01-17T06:13:47Z</time></trkpt><trkpt lat="33.235535" lon="35.573380"><ele>374.157</ele><time>2014-01-17T06:13:51Z</time></trkpt><trkpt lat="33.235443" lon="35.573315"><ele>374.400</ele><time>2014-01-17T06:13:55Z</time></trkpt><trkpt lat="33.235363" lon="35.573241"><ele>375.420</ele><time>2014-01-17T06:13:59Z</time></trkpt><trkpt lat="33.235268" lon="35.573235"><ele>375.507</ele><time>2014-01-17T06:14:03Z</time></trkpt><trkpt lat="33.235188" lon="35.573173"><ele>375.820</ele><time>2014-01-17T06:14:07Z</time></trkpt><trkpt lat="33.235110" lon="35.573087"><ele>376.354</ele><time>2014-01-17T06:14:11Z</time></trkpt><trkpt lat="33.234970" lon="35.572855"><ele>376.812</ele><time>2014-01-17T06:14:22Z</time></trkpt><trkpt lat="33.234923" lon="35.572757"><ele>376.436</ele><time>2014-01-17T06:14:24Z</time></trkpt><trkpt lat="33.234883" lon="35.572629"><ele>375.986</ele><time>2014-01-17T06:14:26Z</time></trkpt><trkpt lat="33.234830" lon="35.572493"><ele>375.111</ele><time>2014-01-17T06:14:28Z</time></trkpt><trkpt lat="33.234752" lon="35.572436"><ele>376.078</ele><time>2014-01-17T06:14:30Z</time></trkpt><trkpt lat="33.234637" lon="35.572507"><ele>375.967</ele><time>2014-01-17T06:14:33Z</time></trkpt><trkpt lat="33.234518" lon="35.572599"><ele>374.581</ele><time>2014-01-17T06:14:36Z</time></trkpt><trkpt lat="33.234450" lon="35.572701"><ele>374.719</ele><time>2014-01-17T06:14:38Z</time></trkpt><trkpt lat="33.234323" lon="35.572750"><ele>374.107</ele><time>2014-01-17T06:14:41Z</time></trkpt><trkpt lat="33.234212" lon="35.572756"><ele>374.421</ele><time>2014-01-17T06:14:43Z</time></trkpt><trkpt lat="33.234120" lon="35.572711"><ele>374.455</ele><time>2014-01-17T06:14:45Z</time></trkpt><trkpt lat="33.234033" lon="35.572585"><ele>373.723</ele><time>2014-01-17T06:14:47Z</time></trkpt><trkpt lat="33.233980" lon="35.572456"><ele>373.147</ele><time>2014-01-17T06:14:49Z</time></trkpt><trkpt lat="33.233915" lon="35.572313"><ele>372.917</ele><time>2014-01-17T06:14:52Z</time></trkpt><trkpt lat="33.233835" lon="35.572188"><ele>372.482</ele><time>2014-01-17T06:14:54Z</time></trkpt><trkpt lat="33.233811" lon="35.572063"><ele>371.889</ele><time>2014-01-17T06:14:56Z</time></trkpt><trkpt lat="33.233843" lon="35.571937"><ele>371.199</ele><time>2014-01-17T06:14:58Z</time></trkpt><trkpt lat="33.233824" lon="35.571802"><ele>370.907</ele><time>2014-01-17T06:15:01Z</time></trkpt><trkpt lat="33.233738" lon="35.571696"><ele>370.027</ele><time>2014-01-17T06:15:05Z</time></trkpt><trkpt lat="33.233645" lon="35.571660"><ele>369.807</ele><time>2014-01-17T06:15:07Z</time></trkpt><trkpt lat="33.233544" lon="35.571667"><ele>369.544</ele><time>2014-01-17T06:15:09Z</time></trkpt><trkpt lat="33.233436" lon="35.571658"><ele>369.128</ele><time>2014-01-17T06:15:11Z</time></trkpt><trkpt lat="33.233354" lon="35.571610"><ele>368.526</ele><time>2014-01-17T06:15:13Z</time></trkpt><trkpt lat="33.233253" lon="35.571578"><ele>367.660</ele><time>2014-01-17T06:15:19Z</time></trkpt><trkpt lat="33.233134" lon="35.571617"><ele>366.410</ele><time>2014-01-17T06:15:21Z</time></trkpt><trkpt lat="33.233035" lon="35.571638"><ele>364.795</ele><time>2014-01-17T06:15:22Z</time></trkpt><trkpt lat="33.232883" lon="35.571620"><ele>363.992</ele><time>2014-01-17T06:15:24Z</time></trkpt><trkpt lat="33.232776" lon="35.571565"><ele>363.927</ele><time>2014-01-17T06:15:26Z</time></trkpt><trkpt lat="33.232666" lon="35.571498"><ele>363.768</ele><time>2014-01-17T06:15:28Z</time></trkpt><trkpt lat="33.232554" lon="35.571450"><ele>363.414</ele><time>2014-01-17T06:15:30Z</time></trkpt><trkpt lat="33.232478" lon="35.571355"><ele>363.207</ele><time>2014-01-17T06:15:32Z</time></trkpt><trkpt lat="33.232461" lon="35.571227"><ele>363.257</ele><time>2014-01-17T06:15:35Z</time></trkpt><trkpt lat="33.232395" lon="35.571121"><ele>363.061</ele><time>2014-01-17T06:15:38Z</time></trkpt><trkpt lat="33.232314" lon="35.570975"><ele>362.499</ele><time>2014-01-17T06:15:40Z</time></trkpt><trkpt lat="33.232254" lon="35.570878"><ele>362.473</ele><time>2014-01-17T06:15:41Z</time></trkpt><trkpt lat="33.232186" lon="35.570712"><ele>362.853</ele><time>2014-01-17T06:15:43Z</time></trkpt><trkpt lat="33.232067" lon="35.570604"><ele>362.358</ele><time>2014-01-17T06:15:46Z</time></trkpt><trkpt lat="33.231951" lon="35.570552"><ele>361.745</ele><time>2014-01-17T06:15:48Z</time></trkpt><trkpt lat="33.231889" lon="35.570448"><ele>360.837</ele><time>2014-01-17T06:15:50Z</time></trkpt><trkpt lat="33.231899" lon="35.570336"><ele>358.549</ele><time>2014-01-17T06:15:52Z</time></trkpt><trkpt lat="33.231937" lon="35.570227"><ele>357.513</ele><time>2014-01-17T06:15:54Z</time></trkpt><trkpt lat="33.232001" lon="35.570092"><ele>356.307</ele><time>2014-01-17T06:15:57Z</time></trkpt><trkpt lat="33.232070" lon="35.570018"><ele>354.798</ele><time>2014-01-17T06:15:59Z</time></trkpt><trkpt lat="33.232156" lon="35.569918"><ele>352.682</ele><time>2014-01-17T06:16:02Z</time></trkpt><trkpt lat="33.232229" lon="35.569817"><ele>351.890</ele><time>2014-01-17T06:16:06Z</time></trkpt><trkpt lat="33.232258" lon="35.569699"><ele>351.284</ele><time>2014-01-17T06:16:10Z</time></trkpt><trkpt lat="33.232256" lon="35.569583"><ele>351.124</ele><time>2014-01-17T06:16:14Z</time></trkpt><trkpt lat="33.232263" lon="35.569452"><ele>350.419</ele><time>2014-01-17T06:16:18Z</time></trkpt><trkpt lat="33.232319" lon="35.569344"><ele>351.276</ele><time>2014-01-17T06:16:23Z</time></trkpt><trkpt lat="33.232374" lon="35.569320"><ele>351.757</ele><time>2014-01-17T06:16:33Z</time></trkpt><trkpt lat="33.232626" lon="35.569317"><ele>354.400</ele><time>2014-01-17T06:16:38Z</time></trkpt><trkpt lat="33.232729" lon="35.569356"><ele>354.920</ele><time>2014-01-17T06:16:41Z</time></trkpt><trkpt lat="33.232812" lon="35.569420"><ele>354.007</ele><time>2014-01-17T06:16:43Z</time></trkpt><trkpt lat="33.232919" lon="35.569505"><ele>354.950</ele><time>2014-01-17T06:16:46Z</time></trkpt><trkpt lat="33.233014" lon="35.569570"><ele>355.644</ele><time>2014-01-17T06:16:49Z</time></trkpt><trkpt lat="33.233091" lon="35.569599"><ele>355.682</ele><time>2014-01-17T06:16:59Z</time></trkpt><trkpt lat="33.233081" lon="35.569303"><ele>356.376</ele><time>2014-01-17T06:17:14Z</time></trkpt><trkpt lat="33.232994" lon="35.569240"><ele>356.866</ele><time>2014-01-17T06:17:18Z</time></trkpt><trkpt lat="33.232929" lon="35.569145"><ele>357.241</ele><time>2014-01-17T06:17:22Z</time></trkpt><trkpt lat="33.232816" lon="35.569107"><ele>357.248</ele><time>2014-01-17T06:17:26Z</time></trkpt><trkpt lat="33.232711" lon="35.569026"><ele>358.398</ele><time>2014-01-17T06:17:29Z</time></trkpt><trkpt lat="33.232621" lon="35.568946"><ele>358.315</ele><time>2014-01-17T06:17:32Z</time></trkpt><trkpt lat="33.232515" lon="35.568884"><ele>357.126</ele><time>2014-01-17T06:17:34Z</time></trkpt><trkpt lat="33.232375" lon="35.568851"><ele>358.007</ele><time>2014-01-17T06:17:36Z</time></trkpt><trkpt lat="33.232268" lon="35.568821"><ele>358.744</ele><time>2014-01-17T06:17:38Z</time></trkpt><trkpt lat="33.232174" lon="35.568788"><ele>359.528</ele><time>2014-01-17T06:17:41Z</time></trkpt><trkpt lat="33.232087" lon="35.568742"><ele>359.936</ele><time>2014-01-17T06:17:44Z</time></trkpt><trkpt lat="33.231998" lon="35.568715"><ele>359.280</ele><time>2014-01-17T06:17:48Z</time></trkpt><trkpt lat="33.231891" lon="35.568665"><ele>359.280</ele><time>2014-01-17T06:17:52Z</time></trkpt><trkpt lat="33.231799" lon="35.568634"><ele>360.735</ele><time>2014-01-17T06:17:55Z</time></trkpt><trkpt lat="33.231697" lon="35.568602"><ele>361.312</ele><time>2014-01-17T06:17:58Z</time></trkpt><trkpt lat="33.231600" lon="35.568580"><ele>361.111</ele><time>2014-01-17T06:18:01Z</time></trkpt><trkpt lat="33.231519" lon="35.568501"><ele>361.421</ele><time>2014-01-17T06:18:04Z</time></trkpt><trkpt lat="33.231450" lon="35.568393"><ele>361.003</ele><time>2014-01-17T06:18:07Z</time></trkpt><trkpt lat="33.231392" lon="35.568258"><ele>360.807</ele><time>2014-01-17T06:18:10Z</time></trkpt><trkpt lat="33.231326" lon="35.568143"><ele>360.586</ele><time>2014-01-17T06:18:12Z</time></trkpt><trkpt lat="33.231237" lon="35.568034"><ele>360.170</ele><time>2014-01-17T06:18:14Z</time></trkpt><trkpt lat="33.231130" lon="35.567902"><ele>359.648</ele><time>2014-01-17T06:18:16Z</time></trkpt><trkpt lat="33.231108" lon="35.567789"><ele>359.482</ele><time>2014-01-17T06:18:18Z</time></trkpt><trkpt lat="33.231125" lon="35.567639"><ele>359.552</ele><time>2014-01-17T06:18:21Z</time></trkpt><trkpt lat="33.231113" lon="35.567529"><ele>360.367</ele><time>2014-01-17T06:18:24Z</time></trkpt><trkpt lat="33.231097" lon="35.567391"><ele>360.164</ele><time>2014-01-17T06:18:27Z</time></trkpt><trkpt lat="33.231106" lon="35.567268"><ele>360.065</ele><time>2014-01-17T06:18:31Z</time></trkpt><trkpt lat="33.231131" lon="35.567154"><ele>361.068</ele><time>2014-01-17T06:18:36Z</time></trkpt><trkpt lat="33.231155" lon="35.567042"><ele>360.614</ele><time>2014-01-17T06:18:41Z</time></trkpt><trkpt lat="33.231162" lon="35.566933"><ele>362.507</ele><time>2014-01-17T06:18:46Z</time></trkpt><trkpt lat="33.231128" lon="35.566822"><ele>363.791</ele><time>2014-01-17T06:18:50Z</time></trkpt><trkpt lat="33.231092" lon="35.566708"><ele>364.935</ele><time>2014-01-17T06:18:56Z</time></trkpt><trkpt lat="33.231016" lon="35.566545"><ele>365.683</ele><time>2014-01-17T06:19:07Z</time></trkpt><trkpt lat="33.231068" lon="35.566559"><ele>366.947</ele><time>2014-01-17T06:19:30Z</time></trkpt><trkpt lat="33.231105" lon="35.566573"><ele>369.177</ele><time>2014-01-17T06:20:10Z</time></trkpt><trkpt lat="33.231116" lon="35.566579"><ele>368.912</ele><time>2014-01-17T06:20:50Z</time></trkpt><trkpt lat="33.231061" lon="35.566558"><ele>370.759</ele><time>2014-01-17T06:21:29Z</time></trkpt><trkpt lat="33.231045" lon="35.566523"><ele>370.836</ele><time>2014-01-17T06:22:09Z</time></trkpt><trkpt lat="33.231045" lon="35.566523"><ele>370.817</ele><time>2014-01-17T06:22:49Z</time></trkpt><trkpt lat="33.231045" lon="35.566523"><ele>370.818</ele><time>2014-01-17T06:23:29Z</time></trkpt><trkpt lat="33.231134" lon="35.566565"><ele>368.607</ele><time>2014-01-17T06:23:52Z</time></trkpt><trkpt lat="33.231060" lon="35.566471"><ele>368.688</ele><time>2014-01-17T06:23:57Z</time></trkpt><trkpt lat="33.230988" lon="35.566392"><ele>369.282</ele><time>2014-01-17T06:24:01Z</time></trkpt><trkpt lat="33.230943" lon="35.566297"><ele>369.620</ele><time>2014-01-17T06:24:07Z</time></trkpt><trkpt lat="33.230909" lon="35.566182"><ele>369.584</ele><time>2014-01-17T06:24:12Z</time></trkpt><trkpt lat="33.230829" lon="35.566126"><ele>370.764</ele><time>2014-01-17T06:24:17Z</time></trkpt><trkpt lat="33.230727" lon="35.566086"><ele>372.069</ele><time>2014-01-17T06:24:22Z</time></trkpt><trkpt lat="33.230608" lon="35.566033"><ele>373.556</ele><time>2014-01-17T06:24:27Z</time></trkpt><trkpt lat="33.230524" lon="35.565966"><ele>374.394</ele><time>2014-01-17T06:24:30Z</time></trkpt><trkpt lat="33.230463" lon="35.565858"><ele>375.957</ele><time>2014-01-17T06:24:35Z</time></trkpt><trkpt lat="33.230402" lon="35.565770"><ele>377.222</ele><time>2014-01-17T06:24:38Z</time></trkpt><trkpt lat="33.230314" lon="35.565693"><ele>378.407</ele><time>2014-01-17T06:24:41Z</time></trkpt><trkpt lat="33.230225" lon="35.565628"><ele>380.294</ele><time>2014-01-17T06:24:45Z</time></trkpt><trkpt lat="33.230148" lon="35.565544"><ele>380.188</ele><time>2014-01-17T06:24:49Z</time></trkpt><trkpt lat="33.230068" lon="35.565471"><ele>380.296</ele><time>2014-01-17T06:24:53Z</time></trkpt><trkpt lat="33.229982" lon="35.565460"><ele>385.230</ele><time>2014-01-17T06:25:13Z</time></trkpt><trkpt lat="33.230026" lon="35.565498"><ele>385.690</ele><time>2014-01-17T06:25:23Z</time></trkpt><trkpt lat="33.230160" lon="35.565461"><ele>384.955</ele><time>2014-01-17T06:25:27Z</time></trkpt><trkpt lat="33.230160" lon="35.565322"><ele>387.252</ele><time>2014-01-17T06:25:33Z</time></trkpt><trkpt lat="33.230151" lon="35.565212"><ele>387.493</ele><time>2014-01-17T06:25:39Z</time></trkpt><trkpt lat="33.230151" lon="35.565086"><ele>388.365</ele><time>2014-01-17T06:25:46Z</time></trkpt><trkpt lat="33.230159" lon="35.564935"><ele>391.021</ele><time>2014-01-17T06:25:54Z</time></trkpt><trkpt lat="33.230153" lon="35.564800"><ele>392.307</ele><time>2014-01-17T06:25:58Z</time></trkpt><trkpt lat="33.230194" lon="35.564701"><ele>391.984</ele><time>2014-01-17T06:26:02Z</time></trkpt><trkpt lat="33.230235" lon="35.564584"><ele>391.138</ele><time>2014-01-17T06:26:07Z</time></trkpt><trkpt lat="33.230274" lon="35.564457"><ele>394.366</ele><time>2014-01-17T06:26:20Z</time></trkpt><trkpt lat="33.230314" lon="35.564329"><ele>395.650</ele><time>2014-01-17T06:26:24Z</time></trkpt><trkpt lat="33.230362" lon="35.564251"><ele>398.630</ele><time>2014-01-17T06:26:34Z</time></trkpt><trkpt lat="33.230412" lon="35.564144"><ele>401.295</ele><time>2014-01-17T06:26:36Z</time></trkpt><trkpt lat="33.230434" lon="35.564024"><ele>401.342</ele><time>2014-01-17T06:26:39Z</time></trkpt><trkpt lat="33.230458" lon="35.563920"><ele>401.349</ele><time>2014-01-17T06:26:41Z</time></trkpt><trkpt lat="33.230469" lon="35.563777"><ele>402.002</ele><time>2014-01-17T06:26:44Z</time></trkpt><trkpt lat="33.230474" lon="35.563642"><ele>402.322</ele><time>2014-01-17T06:26:48Z</time></trkpt><trkpt lat="33.230478" lon="35.563509"><ele>402.207</ele><time>2014-01-17T06:26:52Z</time></trkpt><trkpt lat="33.230466" lon="35.563341"><ele>401.959</ele><time>2014-01-17T06:26:59Z</time></trkpt><trkpt lat="33.230413" lon="35.563227"><ele>402.793</ele><time>2014-01-17T06:27:03Z</time></trkpt><trkpt lat="33.230344" lon="35.563144"><ele>403.991</ele><time>2014-01-17T06:27:07Z</time></trkpt><trkpt lat="33.230266" lon="35.563090"><ele>405.275</ele><time>2014-01-17T06:27:10Z</time></trkpt><trkpt lat="33.230174" lon="35.563058"><ele>406.095</ele><time>2014-01-17T06:27:15Z</time></trkpt><trkpt lat="33.230066" lon="35.563045"><ele>407.230</ele><time>2014-01-17T06:27:17Z</time></trkpt><trkpt lat="33.229964" lon="35.563059"><ele>408.887</ele><time>2014-01-17T06:27:19Z</time></trkpt><trkpt lat="33.229870" lon="35.563075"><ele>410.564</ele><time>2014-01-17T06:27:22Z</time></trkpt><trkpt lat="33.229760" lon="35.563114"><ele>411.806</ele><time>2014-01-17T06:27:26Z</time></trkpt><trkpt lat="33.229662" lon="35.563153"><ele>413.316</ele><time>2014-01-17T06:27:30Z</time></trkpt><trkpt lat="33.229557" lon="35.563206"><ele>413.407</ele><time>2014-01-17T06:27:34Z</time></trkpt><trkpt lat="33.229453" lon="35.563239"><ele>414.051</ele><time>2014-01-17T06:27:38Z</time></trkpt><trkpt lat="33.229364" lon="35.563275"><ele>416.235</ele><time>2014-01-17T06:27:41Z</time></trkpt><trkpt lat="33.229248" lon="35.563307"><ele>416.433</ele><time>2014-01-17T06:27:44Z</time></trkpt><trkpt lat="33.229157" lon="35.563322"><ele>415.747</ele><time>2014-01-17T06:27:47Z</time></trkpt><trkpt lat="33.229039" lon="35.563301"><ele>414.137</ele><time>2014-01-17T06:27:50Z</time></trkpt><trkpt lat="33.228928" lon="35.563329"><ele>412.242</ele><time>2014-01-17T06:27:53Z</time></trkpt><trkpt lat="33.228814" lon="35.563332"><ele>411.619</ele><time>2014-01-17T06:27:56Z</time></trkpt><trkpt lat="33.228707" lon="35.563292"><ele>411.842</ele><time>2014-01-17T06:27:59Z</time></trkpt><trkpt lat="33.228593" lon="35.563250"><ele>411.522</ele><time>2014-01-17T06:28:02Z</time></trkpt><trkpt lat="33.228482" lon="35.563172"><ele>410.414</ele><time>2014-01-17T06:28:05Z</time></trkpt><trkpt lat="33.228406" lon="35.563112"><ele>409.807</ele><time>2014-01-17T06:28:08Z</time></trkpt><trkpt lat="33.228313" lon="35.563039"><ele>409.319</ele><time>2014-01-17T06:28:12Z</time></trkpt><trkpt lat="33.228235" lon="35.562944"><ele>408.933</ele><time>2014-01-17T06:28:16Z</time></trkpt><trkpt lat="33.228151" lon="35.562866"><ele>408.451</ele><time>2014-01-17T06:28:19Z</time></trkpt><trkpt lat="33.228100" lon="35.562777"><ele>408.035</ele><time>2014-01-17T06:28:22Z</time></trkpt><trkpt lat="33.228024" lon="35.562662"><ele>408.215</ele><time>2014-01-17T06:28:25Z</time></trkpt><trkpt lat="33.227922" lon="35.562569"><ele>408.290</ele><time>2014-01-17T06:28:28Z</time></trkpt><trkpt lat="33.227833" lon="35.562461"><ele>407.297</ele><time>2014-01-17T06:28:31Z</time></trkpt><trkpt lat="33.227758" lon="35.562398"><ele>407.034</ele><time>2014-01-17T06:28:33Z</time></trkpt><trkpt lat="33.227677" lon="35.562304"><ele>407.155</ele><time>2014-01-17T06:28:37Z</time></trkpt><trkpt lat="33.227557" lon="35.562255"><ele>407.310</ele><time>2014-01-17T06:28:40Z</time></trkpt><trkpt lat="33.227449" lon="35.562293"><ele>407.907</ele><time>2014-01-17T06:28:42Z</time></trkpt><trkpt lat="33.227329" lon="35.562338"><ele>409.088</ele><time>2014-01-17T06:28:44Z</time></trkpt><trkpt lat="33.227246" lon="35.562407"><ele>410.122</ele><time>2014-01-17T06:28:46Z</time></trkpt><trkpt lat="33.227175" lon="35.562487"><ele>410.340</ele><time>2014-01-17T06:28:48Z</time></trkpt><trkpt lat="33.227081" lon="35.562578"><ele>411.064</ele><time>2014-01-17T06:28:51Z</time></trkpt><trkpt lat="33.227015" lon="35.562672"><ele>411.614</ele><time>2014-01-17T06:28:54Z</time></trkpt><trkpt lat="33.226885" lon="35.562726"><ele>412.759</ele><time>2014-01-17T06:28:57Z</time></trkpt><trkpt lat="33.226812" lon="35.562794"><ele>412.736</ele><time>2014-01-17T06:28:59Z</time></trkpt><trkpt lat="33.226715" lon="35.562812"><ele>412.879</ele><time>2014-01-17T06:29:01Z</time></trkpt><trkpt lat="33.226608" lon="35.562817"><ele>413.305</ele><time>2014-01-17T06:29:04Z</time></trkpt><trkpt lat="33.226492" lon="35.562814"><ele>414.125</ele><time>2014-01-17T06:29:07Z</time></trkpt><trkpt lat="33.226378" lon="35.562793"><ele>412.907</ele><time>2014-01-17T06:29:09Z</time></trkpt><trkpt lat="33.226313" lon="35.562709"><ele>411.632</ele><time>2014-01-17T06:29:12Z</time></trkpt><trkpt lat="33.226270" lon="35.562603"><ele>411.796</ele><time>2014-01-17T06:29:15Z</time></trkpt><trkpt lat="33.226225" lon="35.562503"><ele>412.664</ele><time>2014-01-17T06:29:18Z</time></trkpt><trkpt lat="33.226168" lon="35.562408"><ele>413.278</ele><time>2014-01-17T06:29:22Z</time></trkpt><trkpt lat="33.226064" lon="35.562359"><ele>412.248</ele><time>2014-01-17T06:29:26Z</time></trkpt><trkpt lat="33.225976" lon="35.562298"><ele>408.113</ele><time>2014-01-17T06:29:32Z</time></trkpt><trkpt lat="33.225922" lon="35.562255"><ele>406.910</ele><time>2014-01-17T06:29:42Z</time></trkpt><trkpt lat="33.225831" lon="35.562190"><ele>405.367</ele><time>2014-01-17T06:30:17Z</time></trkpt><trkpt lat="33.225748" lon="35.562120"><ele>404.581</ele><time>2014-01-17T06:30:21Z</time></trkpt><trkpt lat="33.225628" lon="35.562136"><ele>403.919</ele><time>2014-01-17T06:30:24Z</time></trkpt><trkpt lat="33.225523" lon="35.562200"><ele>402.507</ele><time>2014-01-17T06:30:27Z</time></trkpt><trkpt lat="33.225416" lon="35.562255"><ele>401.781</ele><time>2014-01-17T06:30:30Z</time></trkpt><trkpt lat="33.225328" lon="35.562336"><ele>401.185</ele><time>2014-01-17T06:30:34Z</time></trkpt><trkpt lat="33.225240" lon="35.562385"><ele>400.663</ele><time>2014-01-17T06:30:37Z</time></trkpt><trkpt lat="33.225161" lon="35.562458"><ele>401.327</ele><time>2014-01-17T06:30:40Z</time></trkpt><trkpt lat="33.225092" lon="35.562560"><ele>402.127</ele><time>2014-01-17T06:30:43Z</time></trkpt><trkpt lat="33.225046" lon="35.562652"><ele>402.852</ele><time>2014-01-17T06:30:46Z</time></trkpt><trkpt lat="33.224983" lon="35.562735"><ele>402.429</ele><time>2014-01-17T06:30:49Z</time></trkpt><trkpt lat="33.224914" lon="35.562839"><ele>401.018</ele><time>2014-01-17T06:30:52Z</time></trkpt><trkpt lat="33.224850" lon="35.562952"><ele>399.698</ele><time>2014-01-17T06:30:55Z</time></trkpt><trkpt lat="33.224772" lon="35.563050"><ele>398.917</ele><time>2014-01-17T06:30:58Z</time></trkpt><trkpt lat="33.224693" lon="35.563150"><ele>398.107</ele><time>2014-01-17T06:31:01Z</time></trkpt><trkpt lat="33.224619" lon="35.563243"><ele>397.426</ele><time>2014-01-17T06:31:04Z</time></trkpt><trkpt lat="33.224539" lon="35.563362"><ele>396.640</ele><time>2014-01-17T06:31:07Z</time></trkpt><trkpt lat="33.224448" lon="35.563386"><ele>396.798</ele><time>2014-01-17T06:31:09Z</time></trkpt><trkpt lat="33.224338" lon="35.563400"><ele>397.832</ele><time>2014-01-17T06:31:13Z</time></trkpt><trkpt lat="33.224216" lon="35.563417"><ele>398.982</ele><time>2014-01-17T06:31:16Z</time></trkpt><trkpt lat="33.224088" lon="35.563399"><ele>397.947</ele><time>2014-01-17T06:31:19Z</time></trkpt><trkpt lat="33.223972" lon="35.563420"><ele>399.194</ele><time>2014-01-17T06:31:22Z</time></trkpt><trkpt lat="33.223883" lon="35.563402"><ele>399.196</ele><time>2014-01-17T06:31:24Z</time></trkpt><trkpt lat="33.223782" lon="35.563395"><ele>398.931</ele><time>2014-01-17T06:31:26Z</time></trkpt><trkpt lat="33.223681" lon="35.563381"><ele>398.524</ele><time>2014-01-17T06:31:28Z</time></trkpt><trkpt lat="33.223565" lon="35.563387"><ele>398.507</ele><time>2014-01-17T06:31:30Z</time></trkpt><trkpt lat="33.223447" lon="35.563377"><ele>398.254</ele><time>2014-01-17T06:31:32Z</time></trkpt><trkpt lat="33.223348" lon="35.563333"><ele>396.868</ele><time>2014-01-17T06:31:34Z</time></trkpt><trkpt lat="33.223266" lon="35.563216"><ele>395.496</ele><time>2014-01-17T06:31:37Z</time></trkpt><trkpt lat="33.223207" lon="35.563125"><ele>392.140</ele><time>2014-01-17T06:31:39Z</time></trkpt><trkpt lat="33.223129" lon="35.563040"><ele>390.820</ele><time>2014-01-17T06:31:41Z</time></trkpt><trkpt lat="33.223039" lon="35.563021"><ele>390.365</ele><time>2014-01-17T06:31:43Z</time></trkpt><trkpt lat="33.222907" lon="35.563051"><ele>389.252</ele><time>2014-01-17T06:31:46Z</time></trkpt><trkpt lat="33.222809" lon="35.563045"><ele>388.825</ele><time>2014-01-17T06:31:48Z</time></trkpt><trkpt lat="33.222715" lon="35.563007"><ele>388.726</ele><time>2014-01-17T06:31:50Z</time></trkpt><trkpt lat="33.222617" lon="35.562956"><ele>388.508</ele><time>2014-01-17T06:31:53Z</time></trkpt><trkpt lat="33.222500" lon="35.562953"><ele>386.807</ele><time>2014-01-17T06:31:59Z</time></trkpt><trkpt lat="33.222390" lon="35.562993"><ele>386.637</ele><time>2014-01-17T06:32:02Z</time></trkpt><trkpt lat="33.222277" lon="35.563057"><ele>386.141</ele><time>2014-01-17T06:32:05Z</time></trkpt><trkpt lat="33.222154" lon="35.563093"><ele>385.889</ele><time>2014-01-17T06:32:08Z</time></trkpt><trkpt lat="33.222068" lon="35.563126"><ele>385.673</ele><time>2014-01-17T06:32:10Z</time></trkpt><trkpt lat="33.221965" lon="35.563149"><ele>385.913</ele><time>2014-01-17T06:32:12Z</time></trkpt><trkpt lat="33.221846" lon="35.563125"><ele>386.098</ele><time>2014-01-17T06:32:15Z</time></trkpt><trkpt lat="33.221707" lon="35.563129"><ele>386.015</ele><time>2014-01-17T06:32:18Z</time></trkpt><trkpt lat="33.221593" lon="35.563070"><ele>385.965</ele><time>2014-01-17T06:32:21Z</time></trkpt><trkpt lat="33.221473" lon="35.563072"><ele>386.168</ele><time>2014-01-17T06:32:23Z</time></trkpt><trkpt lat="33.221331" lon="35.563116"><ele>386.514</ele><time>2014-01-17T06:32:25Z</time></trkpt><trkpt lat="33.221214" lon="35.563175"><ele>386.107</ele><time>2014-01-17T06:32:27Z</time></trkpt><trkpt lat="33.221117" lon="35.563147"><ele>385.911</ele><time>2014-01-17T06:32:30Z</time></trkpt><trkpt lat="33.221012" lon="35.563119"><ele>384.765</ele><time>2014-01-17T06:32:34Z</time></trkpt><trkpt lat="33.220921" lon="35.563134"><ele>384.543</ele><time>2014-01-17T06:32:36Z</time></trkpt><trkpt lat="33.220795" lon="35.563183"><ele>383.097</ele><time>2014-01-17T06:32:39Z</time></trkpt><trkpt lat="33.220675" lon="35.563224"><ele>382.377</ele><time>2014-01-17T06:32:42Z</time></trkpt><trkpt lat="33.220572" lon="35.563248"><ele>381.932</ele><time>2014-01-17T06:32:45Z</time></trkpt><trkpt lat="33.220476" lon="35.563235"><ele>381.569</ele><time>2014-01-17T06:32:48Z</time></trkpt><trkpt lat="33.220379" lon="35.563225"><ele>381.081</ele><time>2014-01-17T06:32:51Z</time></trkpt><trkpt lat="33.220255" lon="35.563193"><ele>380.961</ele><time>2014-01-17T06:32:55Z</time></trkpt><trkpt lat="33.220146" lon="35.563184"><ele>381.217</ele><time>2014-01-17T06:32:58Z</time></trkpt><trkpt lat="33.220020" lon="35.563163"><ele>380.807</ele><time>2014-01-17T06:33:01Z</time></trkpt><trkpt lat="33.219930" lon="35.563129"><ele>380.363</ele><time>2014-01-17T06:33:03Z</time></trkpt><trkpt lat="33.219831" lon="35.563089"><ele>380.577</ele><time>2014-01-17T06:33:06Z</time></trkpt><trkpt lat="33.219719" lon="35.563049"><ele>380.575</ele><time>2014-01-17T06:33:10Z</time></trkpt><trkpt lat="33.219619" lon="35.563032"><ele>380.859</ele><time>2014-01-17T06:33:13Z</time></trkpt><trkpt lat="33.219532" lon="35.562971"><ele>379.489</ele><time>2014-01-17T06:33:17Z</time></trkpt><trkpt lat="33.219468" lon="35.562875"><ele>378.144</ele><time>2014-01-17T06:33:21Z</time></trkpt><trkpt lat="33.219363" lon="35.562802"><ele>377.781</ele><time>2014-01-17T06:33:25Z</time></trkpt><trkpt lat="33.219246" lon="35.562748"><ele>377.944</ele><time>2014-01-17T06:33:28Z</time></trkpt><trkpt lat="33.219154" lon="35.562707"><ele>378.605</ele><time>2014-01-17T06:33:30Z</time></trkpt><trkpt lat="33.219076" lon="35.562623"><ele>377.815</ele><time>2014-01-17T06:33:34Z</time></trkpt><trkpt lat="33.218998" lon="35.562525"><ele>376.607</ele><time>2014-01-17T06:33:38Z</time></trkpt><trkpt lat="33.218899" lon="35.562443"><ele>376.719</ele><time>2014-01-17T06:33:42Z</time></trkpt><trkpt lat="33.218787" lon="35.562392"><ele>377.983</ele><time>2014-01-17T06:33:45Z</time></trkpt><trkpt lat="33.218688" lon="35.562424"><ele>379.131</ele><time>2014-01-17T06:33:48Z</time></trkpt><trkpt lat="33.218582" lon="35.562515"><ele>379.445</ele><time>2014-01-17T06:33:51Z</time></trkpt><trkpt lat="33.218490" lon="35.562526"><ele>379.755</ele><time>2014-01-17T06:33:53Z</time></trkpt><trkpt lat="33.218393" lon="35.562467"><ele>379.610</ele><time>2014-01-17T06:33:55Z</time></trkpt><trkpt lat="33.218321" lon="35.562381"><ele>379.167</ele><time>2014-01-17T06:33:57Z</time></trkpt><trkpt lat="33.218271" lon="35.562251"><ele>378.261</ele><time>2014-01-17T06:34:00Z</time></trkpt><trkpt lat="33.218220" lon="35.562157"><ele>377.221</ele><time>2014-01-17T06:34:03Z</time></trkpt><trkpt lat="33.218124" lon="35.562066"><ele>377.013</ele><time>2014-01-17T06:34:06Z</time></trkpt><trkpt lat="33.218032" lon="35.561982"><ele>376.807</ele><time>2014-01-17T06:34:08Z</time></trkpt><trkpt lat="33.217935" lon="35.561922"><ele>376.541</ele><time>2014-01-17T06:34:10Z</time></trkpt><trkpt lat="33.217839" lon="35.561951"><ele>376.545</ele><time>2014-01-17T06:34:12Z</time></trkpt><trkpt lat="33.217736" lon="35.561994"><ele>376.773</ele><time>2014-01-17T06:34:14Z</time></trkpt><trkpt lat="33.217630" lon="35.562011"><ele>376.587</ele><time>2014-01-17T06:34:16Z</time></trkpt><trkpt lat="33.217534" lon="35.562014"><ele>376.687</ele><time>2014-01-17T06:34:18Z</time></trkpt><trkpt lat="33.217421" lon="35.562005"><ele>376.762</ele><time>2014-01-17T06:34:21Z</time></trkpt><trkpt lat="33.217303" lon="35.562010"><ele>375.639</ele><time>2014-01-17T06:34:25Z</time></trkpt><trkpt lat="33.217210" lon="35.561993"><ele>375.633</ele><time>2014-01-17T06:34:28Z</time></trkpt><trkpt lat="33.217120" lon="35.561954"><ele>375.723</ele><time>2014-01-17T06:34:31Z</time></trkpt><trkpt lat="33.217009" lon="35.561927"><ele>375.715</ele><time>2014-01-17T06:34:34Z</time></trkpt><trkpt lat="33.216922" lon="35.561893"><ele>375.707</ele><time>2014-01-17T06:34:36Z</time></trkpt><trkpt lat="33.216810" lon="35.561854"><ele>375.988</ele><time>2014-01-17T06:34:39Z</time></trkpt><trkpt lat="33.216717" lon="35.561825"><ele>375.892</ele><time>2014-01-17T06:34:41Z</time></trkpt><trkpt lat="33.216614" lon="35.561796"><ele>375.260</ele><time>2014-01-17T06:34:43Z</time></trkpt><trkpt lat="33.216498" lon="35.561770"><ele>374.664</ele><time>2014-01-17T06:34:45Z</time></trkpt><trkpt lat="33.216417" lon="35.561715"><ele>374.464</ele><time>2014-01-17T06:34:48Z</time></trkpt><trkpt lat="33.216322" lon="35.561642"><ele>375.529</ele><time>2014-01-17T06:34:54Z</time></trkpt><trkpt lat="33.216226" lon="35.561580"><ele>376.536</ele><time>2014-01-17T06:34:59Z</time></trkpt><trkpt lat="33.216190" lon="35.561538"><ele>375.475</ele><time>2014-01-17T06:35:09Z</time></trkpt><trkpt lat="33.216087" lon="35.561389"><ele>376.228</ele><time>2014-01-17T06:35:14Z</time></trkpt><trkpt lat="33.215993" lon="35.561373"><ele>377.020</ele><time>2014-01-17T06:35:17Z</time></trkpt><trkpt lat="33.215877" lon="35.561350"><ele>377.307</ele><time>2014-01-17T06:35:21Z</time></trkpt><trkpt lat="33.215770" lon="35.561373"><ele>378.832</ele><time>2014-01-17T06:35:25Z</time></trkpt><trkpt lat="33.215665" lon="35.561349"><ele>379.916</ele><time>2014-01-17T06:35:28Z</time></trkpt><trkpt lat="33.215566" lon="35.561303"><ele>380.764</ele><time>2014-01-17T06:35:32Z</time></trkpt><trkpt lat="33.215464" lon="35.561290"><ele>381.368</ele><time>2014-01-17T06:35:36Z</time></trkpt><trkpt lat="33.215358" lon="35.561268"><ele>381.218</ele><time>2014-01-17T06:35:40Z</time></trkpt><trkpt lat="33.215272" lon="35.561278"><ele>385.953</ele><time>2014-01-17T06:36:13Z</time></trkpt><trkpt lat="33.215271" lon="35.561412"><ele>386.920</ele><time>2014-01-17T06:36:20Z</time></trkpt><trkpt lat="33.215288" lon="35.561524"><ele>385.982</ele><time>2014-01-17T06:36:23Z</time></trkpt><trkpt lat="33.215312" lon="35.561590"><ele>384.443</ele><time>2014-01-17T06:36:33Z</time></trkpt><trkpt lat="33.215306" lon="35.561705"><ele>384.517</ele><time>2014-01-17T06:36:39Z</time></trkpt><trkpt lat="33.215234" lon="35.561771"><ele>383.807</ele><time>2014-01-17T06:36:44Z</time></trkpt><trkpt lat="33.215275" lon="35.561876"><ele>383.463</ele><time>2014-01-17T06:36:49Z</time></trkpt><trkpt lat="33.215275" lon="35.561876"><ele>383.487</ele><time>2014-01-17T06:37:29Z</time></trkpt><trkpt lat="33.215393" lon="35.562027"><ele>378.985</ele><time>2014-01-17T06:38:07Z</time></trkpt><trkpt lat="33.215428" lon="35.562029"><ele>379.379</ele><time>2014-01-17T06:38:47Z</time></trkpt><trkpt lat="33.215428" lon="35.562029"><ele>379.399</ele><time>2014-01-17T06:39:27Z</time></trkpt><trkpt lat="33.215428" lon="35.562029"><ele>379.324</ele><time>2014-01-17T06:40:07Z</time></trkpt><trkpt lat="33.215428" lon="35.562029"><ele>379.321</ele><time>2014-01-17T06:40:47Z</time></trkpt><trkpt lat="33.215270" lon="35.561964"><ele>377.335</ele><time>2014-01-17T06:41:11Z</time></trkpt><trkpt lat="33.215282" lon="35.561956"><ele>378.186</ele><time>2014-01-17T06:41:51Z</time></trkpt><trkpt lat="33.215175" lon="35.561747"><ele>374.414</ele><time>2014-01-17T06:42:04Z</time></trkpt><trkpt lat="33.215183" lon="35.561794"><ele>374.807</ele><time>2014-01-17T06:42:44Z</time></trkpt><trkpt lat="33.215183" lon="35.561794"><ele>374.858</ele><time>2014-01-17T06:43:24Z</time></trkpt><trkpt lat="33.215183" lon="35.561794"><ele>374.822</ele><time>2014-01-17T06:44:04Z</time></trkpt><trkpt lat="33.215183" lon="35.561794"><ele>374.810</ele><time>2014-01-17T06:44:44Z</time></trkpt><trkpt lat="33.215251" lon="35.562011"><ele>379.214</ele><time>2014-01-17T06:44:48Z</time></trkpt><trkpt lat="33.215319" lon="35.561850"><ele>379.884</ele><time>2014-01-17T06:45:28Z</time></trkpt><trkpt lat="33.215281" lon="35.561741"><ele>378.969</ele><time>2014-01-17T06:45:32Z</time></trkpt><trkpt lat="33.215305" lon="35.561627"><ele>378.666</ele><time>2014-01-17T06:45:37Z</time></trkpt><trkpt lat="33.215311" lon="35.561513"><ele>378.062</ele><time>2014-01-17T06:45:40Z</time></trkpt><trkpt lat="33.215363" lon="35.561404"><ele>377.583</ele><time>2014-01-17T06:45:44Z</time></trkpt><trkpt lat="33.215381" lon="35.561279"><ele>380.311</ele><time>2014-01-17T06:45:50Z</time></trkpt><trkpt lat="33.215303" lon="35.561213"><ele>381.207</ele><time>2014-01-17T06:45:53Z</time></trkpt><trkpt lat="33.215254" lon="35.561096"><ele>381.291</ele><time>2014-01-17T06:45:57Z</time></trkpt><trkpt lat="33.215232" lon="35.560974"><ele>381.445</ele><time>2014-01-17T06:46:01Z</time></trkpt><trkpt lat="33.215173" lon="35.560857"><ele>379.843</ele><time>2014-01-17T06:46:05Z</time></trkpt><trkpt lat="33.215146" lon="35.560736"><ele>380.077</ele><time>2014-01-17T06:46:09Z</time></trkpt><trkpt lat="33.215097" lon="35.560613"><ele>379.137</ele><time>2014-01-17T06:46:13Z</time></trkpt><trkpt lat="33.215054" lon="35.560478"><ele>378.782</ele><time>2014-01-17T06:46:17Z</time></trkpt><trkpt lat="33.215052" lon="35.560364"><ele>378.189</ele><time>2014-01-17T06:46:20Z</time></trkpt><trkpt lat="33.215036" lon="35.560244"><ele>378.272</ele><time>2014-01-17T06:46:23Z</time></trkpt><trkpt lat="33.214945" lon="35.560127"><ele>377.613</ele><time>2014-01-17T06:46:26Z</time></trkpt><trkpt lat="33.214798" lon="35.560150"><ele>377.214</ele><time>2014-01-17T06:46:28Z</time></trkpt><trkpt lat="33.214674" lon="35.560224"><ele>376.707</ele><time>2014-01-17T06:46:30Z</time></trkpt><trkpt lat="33.214595" lon="35.560300"><ele>376.492</ele><time>2014-01-17T06:46:32Z</time></trkpt><trkpt lat="33.214488" lon="35.560314"><ele>376.846</ele><time>2014-01-17T06:46:34Z</time></trkpt><trkpt lat="33.214443" lon="35.560200"><ele>376.974</ele><time>2014-01-17T06:46:37Z</time></trkpt><trkpt lat="33.214447" lon="35.560092"><ele>376.418</ele><time>2014-01-17T06:46:39Z</time></trkpt><trkpt lat="33.214447" lon="35.559979"><ele>375.988</ele><time>2014-01-17T06:46:41Z</time></trkpt><trkpt lat="33.214440" lon="35.559848"><ele>375.763</ele><time>2014-01-17T06:46:43Z</time></trkpt><trkpt lat="33.214410" lon="35.559697"><ele>374.030</ele><time>2014-01-17T06:46:45Z</time></trkpt><trkpt lat="33.214397" lon="35.559529"><ele>373.155</ele><time>2014-01-17T06:46:47Z</time></trkpt><trkpt lat="33.214398" lon="35.559375"><ele>372.407</ele><time>2014-01-17T06:46:49Z</time></trkpt><trkpt lat="33.214387" lon="35.559246"><ele>371.217</ele><time>2014-01-17T06:46:51Z</time></trkpt><trkpt lat="33.214380" lon="35.559131"><ele>371.107</ele><time>2014-01-17T06:46:53Z</time></trkpt><trkpt lat="33.214375" lon="35.558984"><ele>371.330</ele><time>2014-01-17T06:46:56Z</time></trkpt><trkpt lat="33.214346" lon="35.558836"><ele>372.114</ele><time>2014-01-17T06:46:59Z</time></trkpt><trkpt lat="33.214308" lon="35.558727"><ele>372.682</ele><time>2014-01-17T06:47:02Z</time></trkpt><trkpt lat="33.214261" lon="35.558622"><ele>373.136</ele><time>2014-01-17T06:47:05Z</time></trkpt><trkpt lat="33.214199" lon="35.558498"><ele>373.346</ele><time>2014-01-17T06:47:08Z</time></trkpt><trkpt lat="33.214146" lon="35.558381"><ele>372.831</ele><time>2014-01-17T06:47:11Z</time></trkpt><trkpt lat="33.214079" lon="35.558277"><ele>373.478</ele><time>2014-01-17T06:47:14Z</time></trkpt><trkpt lat="33.214049" lon="35.558175"><ele>372.896</ele><time>2014-01-17T06:47:17Z</time></trkpt><trkpt lat="33.214046" lon="35.558031"><ele>372.731</ele><time>2014-01-17T06:47:22Z</time></trkpt><trkpt lat="33.214068" lon="35.557921"><ele>373.124</ele><time>2014-01-17T06:47:25Z</time></trkpt><trkpt lat="33.214066" lon="35.557789"><ele>373.107</ele><time>2014-01-17T06:47:28Z</time></trkpt><trkpt lat="33.214041" lon="35.557672"><ele>372.774</ele><time>2014-01-17T06:47:31Z</time></trkpt><trkpt lat="33.213939" lon="35.557695"><ele>373.768</ele><time>2014-01-17T06:47:35Z</time></trkpt><trkpt lat="33.213862" lon="35.557764"><ele>373.766</ele><time>2014-01-17T06:47:38Z</time></trkpt><trkpt lat="33.213766" lon="35.557834"><ele>374.070</ele><time>2014-01-17T06:47:41Z</time></trkpt><trkpt lat="33.213657" lon="35.557856"><ele>375.250</ele><time>2014-01-17T06:47:44Z</time></trkpt><trkpt lat="33.213567" lon="35.557874"><ele>375.875</ele><time>2014-01-17T06:47:47Z</time></trkpt><trkpt lat="33.213450" lon="35.557886"><ele>375.562</ele><time>2014-01-17T06:47:50Z</time></trkpt><trkpt lat="33.213354" lon="35.557888"><ele>375.492</ele><time>2014-01-17T06:47:52Z</time></trkpt><trkpt lat="33.213237" lon="35.557858"><ele>374.973</ele><time>2014-01-17T06:47:55Z</time></trkpt><trkpt lat="33.213105" lon="35.557838"><ele>374.220</ele><time>2014-01-17T06:47:58Z</time></trkpt><trkpt lat="33.212985" lon="35.557809"><ele>374.107</ele><time>2014-01-17T06:48:00Z</time></trkpt><trkpt lat="33.212890" lon="35.557728"><ele>374.014</ele><time>2014-01-17T06:48:03Z</time></trkpt><trkpt lat="33.212837" lon="35.557635"><ele>374.438</ele><time>2014-01-17T06:48:06Z</time></trkpt><trkpt lat="33.212759" lon="35.557549"><ele>373.666</ele><time>2014-01-17T06:48:09Z</time></trkpt><trkpt lat="33.212674" lon="35.557499"><ele>373.940</ele><time>2014-01-17T06:48:11Z</time></trkpt><trkpt lat="33.212576" lon="35.557485"><ele>374.160</ele><time>2014-01-17T06:48:13Z</time></trkpt><trkpt lat="33.212476" lon="35.557477"><ele>374.565</ele><time>2014-01-17T06:48:15Z</time></trkpt><trkpt lat="33.212369" lon="35.557496"><ele>374.992</ele><time>2014-01-17T06:48:17Z</time></trkpt><trkpt lat="33.212264" lon="35.557544"><ele>375.127</ele><time>2014-01-17T06:48:19Z</time></trkpt><trkpt lat="33.212173" lon="35.557593"><ele>375.968</ele><time>2014-01-17T06:48:21Z</time></trkpt><trkpt lat="33.212089" lon="35.557663"><ele>376.614</ele><time>2014-01-17T06:48:23Z</time></trkpt><trkpt lat="33.212003" lon="35.557745"><ele>377.507</ele><time>2014-01-17T06:48:25Z</time></trkpt><trkpt lat="33.211927" lon="35.557836"><ele>377.417</ele><time>2014-01-17T06:48:27Z</time></trkpt><trkpt lat="33.211820" lon="35.557965"><ele>376.991</ele><time>2014-01-17T06:48:29Z</time></trkpt><trkpt lat="33.211690" lon="35.558043"><ele>376.729</ele><time>2014-01-17T06:48:31Z</time></trkpt><trkpt lat="33.211595" lon="35.558097"><ele>376.793</ele><time>2014-01-17T06:48:33Z</time></trkpt><trkpt lat="33.211492" lon="35.558171"><ele>377.413</ele><time>2014-01-17T06:48:36Z</time></trkpt><trkpt lat="33.211395" lon="35.558223"><ele>376.648</ele><time>2014-01-17T06:48:39Z</time></trkpt><trkpt lat="33.211281" lon="35.558258"><ele>375.715</ele><time>2014-01-17T06:48:42Z</time></trkpt><trkpt lat="33.211180" lon="35.558287"><ele>375.881</ele><time>2014-01-17T06:48:44Z</time></trkpt><trkpt lat="33.211076" lon="35.558326"><ele>376.061</ele><time>2014-01-17T06:48:46Z</time></trkpt><trkpt lat="33.210978" lon="35.558389"><ele>376.417</ele><time>2014-01-17T06:48:48Z</time></trkpt><trkpt lat="33.210883" lon="35.558432"><ele>375.907</ele><time>2014-01-17T06:48:50Z</time></trkpt><trkpt lat="33.210776" lon="35.558451"><ele>375.413</ele><time>2014-01-17T06:48:52Z</time></trkpt><trkpt lat="33.210665" lon="35.558432"><ele>375.087</ele><time>2014-01-17T06:48:54Z</time></trkpt><trkpt lat="33.210558" lon="35.558378"><ele>375.195</ele><time>2014-01-17T06:48:56Z</time></trkpt><trkpt lat="33.210472" lon="35.558314"><ele>375.459</ele><time>2014-01-17T06:48:58Z</time></trkpt><trkpt lat="33.210376" lon="35.558333"><ele>375.419</ele><time>2014-01-17T06:49:00Z</time></trkpt><trkpt lat="33.210283" lon="35.558382"><ele>375.334</ele><time>2014-01-17T06:49:02Z</time></trkpt><trkpt lat="33.210179" lon="35.558449"><ele>375.511</ele><time>2014-01-17T06:49:04Z</time></trkpt><trkpt lat="33.210077" lon="35.558524"><ele>375.597</ele><time>2014-01-17T06:49:06Z</time></trkpt><trkpt lat="33.209967" lon="35.558603"><ele>375.223</ele><time>2014-01-17T06:49:08Z</time></trkpt><trkpt lat="33.209868" lon="35.558664"><ele>374.525</ele><time>2014-01-17T06:49:10Z</time></trkpt><trkpt lat="33.209745" lon="35.558720"><ele>374.107</ele><time>2014-01-17T06:49:12Z</time></trkpt><trkpt lat="33.209604" lon="35.558754"><ele>373.114</ele><time>2014-01-17T06:49:14Z</time></trkpt><trkpt lat="33.209441" lon="35.558798"><ele>372.458</ele><time>2014-01-17T06:49:16Z</time></trkpt><trkpt lat="33.209349" lon="35.558822"><ele>371.826</ele><time>2014-01-17T06:49:17Z</time></trkpt><trkpt lat="33.209257" lon="35.558844"><ele>371.130</ele><time>2014-01-17T06:49:18Z</time></trkpt><trkpt lat="33.209165" lon="35.558867"><ele>370.490</ele><time>2014-01-17T06:49:19Z</time></trkpt><trkpt lat="33.209071" lon="35.558893"><ele>369.755</ele><time>2014-01-17T06:49:20Z</time></trkpt><trkpt lat="33.208925" lon="35.558958"><ele>368.662</ele><time>2014-01-17T06:49:22Z</time></trkpt><trkpt lat="33.208800" lon="35.559036"><ele>367.197</ele><time>2014-01-17T06:49:24Z</time></trkpt><trkpt lat="33.208665" lon="35.559138"><ele>365.823</ele><time>2014-01-17T06:49:26Z</time></trkpt><trkpt lat="33.208578" lon="35.559233"><ele>365.425</ele><time>2014-01-17T06:49:28Z</time></trkpt><trkpt lat="33.208504" lon="35.559351"><ele>362.407</ele><time>2014-01-17T06:49:30Z</time></trkpt><trkpt lat="33.208449" lon="35.559500"><ele>359.754</ele><time>2014-01-17T06:49:32Z</time></trkpt><trkpt lat="33.208388" lon="35.559643"><ele>357.978</ele><time>2014-01-17T06:49:34Z</time></trkpt><trkpt lat="33.208308" lon="35.559780"><ele>356.356</ele><time>2014-01-17T06:49:36Z</time></trkpt><trkpt lat="33.208221" lon="35.559912"><ele>355.130</ele><time>2014-01-17T06:49:38Z</time></trkpt><trkpt lat="33.208149" lon="35.560008"><ele>354.350</ele><time>2014-01-17T06:49:40Z</time></trkpt><trkpt lat="33.208047" lon="35.560097"><ele>354.025</ele><time>2014-01-17T06:49:42Z</time></trkpt><trkpt lat="33.207932" lon="35.560155"><ele>353.662</ele><time>2014-01-17T06:49:44Z</time></trkpt><trkpt lat="33.207809" lon="35.560179"><ele>351.039</ele><time>2014-01-17T06:49:47Z</time></trkpt><trkpt lat="33.207712" lon="35.560153"><ele>349.301</ele><time>2014-01-17T06:49:50Z</time></trkpt><trkpt lat="33.207599" lon="35.560148"><ele>346.721</ele><time>2014-01-17T06:49:53Z</time></trkpt><trkpt lat="33.207469" lon="35.560130"><ele>345.607</ele><time>2014-01-17T06:49:56Z</time></trkpt><trkpt lat="33.207366" lon="35.560104"><ele>345.248</ele><time>2014-01-17T06:49:58Z</time></trkpt><trkpt lat="33.207257" lon="35.560085"><ele>345.092</ele><time>2014-01-17T06:50:00Z</time></trkpt><trkpt lat="33.207142" lon="35.560034"><ele>345.090</ele><time>2014-01-17T06:50:02Z</time></trkpt><trkpt lat="33.207037" lon="35.559991"><ele>344.934</ele><time>2014-01-17T06:50:04Z</time></trkpt><trkpt lat="33.206973" lon="35.559904"><ele>344.634</ele><time>2014-01-17T06:50:07Z</time></trkpt><trkpt lat="33.206870" lon="35.559832"><ele>343.879</ele><time>2014-01-17T06:50:10Z</time></trkpt><trkpt lat="33.206824" lon="35.559732"><ele>342.776</ele><time>2014-01-17T06:50:13Z</time></trkpt><trkpt lat="33.206785" lon="35.559613"><ele>342.252</ele><time>2014-01-17T06:50:19Z</time></trkpt><trkpt lat="33.206746" lon="35.559489"><ele>342.653</ele><time>2014-01-17T06:50:23Z</time></trkpt><trkpt lat="33.206725" lon="35.559380"><ele>342.608</ele><time>2014-01-17T06:50:26Z</time></trkpt><trkpt lat="33.206713" lon="35.559252"><ele>342.407</ele><time>2014-01-17T06:50:29Z</time></trkpt><trkpt lat="33.206669" lon="35.559111"><ele>342.360</ele><time>2014-01-17T06:50:32Z</time></trkpt><trkpt lat="33.206592" lon="35.559025"><ele>341.764</ele><time>2014-01-17T06:50:34Z</time></trkpt><trkpt lat="33.206478" lon="35.558981"><ele>341.742</ele><time>2014-01-17T06:50:37Z</time></trkpt><trkpt lat="33.206377" lon="35.558951"><ele>341.586</ele><time>2014-01-17T06:50:40Z</time></trkpt><trkpt lat="33.206296" lon="35.558887"><ele>341.456</ele><time>2014-01-17T06:50:43Z</time></trkpt><trkpt lat="33.206170" lon="35.558837"><ele>340.311</ele><time>2014-01-17T06:50:46Z</time></trkpt><trkpt lat="33.206069" lon="35.558818"><ele>340.788</ele><time>2014-01-17T06:50:48Z</time></trkpt><trkpt lat="33.205941" lon="35.558879"><ele>341.312</ele><time>2014-01-17T06:50:51Z</time></trkpt><trkpt lat="33.205847" lon="35.558969"><ele>340.732</ele><time>2014-01-17T06:50:53Z</time></trkpt><trkpt lat="33.205790" lon="35.559075"><ele>340.405</ele><time>2014-01-17T06:50:55Z</time></trkpt><trkpt lat="33.205793" lon="35.559210"><ele>339.707</ele><time>2014-01-17T06:50:57Z</time></trkpt><trkpt lat="33.205811" lon="35.559356"><ele>339.256</ele><time>2014-01-17T06:50:59Z</time></trkpt><trkpt lat="33.205834" lon="35.559494"><ele>339.030</ele><time>2014-01-17T06:51:01Z</time></trkpt><trkpt lat="33.205829" lon="35.559615"><ele>338.398</ele><time>2014-01-17T06:51:03Z</time></trkpt><trkpt lat="33.205792" lon="35.559745"><ele>338.082</ele><time>2014-01-17T06:51:05Z</time></trkpt><trkpt lat="33.205714" lon="35.559910"><ele>336.742</ele><time>2014-01-17T06:51:07Z</time></trkpt><trkpt lat="33.205650" lon="35.560083"><ele>335.667</ele><time>2014-01-17T06:51:09Z</time></trkpt><trkpt lat="33.205611" lon="35.560231"><ele>334.714</ele><time>2014-01-17T06:51:11Z</time></trkpt><trkpt lat="33.205534" lon="35.560323"><ele>334.063</ele><time>2014-01-17T06:51:13Z</time></trkpt><trkpt lat="33.205444" lon="35.560362"><ele>332.844</ele><time>2014-01-17T06:51:15Z</time></trkpt><trkpt lat="33.205326" lon="35.560371"><ele>331.518</ele><time>2014-01-17T06:51:17Z</time></trkpt><trkpt lat="33.205224" lon="35.560389"><ele>330.207</ele><time>2014-01-17T06:51:19Z</time></trkpt><trkpt lat="33.205101" lon="35.560472"><ele>328.961</ele><time>2014-01-17T06:51:21Z</time></trkpt><trkpt lat="33.204982" lon="35.560531"><ele>328.345</ele><time>2014-01-17T06:51:23Z</time></trkpt><trkpt lat="33.204878" lon="35.560529"><ele>327.393</ele><time>2014-01-17T06:51:25Z</time></trkpt><trkpt lat="33.204794" lon="35.560470"><ele>327.067</ele><time>2014-01-17T06:51:27Z</time></trkpt><trkpt lat="33.204725" lon="35.560385"><ele>326.467</ele><time>2014-01-17T06:51:29Z</time></trkpt><trkpt lat="33.204642" lon="35.560281"><ele>325.712</ele><time>2014-01-17T06:51:31Z</time></trkpt><trkpt lat="33.204545" lon="35.560175"><ele>325.259</ele><time>2014-01-17T06:51:33Z</time></trkpt><trkpt lat="33.204455" lon="35.560098"><ele>324.688</ele><time>2014-01-17T06:51:35Z</time></trkpt><trkpt lat="33.204344" lon="35.560085"><ele>324.224</ele><time>2014-01-17T06:51:37Z</time></trkpt><trkpt lat="33.204220" lon="35.560053"><ele>324.426</ele><time>2014-01-17T06:51:39Z</time></trkpt><trkpt lat="33.204093" lon="35.560046"><ele>323.507</ele><time>2014-01-17T06:51:41Z</time></trkpt><trkpt lat="33.203978" lon="35.560015"><ele>323.263</ele><time>2014-01-17T06:51:43Z</time></trkpt><trkpt lat="33.203856" lon="35.559970"><ele>322.797</ele><time>2014-01-17T06:51:45Z</time></trkpt><trkpt lat="33.203739" lon="35.559946"><ele>322.165</ele><time>2014-01-17T06:51:47Z</time></trkpt><trkpt lat="33.203620" lon="35.559955"><ele>321.449</ele><time>2014-01-17T06:51:49Z</time></trkpt><trkpt lat="33.203490" lon="35.559978"><ele>321.349</ele><time>2014-01-17T06:51:51Z</time></trkpt><trkpt lat="33.203384" lon="35.560011"><ele>320.894</ele><time>2014-01-17T06:51:53Z</time></trkpt><trkpt lat="33.203291" lon="35.560034"><ele>320.681</ele><time>2014-01-17T06:51:55Z</time></trkpt><trkpt lat="33.203187" lon="35.560040"><ele>320.135</ele><time>2014-01-17T06:51:57Z</time></trkpt><trkpt lat="33.203093" lon="35.559990"><ele>319.586</ele><time>2014-01-17T06:51:59Z</time></trkpt><trkpt lat="33.202981" lon="35.559909"><ele>318.814</ele><time>2014-01-17T06:52:01Z</time></trkpt><trkpt lat="33.202869" lon="35.559850"><ele>317.307</ele><time>2014-01-17T06:52:03Z</time></trkpt><trkpt lat="33.202749" lon="35.559836"><ele>315.078</ele><time>2014-01-17T06:52:05Z</time></trkpt><trkpt lat="33.202621" lon="35.559808"><ele>313.122</ele><time>2014-01-17T06:52:07Z</time></trkpt><trkpt lat="33.202501" lon="35.559775"><ele>312.510</ele><time>2014-01-17T06:52:09Z</time></trkpt><trkpt lat="33.202385" lon="35.559754"><ele>312.144</ele><time>2014-01-17T06:52:11Z</time></trkpt><trkpt lat="33.202283" lon="35.559753"><ele>312.044</ele><time>2014-01-17T06:52:13Z</time></trkpt><trkpt lat="33.202187" lon="35.559733"><ele>311.479</ele><time>2014-01-17T06:52:15Z</time></trkpt><trkpt lat="33.202070" lon="35.559732"><ele>310.886</ele><time>2014-01-17T06:52:17Z</time></trkpt><trkpt lat="33.201959" lon="35.559750"><ele>310.237</ele><time>2014-01-17T06:52:19Z</time></trkpt><trkpt lat="33.201827" lon="35.559779"><ele>308.949</ele><time>2014-01-17T06:52:22Z</time></trkpt><trkpt lat="33.201734" lon="35.559807"><ele>308.413</ele><time>2014-01-17T06:52:24Z</time></trkpt><trkpt lat="33.201630" lon="35.559834"><ele>307.907</ele><time>2014-01-17T06:52:26Z</time></trkpt><trkpt lat="33.201526" lon="35.559849"><ele>307.828</ele><time>2014-01-17T06:52:28Z</time></trkpt><trkpt lat="33.201411" lon="35.559854"><ele>307.482</ele><time>2014-01-17T06:52:30Z</time></trkpt><trkpt lat="33.201310" lon="35.559878"><ele>306.880</ele><time>2014-01-17T06:52:32Z</time></trkpt><trkpt lat="33.201198" lon="35.559862"><ele>306.164</ele><time>2014-01-17T06:52:35Z</time></trkpt><trkpt lat="33.201109" lon="35.559846"><ele>304.544</ele><time>2014-01-17T06:52:38Z</time></trkpt><trkpt lat="33.201013" lon="35.559809"><ele>303.679</ele><time>2014-01-17T06:52:42Z</time></trkpt><trkpt lat="33.200915" lon="35.559792"><ele>302.436</ele><time>2014-01-17T06:52:45Z</time></trkpt><trkpt lat="33.200796" lon="35.559809"><ele>301.992</ele><time>2014-01-17T06:52:48Z</time></trkpt><trkpt lat="33.200669" lon="35.559827"><ele>301.373</ele><time>2014-01-17T06:52:51Z</time></trkpt><trkpt lat="33.200562" lon="35.559845"><ele>301.220</ele><time>2014-01-17T06:52:54Z</time></trkpt><trkpt lat="33.200459" lon="35.559918"><ele>298.607</ele><time>2014-01-17T06:52:57Z</time></trkpt><trkpt lat="33.200384" lon="35.559925"><ele>296.434</ele><time>2014-01-17T06:53:17Z</time></trkpt><trkpt lat="33.200344" lon="35.560039"><ele>294.338</ele><time>2014-01-17T06:53:23Z</time></trkpt><trkpt lat="33.200406" lon="35.560117"><ele>294.236</ele><time>2014-01-17T06:53:26Z</time></trkpt><trkpt lat="33.200491" lon="35.560188"><ele>295.870</ele><time>2014-01-17T06:53:30Z</time></trkpt><trkpt lat="33.200572" lon="35.560243"><ele>295.730</ele><time>2014-01-17T06:53:35Z</time></trkpt><trkpt lat="33.200597" lon="35.560133"><ele>295.785</ele><time>2014-01-17T06:53:42Z</time></trkpt><trkpt lat="33.200590" lon="35.560030"><ele>295.862</ele><time>2014-01-17T06:53:52Z</time></trkpt><trkpt lat="33.200590" lon="35.560030"><ele>295.884</ele><time>2014-01-17T06:54:32Z</time></trkpt><trkpt lat="33.200590" lon="35.560030"><ele>295.807</ele><time>2014-01-17T06:55:12Z</time></trkpt><trkpt lat="33.200590" lon="35.560030"><ele>295.817</ele><time>2014-01-17T06:55:52Z</time></trkpt><trkpt lat="33.200590" lon="35.560030"><ele>295.807</ele><time>2014-01-17T06:56:32Z</time></trkpt><trkpt lat="33.200590" lon="35.560030"><ele>295.833</ele><time>2014-01-17T06:57:12Z</time></trkpt><trkpt lat="33.200551" lon="35.559932"><ele>294.517</ele><time>2014-01-17T06:57:47Z</time></trkpt><trkpt lat="33.200427" lon="35.559994"><ele>293.595</ele><time>2014-01-17T06:57:50Z</time></trkpt><trkpt lat="33.200334" lon="35.560084"><ele>292.819</ele><time>2014-01-17T06:57:53Z</time></trkpt><trkpt lat="33.200383" lon="35.560253"><ele>292.719</ele><time>2014-01-17T06:57:56Z</time></trkpt><trkpt lat="33.200451" lon="35.560350"><ele>293.164</ele><time>2014-01-17T06:57:57Z</time></trkpt><trkpt lat="33.200535" lon="35.560428"><ele>293.131</ele><time>2014-01-17T06:57:59Z</time></trkpt><trkpt lat="33.200528" lon="35.560542"><ele>293.197</ele><time>2014-01-17T06:58:04Z</time></trkpt><trkpt lat="33.200447" lon="35.560614"><ele>291.323</ele><time>2014-01-17T06:58:07Z</time></trkpt><trkpt lat="33.200338" lon="35.560541"><ele>290.125</ele><time>2014-01-17T06:58:10Z</time></trkpt><trkpt lat="33.200253" lon="35.560477"><ele>289.507</ele><time>2014-01-17T06:58:12Z</time></trkpt><trkpt lat="33.200175" lon="35.560360"><ele>288.434</ele><time>2014-01-17T06:58:15Z</time></trkpt><trkpt lat="33.200152" lon="35.560229"><ele>288.198</ele><time>2014-01-17T06:58:18Z</time></trkpt><trkpt lat="33.200109" lon="35.560083"><ele>288.396</ele><time>2014-01-17T06:58:21Z</time></trkpt><trkpt lat="33.200038" lon="35.560009"><ele>288.220</ele><time>2014-01-17T06:58:23Z</time></trkpt><trkpt lat="33.199935" lon="35.559962"><ele>287.980</ele><time>2014-01-17T06:58:25Z</time></trkpt><trkpt lat="33.199830" lon="35.559916"><ele>287.795</ele><time>2014-01-17T06:58:27Z</time></trkpt><trkpt lat="33.199730" lon="35.559865"><ele>287.432</ele><time>2014-01-17T06:58:29Z</time></trkpt><trkpt lat="33.199622" lon="35.559837"><ele>286.975</ele><time>2014-01-17T06:58:31Z</time></trkpt><trkpt lat="33.199504" lon="35.559849"><ele>286.028</ele><time>2014-01-17T06:58:33Z</time></trkpt><trkpt lat="33.199373" lon="35.559866"><ele>284.620</ele><time>2014-01-17T06:58:35Z</time></trkpt><trkpt lat="33.199243" lon="35.559863"><ele>283.907</ele><time>2014-01-17T06:58:37Z</time></trkpt><trkpt lat="33.199117" lon="35.559851"><ele>283.312</ele><time>2014-01-17T06:58:39Z</time></trkpt><trkpt lat="33.198978" lon="35.559860"><ele>283.086</ele><time>2014-01-17T06:58:41Z</time></trkpt><trkpt lat="33.198835" lon="35.559883"><ele>282.144</ele><time>2014-01-17T06:58:43Z</time></trkpt><trkpt lat="33.198693" lon="35.559913"><ele>281.378</ele><time>2014-01-17T06:58:45Z</time></trkpt><trkpt lat="33.198563" lon="35.559927"><ele>280.538</ele><time>2014-01-17T06:58:47Z</time></trkpt><trkpt lat="33.198440" lon="35.559904"><ele>279.563</ele><time>2014-01-17T06:58:49Z</time></trkpt><trkpt lat="33.198320" lon="35.559854"><ele>278.920</ele><time>2014-01-17T06:58:51Z</time></trkpt><trkpt lat="33.198200" lon="35.559800"><ele>278.877</ele><time>2014-01-17T06:58:53Z</time></trkpt><trkpt lat="33.198080" lon="35.559759"><ele>278.561</ele><time>2014-01-17T06:58:55Z</time></trkpt><trkpt lat="33.197956" lon="35.559729"><ele>278.027</ele><time>2014-01-17T06:58:57Z</time></trkpt><trkpt lat="33.197825" lon="35.559736"><ele>277.507</ele><time>2014-01-17T06:58:59Z</time></trkpt><trkpt lat="33.197677" lon="35.559751"><ele>277.112</ele><time>2014-01-17T06:59:01Z</time></trkpt><trkpt lat="33.197543" lon="35.559763"><ele>277.026</ele><time>2014-01-17T06:59:03Z</time></trkpt><trkpt lat="33.197429" lon="35.559814"><ele>276.984</ele><time>2014-01-17T06:59:05Z</time></trkpt><trkpt lat="33.197323" lon="35.559892"><ele>277.178</ele><time>2014-01-17T06:59:07Z</time></trkpt><trkpt lat="33.197224" lon="35.559945"><ele>277.228</ele><time>2014-01-17T06:59:09Z</time></trkpt><trkpt lat="33.197117" lon="35.559983"><ele>277.213</ele><time>2014-01-17T06:59:11Z</time></trkpt><trkpt lat="33.197000" lon="35.560025"><ele>277.310</ele><time>2014-01-17T06:59:13Z</time></trkpt><trkpt lat="33.196865" lon="35.560055"><ele>276.914</ele><time>2014-01-17T06:59:15Z</time></trkpt><trkpt lat="33.196728" lon="35.560066"><ele>276.054</ele><time>2014-01-17T06:59:17Z</time></trkpt><trkpt lat="33.196594" lon="35.560101"><ele>274.809</ele><time>2014-01-17T06:59:19Z</time></trkpt><trkpt lat="33.196460" lon="35.560130"><ele>273.507</ele><time>2014-01-17T06:59:21Z</time></trkpt><trkpt lat="33.196320" lon="35.560149"><ele>272.266</ele><time>2014-01-17T06:59:23Z</time></trkpt><trkpt lat="33.196177" lon="35.560146"><ele>271.120</ele><time>2014-01-17T06:59:25Z</time></trkpt><trkpt lat="33.196020" lon="35.560125"><ele>270.948</ele><time>2014-01-17T06:59:27Z</time></trkpt><trkpt lat="33.195847" lon="35.560108"><ele>270.082</ele><time>2014-01-17T06:59:29Z</time></trkpt><trkpt lat="33.195677" lon="35.560080"><ele>269.552</ele><time>2014-01-17T06:59:31Z</time></trkpt><trkpt lat="33.195587" lon="35.560067"><ele>269.447</ele><time>2014-01-17T06:59:32Z</time></trkpt><trkpt lat="33.195420" lon="35.560041"><ele>268.984</ele><time>2014-01-17T06:59:34Z</time></trkpt><trkpt lat="33.195267" lon="35.560009"><ele>268.989</ele><time>2014-01-17T06:59:36Z</time></trkpt><trkpt lat="33.195130" lon="35.559973"><ele>268.706</ele><time>2014-01-17T06:59:38Z</time></trkpt><trkpt lat="33.195003" lon="35.559941"><ele>268.726</ele><time>2014-01-17T06:59:40Z</time></trkpt><trkpt lat="33.194887" lon="35.559908"><ele>269.007</ele><time>2014-01-17T06:59:42Z</time></trkpt><trkpt lat="33.194776" lon="35.559882"><ele>268.983</ele><time>2014-01-17T06:59:44Z</time></trkpt><trkpt lat="33.194659" lon="35.559888"><ele>267.657</ele><time>2014-01-17T06:59:46Z</time></trkpt><trkpt lat="33.194519" lon="35.559934"><ele>266.595</ele><time>2014-01-17T06:59:48Z</time></trkpt><trkpt lat="33.194359" lon="35.559994"><ele>265.569</ele><time>2014-01-17T06:59:50Z</time></trkpt><trkpt lat="33.194194" lon="35.560049"><ele>264.219</ele><time>2014-01-17T06:59:52Z</time></trkpt><trkpt lat="33.194029" lon="35.560124"><ele>263.394</ele><time>2014-01-17T06:59:54Z</time></trkpt><trkpt lat="33.193867" lon="35.560203"><ele>263.241</ele><time>2014-01-17T06:59:56Z</time></trkpt><trkpt lat="33.193786" lon="35.560259"><ele>262.926</ele><time>2014-01-17T06:59:57Z</time></trkpt><trkpt lat="33.193705" lon="35.560317"><ele>262.747</ele><time>2014-01-17T06:59:58Z</time></trkpt><trkpt lat="33.193566" lon="35.560420"><ele>262.211</ele><time>2014-01-17T07:00:00Z</time></trkpt><trkpt lat="33.193461" lon="35.560524"><ele>261.607</ele><time>2014-01-17T07:00:02Z</time></trkpt><trkpt lat="33.193391" lon="35.560593"><ele>260.817</ele><time>2014-01-17T07:00:04Z</time></trkpt><trkpt lat="33.193302" lon="35.560687"><ele>261.641</ele><time>2014-01-17T07:00:07Z</time></trkpt><trkpt lat="33.193175" lon="35.560766"><ele>261.239</ele><time>2014-01-17T07:00:10Z</time></trkpt><trkpt lat="33.193082" lon="35.560785"><ele>260.543</ele><time>2014-01-17T07:00:12Z</time></trkpt><trkpt lat="33.192969" lon="35.560794"><ele>260.753</ele><time>2014-01-17T07:00:15Z</time></trkpt><trkpt lat="33.192845" lon="35.560777"><ele>260.838</ele><time>2014-01-17T07:00:18Z</time></trkpt><trkpt lat="33.192736" lon="35.560703"><ele>260.865</ele><time>2014-01-17T07:00:21Z</time></trkpt><trkpt lat="33.192663" lon="35.560627"><ele>260.823</ele><time>2014-01-17T07:00:24Z</time></trkpt><trkpt lat="33.192573" lon="35.560529"><ele>261.583</ele><time>2014-01-17T07:00:27Z</time></trkpt><trkpt lat="33.192471" lon="35.560442"><ele>262.011</ele><time>2014-01-17T07:00:30Z</time></trkpt><trkpt lat="33.192375" lon="35.560380"><ele>261.007</ele><time>2014-01-17T07:00:32Z</time></trkpt><trkpt lat="33.192257" lon="35.560319"><ele>261.197</ele><time>2014-01-17T07:00:35Z</time></trkpt><trkpt lat="33.192161" lon="35.560287"><ele>261.231</ele><time>2014-01-17T07:00:37Z</time></trkpt><trkpt lat="33.192040" lon="35.560224"><ele>261.529</ele><time>2014-01-17T07:00:39Z</time></trkpt><trkpt lat="33.191902" lon="35.560160"><ele>261.323</ele><time>2014-01-17T07:00:41Z</time></trkpt><trkpt lat="33.191753" lon="35.560105"><ele>260.823</ele><time>2014-01-17T07:00:43Z</time></trkpt><trkpt lat="33.191618" lon="35.560036"><ele>260.718</ele><time>2014-01-17T07:00:45Z</time></trkpt><trkpt lat="33.191482" lon="35.559991"><ele>260.115</ele><time>2014-01-17T07:00:47Z</time></trkpt><trkpt lat="33.191360" lon="35.559965"><ele>259.978</ele><time>2014-01-17T07:00:49Z</time></trkpt><trkpt lat="33.191240" lon="35.559949"><ele>259.733</ele><time>2014-01-17T07:00:51Z</time></trkpt><trkpt lat="33.191130" lon="35.559922"><ele>259.826</ele><time>2014-01-17T07:00:53Z</time></trkpt><trkpt lat="33.191003" lon="35.559884"><ele>260.407</ele><time>2014-01-17T07:00:56Z</time></trkpt><trkpt lat="33.190904" lon="35.559831"><ele>260.422</ele><time>2014-01-17T07:00:58Z</time></trkpt><trkpt lat="33.190771" lon="35.559797"><ele>260.386</ele><time>2014-01-17T07:01:00Z</time></trkpt><trkpt lat="33.190662" lon="35.559816"><ele>261.094</ele><time>2014-01-17T07:01:03Z</time></trkpt><trkpt lat="33.190566" lon="35.559850"><ele>261.598</ele><time>2014-01-17T07:01:06Z</time></trkpt><trkpt lat="33.190474" lon="35.559870"><ele>261.918</ele><time>2014-01-17T07:01:08Z</time></trkpt><trkpt lat="33.190363" lon="35.559823"><ele>261.333</ele><time>2014-01-17T07:01:11Z</time></trkpt><trkpt lat="33.190314" lon="35.559695"><ele>262.530</ele><time>2014-01-17T07:01:14Z</time></trkpt><trkpt lat="33.190310" lon="35.559564"><ele>263.368</ele><time>2014-01-17T07:01:17Z</time></trkpt><trkpt lat="33.190301" lon="35.559474"><ele>264.342</ele><time>2014-01-17T07:01:27Z</time></trkpt><trkpt lat="33.189991" lon="35.559249"><ele>266.726</ele><time>2014-01-17T07:01:47Z</time></trkpt><trkpt lat="33.189972" lon="35.559244"><ele>267.507</ele><time>2014-01-17T07:02:27Z</time></trkpt><trkpt lat="33.189972" lon="35.559244"><ele>267.521</ele><time>2014-01-17T07:03:07Z</time></trkpt><trkpt lat="33.189877" lon="35.559159"><ele>270.725</ele><time>2014-01-17T07:03:14Z</time></trkpt><trkpt lat="33.189793" lon="35.559083"><ele>270.923</ele><time>2014-01-17T07:03:19Z</time></trkpt><trkpt lat="33.189670" lon="35.559080"><ele>270.637</ele><time>2014-01-17T07:03:23Z</time></trkpt><trkpt lat="33.189579" lon="35.559052"><ele>270.217</ele><time>2014-01-17T07:03:25Z</time></trkpt><trkpt lat="33.189446" lon="35.559005"><ele>269.672</ele><time>2014-01-17T07:03:28Z</time></trkpt><trkpt lat="33.189355" lon="35.558966"><ele>269.279</ele><time>2014-01-17T07:03:30Z</time></trkpt><trkpt lat="33.189257" lon="35.558887"><ele>268.988</ele><time>2014-01-17T07:03:33Z</time></trkpt><trkpt lat="33.189169" lon="35.558844"><ele>270.024</ele><time>2014-01-17T07:03:37Z</time></trkpt><trkpt lat="33.189074" lon="35.558824"><ele>270.326</ele><time>2014-01-17T07:03:40Z</time></trkpt><trkpt lat="33.188958" lon="35.558797"><ele>271.307</ele><time>2014-01-17T07:03:44Z</time></trkpt><trkpt lat="33.188846" lon="35.558788"><ele>271.693</ele><time>2014-01-17T07:03:47Z</time></trkpt><trkpt lat="33.188740" lon="35.558775"><ele>271.237</ele><time>2014-01-17T07:03:50Z</time></trkpt><trkpt lat="33.188604" lon="35.558742"><ele>270.195</ele><time>2014-01-17T07:03:59Z</time></trkpt><trkpt lat="33.188509" lon="35.558724"><ele>271.069</ele><time>2014-01-17T07:04:04Z</time></trkpt><trkpt lat="33.188401" lon="35.558705"><ele>270.729</ele><time>2014-01-17T07:04:07Z</time></trkpt><trkpt lat="33.188286" lon="35.558683"><ele>269.334</ele><time>2014-01-17T07:04:10Z</time></trkpt><trkpt lat="33.188168" lon="35.558710"><ele>269.241</ele><time>2014-01-17T07:04:13Z</time></trkpt><trkpt lat="33.188065" lon="35.558726"><ele>268.738</ele><time>2014-01-17T07:04:16Z</time></trkpt><trkpt lat="33.187963" lon="35.558737"><ele>269.170</ele><time>2014-01-17T07:04:20Z</time></trkpt><trkpt lat="33.187861" lon="35.558750"><ele>268.717</ele><time>2014-01-17T07:04:23Z</time></trkpt><trkpt lat="33.187762" lon="35.558723"><ele>270.007</ele><time>2014-01-17T07:04:27Z</time></trkpt><trkpt lat="33.187652" lon="35.558687"><ele>271.938</ele><time>2014-01-17T07:04:32Z</time></trkpt><trkpt lat="33.187541" lon="35.558687"><ele>273.442</ele><time>2014-01-17T07:04:36Z</time></trkpt><trkpt lat="33.187448" lon="35.558660"><ele>273.390</ele><time>2014-01-17T07:04:38Z</time></trkpt><trkpt lat="33.187354" lon="35.558580"><ele>274.364</ele><time>2014-01-17T07:04:42Z</time></trkpt><trkpt lat="33.187257" lon="35.558567"><ele>274.994</ele><time>2014-01-17T07:04:45Z</time></trkpt><trkpt lat="33.187141" lon="35.558570"><ele>275.179</ele><time>2014-01-17T07:04:48Z</time></trkpt><trkpt lat="33.187049" lon="35.558542"><ele>275.786</ele><time>2014-01-17T07:04:51Z</time></trkpt><trkpt lat="33.186938" lon="35.558499"><ele>276.759</ele><time>2014-01-17T07:04:55Z</time></trkpt><trkpt lat="33.186841" lon="35.558520"><ele>276.603</ele><time>2014-01-17T07:04:58Z</time></trkpt><trkpt lat="33.186730" lon="35.558540"><ele>276.623</ele><time>2014-01-17T07:05:01Z</time></trkpt><trkpt lat="33.186627" lon="35.558540"><ele>276.107</ele><time>2014-01-17T07:05:04Z</time></trkpt><trkpt lat="33.186519" lon="35.558501"><ele>276.170</ele><time>2014-01-17T07:05:08Z</time></trkpt><trkpt lat="33.186432" lon="35.558458"><ele>276.254</ele><time>2014-01-17T07:05:13Z</time></trkpt><trkpt lat="33.186320" lon="35.558404"><ele>276.772</ele><time>2014-01-17T07:05:17Z</time></trkpt><trkpt lat="33.186224" lon="35.558346"><ele>277.856</ele><time>2014-01-17T07:05:22Z</time></trkpt><trkpt lat="33.186129" lon="35.558353"><ele>278.346</ele><time>2014-01-17T07:05:26Z</time></trkpt><trkpt lat="33.186047" lon="35.558410"><ele>278.591</ele><time>2014-01-17T07:05:31Z</time></trkpt><trkpt lat="33.185965" lon="35.558469"><ele>279.218</ele><time>2014-01-17T07:05:40Z</time></trkpt><trkpt lat="33.185872" lon="35.558502"><ele>281.085</ele><time>2014-01-17T07:05:44Z</time></trkpt><trkpt lat="33.185769" lon="35.558526"><ele>282.489</ele><time>2014-01-17T07:05:51Z</time></trkpt><trkpt lat="33.185669" lon="35.558595"><ele>283.017</ele><time>2014-01-17T07:05:56Z</time></trkpt><trkpt lat="33.185585" lon="35.558651"><ele>283.607</ele><time>2014-01-17T07:05:59Z</time></trkpt><trkpt lat="33.185480" lon="35.558692"><ele>283.993</ele><time>2014-01-17T07:06:03Z</time></trkpt><trkpt lat="33.185377" lon="35.558700"><ele>285.167</ele><time>2014-01-17T07:06:08Z</time></trkpt><trkpt lat="33.185274" lon="35.558699"><ele>286.275</ele><time>2014-01-17T07:06:13Z</time></trkpt><trkpt lat="33.185169" lon="35.558704"><ele>287.219</ele><time>2014-01-17T07:06:17Z</time></trkpt><trkpt lat="33.185073" lon="35.558712"><ele>287.439</ele><time>2014-01-17T07:06:20Z</time></trkpt><trkpt lat="33.184969" lon="35.558725"><ele>287.644</ele><time>2014-01-17T07:06:23Z</time></trkpt><trkpt lat="33.184877" lon="35.558706"><ele>288.251</ele><time>2014-01-17T07:06:26Z</time></trkpt><trkpt lat="33.184791" lon="35.558664"><ele>288.622</ele><time>2014-01-17T07:06:29Z</time></trkpt><trkpt lat="33.184682" lon="35.558626"><ele>289.362</ele><time>2014-01-17T07:06:33Z</time></trkpt><trkpt lat="33.184570" lon="35.558654"><ele>289.708</ele><time>2014-01-17T07:06:37Z</time></trkpt><trkpt lat="33.184453" lon="35.558692"><ele>289.707</ele><time>2014-01-17T07:06:41Z</time></trkpt><trkpt lat="33.184342" lon="35.558682"><ele>290.857</ele><time>2014-01-17T07:06:45Z</time></trkpt><trkpt lat="33.184229" lon="35.558706"><ele>291.541</ele><time>2014-01-17T07:06:49Z</time></trkpt><trkpt lat="33.184116" lon="35.558691"><ele>292.019</ele><time>2014-01-17T07:06:53Z</time></trkpt><trkpt lat="33.184023" lon="35.558643"><ele>292.863</ele><time>2014-01-17T07:06:57Z</time></trkpt><trkpt lat="33.183933" lon="35.558584"><ele>294.183</ele><time>2014-01-17T07:07:03Z</time></trkpt><trkpt lat="33.183832" lon="35.558558"><ele>294.688</ele><time>2014-01-17T07:07:07Z</time></trkpt><trkpt lat="33.183735" lon="35.558529"><ele>296.045</ele><time>2014-01-17T07:07:11Z</time></trkpt><trkpt lat="33.183632" lon="35.558504"><ele>297.147</ele><time>2014-01-17T07:07:15Z</time></trkpt><trkpt lat="33.183525" lon="35.558494"><ele>298.129</ele><time>2014-01-17T07:07:19Z</time></trkpt><trkpt lat="33.183428" lon="35.558468"><ele>299.121</ele><time>2014-01-17T07:07:23Z</time></trkpt><trkpt lat="33.183336" lon="35.558420"><ele>299.507</ele><time>2014-01-17T07:07:27Z</time></trkpt><trkpt lat="33.183244" lon="35.558376"><ele>300.389</ele><time>2014-01-17T07:07:33Z</time></trkpt><trkpt lat="33.183162" lon="35.558315"><ele>301.853</ele><time>2014-01-17T07:07:39Z</time></trkpt><trkpt lat="33.183064" lon="35.558267"><ele>302.471</ele><time>2014-01-17T07:07:45Z</time></trkpt><trkpt lat="33.182978" lon="35.558227"><ele>302.115</ele><time>2014-01-17T07:07:49Z</time></trkpt><trkpt lat="33.182892" lon="35.558169"><ele>302.415</ele><time>2014-01-17T07:07:53Z</time></trkpt><trkpt lat="33.182796" lon="35.558115"><ele>303.010</ele><time>2014-01-17T07:07:57Z</time></trkpt><trkpt lat="33.182692" lon="35.558071"><ele>303.647</ele><time>2014-01-17T07:08:01Z</time></trkpt><trkpt lat="33.182603" lon="35.558006"><ele>304.643</ele><time>2014-01-17T07:08:06Z</time></trkpt><trkpt lat="33.182495" lon="35.557986"><ele>306.064</ele><time>2014-01-17T07:08:11Z</time></trkpt><trkpt lat="33.182395" lon="35.557979"><ele>306.310</ele><time>2014-01-17T07:08:15Z</time></trkpt><trkpt lat="33.182287" lon="35.557985"><ele>306.507</ele><time>2014-01-17T07:08:19Z</time></trkpt><trkpt lat="33.182192" lon="35.557995"><ele>307.059</ele><time>2014-01-17T07:08:23Z</time></trkpt><trkpt lat="33.182085" lon="35.558022"><ele>307.353</ele><time>2014-01-17T07:08:28Z</time></trkpt><trkpt lat="33.181986" lon="35.558053"><ele>308.281</ele><time>2014-01-17T07:08:32Z</time></trkpt><trkpt lat="33.181905" lon="35.558107"><ele>308.725</ele><time>2014-01-17T07:08:35Z</time></trkpt><trkpt lat="33.181806" lon="35.558191"><ele>308.385</ele><time>2014-01-17T07:08:38Z</time></trkpt><trkpt lat="33.181726" lon="35.558252"><ele>308.170</ele><time>2014-01-17T07:08:40Z</time></trkpt><trkpt lat="33.181647" lon="35.558312"><ele>308.127</ele><time>2014-01-17T07:08:42Z</time></trkpt><trkpt lat="33.181526" lon="35.558358"><ele>307.871</ele><time>2014-01-17T07:08:45Z</time></trkpt><trkpt lat="33.181435" lon="35.558361"><ele>308.041</ele><time>2014-01-17T07:08:47Z</time></trkpt><trkpt lat="33.181341" lon="35.558360"><ele>308.015</ele><time>2014-01-17T07:08:49Z</time></trkpt><trkpt lat="33.181250" lon="35.558369"><ele>308.207</ele><time>2014-01-17T07:08:51Z</time></trkpt><trkpt lat="33.181154" lon="35.558312"><ele>308.512</ele><time>2014-01-17T07:08:54Z</time></trkpt><trkpt lat="33.181148" lon="35.558189"><ele>309.246</ele><time>2014-01-17T07:08:59Z</time></trkpt><trkpt lat="33.181231" lon="35.558104"><ele>310.494</ele><time>2014-01-17T07:09:06Z</time></trkpt><trkpt lat="33.181329" lon="35.558092"><ele>311.078</ele><time>2014-01-17T07:09:10Z</time></trkpt><trkpt lat="33.181417" lon="35.558045"><ele>311.878</ele><time>2014-01-17T07:09:14Z</time></trkpt><trkpt lat="33.181519" lon="35.558012"><ele>312.473</ele><time>2014-01-17T07:09:18Z</time></trkpt><trkpt lat="33.181618" lon="35.557979"><ele>312.140</ele><time>2014-01-17T07:09:23Z</time></trkpt><trkpt lat="33.181721" lon="35.557927"><ele>313.749</ele><time>2014-01-17T07:09:28Z</time></trkpt><trkpt lat="33.181843" lon="35.557897"><ele>313.902</ele><time>2014-01-17T07:09:32Z</time></trkpt><trkpt lat="33.181950" lon="35.557897"><ele>314.222</ele><time>2014-01-17T07:09:35Z</time></trkpt><trkpt lat="33.182061" lon="35.557879"><ele>314.507</ele><time>2014-01-17T07:09:38Z</time></trkpt><trkpt lat="33.182190" lon="35.557861"><ele>314.929</ele><time>2014-01-17T07:09:41Z</time></trkpt><trkpt lat="33.182310" lon="35.557831"><ele>315.273</ele><time>2014-01-17T07:09:44Z</time></trkpt><trkpt lat="33.182422" lon="35.557802"><ele>315.611</ele><time>2014-01-17T07:09:47Z</time></trkpt><trkpt lat="33.182513" lon="35.557783"><ele>315.965</ele><time>2014-01-17T07:09:49Z</time></trkpt><trkpt lat="33.182608" lon="35.557761"><ele>316.255</ele><time>2014-01-17T07:09:51Z</time></trkpt><trkpt lat="33.182712" lon="35.557750"><ele>315.990</ele><time>2014-01-17T07:09:53Z</time></trkpt><trkpt lat="33.182820" lon="35.557754"><ele>315.887</ele><time>2014-01-17T07:09:55Z</time></trkpt><trkpt lat="33.182928" lon="35.557768"><ele>316.429</ele><time>2014-01-17T07:09:57Z</time></trkpt><trkpt lat="33.183035" lon="35.557784"><ele>316.600</ele><time>2014-01-17T07:09:59Z</time></trkpt><trkpt lat="33.183143" lon="35.557789"><ele>316.820</ele><time>2014-01-17T07:10:01Z</time></trkpt><trkpt lat="33.183236" lon="35.557798"><ele>316.907</ele><time>2014-01-17T07:10:03Z</time></trkpt><trkpt lat="33.183335" lon="35.557844"><ele>316.967</ele><time>2014-01-17T07:10:06Z</time></trkpt><trkpt lat="33.183411" lon="35.557914"><ele>316.391</ele><time>2014-01-17T07:10:09Z</time></trkpt><trkpt lat="33.183507" lon="35.557923"><ele>317.419</ele><time>2014-01-17T07:10:13Z</time></trkpt><trkpt lat="33.183588" lon="35.557869"><ele>320.033</ele><time>2014-01-17T07:10:19Z</time></trkpt><trkpt lat="33.183677" lon="35.557825"><ele>321.733</ele><time>2014-01-17T07:10:25Z</time></trkpt><trkpt lat="33.183772" lon="35.557816"><ele>322.648</ele><time>2014-01-17T07:10:30Z</time></trkpt><trkpt lat="33.183880" lon="35.557843"><ele>323.525</ele><time>2014-01-17T07:10:35Z</time></trkpt><trkpt lat="33.183979" lon="35.557855"><ele>324.841</ele><time>2014-01-17T07:10:39Z</time></trkpt><trkpt lat="33.184079" lon="35.557861"><ele>325.581</ele><time>2014-01-17T07:10:43Z</time></trkpt><trkpt lat="33.184174" lon="35.557867"><ele>325.709</ele><time>2014-01-17T07:10:46Z</time></trkpt><trkpt lat="33.184311" lon="35.557857"><ele>325.707</ele><time>2014-01-17T07:10:49Z</time></trkpt><trkpt lat="33.184439" lon="35.557839"><ele>326.359</ele><time>2014-01-17T07:10:52Z</time></trkpt><trkpt lat="33.184528" lon="35.557819"><ele>327.483</ele><time>2014-01-17T07:10:55Z</time></trkpt><trkpt lat="33.184638" lon="35.557781"><ele>328.241</ele><time>2014-01-17T07:10:59Z</time></trkpt><trkpt lat="33.184720" lon="35.557713"><ele>328.555</ele><time>2014-01-17T07:11:02Z</time></trkpt><trkpt lat="33.184805" lon="35.557641"><ele>328.085</ele><time>2014-01-17T07:11:05Z</time></trkpt><trkpt lat="33.184906" lon="35.557590"><ele>328.180</ele><time>2014-01-17T07:11:08Z</time></trkpt><trkpt lat="33.185008" lon="35.557568"><ele>328.687</ele><time>2014-01-17T07:11:11Z</time></trkpt><trkpt lat="33.185105" lon="35.557540"><ele>329.041</ele><time>2014-01-17T07:11:14Z</time></trkpt><trkpt lat="33.185221" lon="35.557482"><ele>328.981</ele><time>2014-01-17T07:11:17Z</time></trkpt><trkpt lat="33.185347" lon="35.557445"><ele>329.109</ele><time>2014-01-17T07:11:20Z</time></trkpt><trkpt lat="33.185444" lon="35.557411"><ele>330.107</ele><time>2014-01-17T07:11:23Z</time></trkpt><trkpt lat="33.185526" lon="35.557343"><ele>331.349</ele><time>2014-01-17T07:11:28Z</time></trkpt><trkpt lat="33.185602" lon="35.557262"><ele>332.413</ele><time>2014-01-17T07:11:33Z</time></trkpt><trkpt lat="33.185683" lon="35.557200"><ele>334.671</ele><time>2014-01-17T07:11:40Z</time></trkpt><trkpt lat="33.185777" lon="35.557166"><ele>336.295</ele><time>2014-01-17T07:11:47Z</time></trkpt><trkpt lat="33.185866" lon="35.557111"><ele>336.815</ele><time>2014-01-17T07:11:52Z</time></trkpt><trkpt lat="33.185961" lon="35.557070"><ele>337.420</ele><time>2014-01-17T07:11:56Z</time></trkpt><trkpt lat="33.186058" lon="35.557026"><ele>337.987</ele><time>2014-01-17T07:12:00Z</time></trkpt><trkpt lat="33.186149" lon="35.556989"><ele>338.017</ele><time>2014-01-17T07:12:03Z</time></trkpt><trkpt lat="33.186252" lon="35.556979"><ele>338.087</ele><time>2014-01-17T07:12:07Z</time></trkpt><trkpt lat="33.186349" lon="35.556982"><ele>338.115</ele><time>2014-01-17T07:12:10Z</time></trkpt><trkpt lat="33.186457" lon="35.557023"><ele>338.207</ele><time>2014-01-17T07:12:15Z</time></trkpt><trkpt lat="33.186556" lon="35.557036"><ele>339.326</ele><time>2014-01-17T07:12:19Z</time></trkpt><trkpt lat="33.186645" lon="35.556999"><ele>341.010</ele><time>2014-01-17T07:12:25Z</time></trkpt><trkpt lat="33.186730" lon="35.556953"><ele>342.598</ele><time>2014-01-17T07:12:31Z</time></trkpt><trkpt lat="33.186831" lon="35.556939"><ele>343.272</ele><time>2014-01-17T07:12:38Z</time></trkpt><trkpt lat="33.186930" lon="35.556911"><ele>344.092</ele><time>2014-01-17T07:12:44Z</time></trkpt><trkpt lat="33.187026" lon="35.556868"><ele>345.227</ele><time>2014-01-17T07:12:49Z</time></trkpt><trkpt lat="33.187126" lon="35.556829"><ele>346.284</ele><time>2014-01-17T07:12:55Z</time></trkpt><trkpt lat="33.187221" lon="35.556812"><ele>348.665</ele><time>2014-01-17T07:13:01Z</time></trkpt><trkpt lat="33.187322" lon="35.556782"><ele>350.468</ele><time>2014-01-17T07:13:07Z</time></trkpt><trkpt lat="33.187425" lon="35.556743"><ele>350.914</ele><time>2014-01-17T07:13:14Z</time></trkpt><trkpt lat="33.187501" lon="35.556654"><ele>351.807</ele><time>2014-01-17T07:13:19Z</time></trkpt><trkpt lat="33.187561" lon="35.556569"><ele>353.211</ele><time>2014-01-17T07:13:24Z</time></trkpt><trkpt lat="33.187590" lon="35.556447"><ele>354.365</ele><time>2014-01-17T07:13:29Z</time></trkpt><trkpt lat="33.187567" lon="35.556327"><ele>355.563</ele><time>2014-01-17T07:13:34Z</time></trkpt><trkpt lat="33.187558" lon="35.556211"><ele>357.967</ele><time>2014-01-17T07:13:41Z</time></trkpt><trkpt lat="33.187568" lon="35.556120"><ele>360.037</ele><time>2014-01-17T07:13:51Z</time></trkpt><trkpt lat="33.187638" lon="35.556032"><ele>362.982</ele><time>2014-01-17T07:13:56Z</time></trkpt><trkpt lat="33.187735" lon="35.556011"><ele>362.769</ele><time>2014-01-17T07:14:02Z</time></trkpt><trkpt lat="33.187834" lon="35.555996"><ele>363.039</ele><time>2014-01-17T07:14:08Z</time></trkpt><trkpt lat="33.187931" lon="35.556003"><ele>364.101</ele><time>2014-01-17T07:14:13Z</time></trkpt><trkpt lat="33.188038" lon="35.556003"><ele>364.121</ele><time>2014-01-17T07:14:18Z</time></trkpt><trkpt lat="33.188142" lon="35.556005"><ele>364.007</ele><time>2014-01-17T07:14:23Z</time></trkpt><trkpt lat="33.188251" lon="35.556012"><ele>363.678</ele><time>2014-01-17T07:14:27Z</time></trkpt><trkpt lat="33.188359" lon="35.556028"><ele>364.072</ele><time>2014-01-17T07:14:32Z</time></trkpt><trkpt lat="33.188461" lon="35.556024"><ele>365.680</ele><time>2014-01-17T07:14:37Z</time></trkpt><trkpt lat="33.188563" lon="35.556020"><ele>366.824</ele><time>2014-01-17T07:14:42Z</time></trkpt><trkpt lat="33.188671" lon="35.556003"><ele>368.214</ele><time>2014-01-17T07:14:47Z</time></trkpt><trkpt lat="33.188772" lon="35.555978"><ele>370.339</ele><time>2014-01-17T07:14:53Z</time></trkpt><trkpt lat="33.188865" lon="35.555958"><ele>371.856</ele><time>2014-01-17T07:14:58Z</time></trkpt><trkpt lat="33.188965" lon="35.555922"><ele>372.042</ele><time>2014-01-17T07:15:04Z</time></trkpt><trkpt lat="33.189068" lon="35.555907"><ele>370.022</ele><time>2014-01-17T07:15:11Z</time></trkpt><trkpt lat="33.189157" lon="35.555889"><ele>369.714</ele><time>2014-01-17T07:15:17Z</time></trkpt><trkpt lat="33.189248" lon="35.555875"><ele>370.707</ele><time>2014-01-17T07:15:23Z</time></trkpt><trkpt lat="33.189340" lon="35.555892"><ele>372.039</ele><time>2014-01-17T07:15:29Z</time></trkpt><trkpt lat="33.189443" lon="35.555927"><ele>373.663</ele><time>2014-01-17T07:15:35Z</time></trkpt><trkpt lat="33.189530" lon="35.555981"><ele>375.821</ele><time>2014-01-17T07:15:40Z</time></trkpt><trkpt lat="33.189628" lon="35.555976"><ele>377.955</ele><time>2014-01-17T07:15:47Z</time></trkpt><trkpt lat="33.189722" lon="35.555972"><ele>377.975</ele><time>2014-01-17T07:15:52Z</time></trkpt><trkpt lat="33.189820" lon="35.555991"><ele>380.680</ele><time>2014-01-17T07:15:57Z</time></trkpt><trkpt lat="33.189922" lon="35.555992"><ele>383.427</ele><time>2014-01-17T07:16:02Z</time></trkpt><trkpt lat="33.190013" lon="35.555978"><ele>384.857</ele><time>2014-01-17T07:16:07Z</time></trkpt><trkpt lat="33.190100" lon="35.555946"><ele>386.300</ele><time>2014-01-17T07:16:13Z</time></trkpt><trkpt lat="33.190194" lon="35.555933"><ele>388.520</ele><time>2014-01-17T07:16:18Z</time></trkpt><trkpt lat="33.190292" lon="35.555919"><ele>389.907</ele><time>2014-01-17T07:16:23Z</time></trkpt><trkpt lat="33.190377" lon="35.555865"><ele>392.150</ele><time>2014-01-17T07:16:29Z</time></trkpt><trkpt lat="33.190467" lon="35.555810"><ele>396.834</ele><time>2014-01-17T07:16:37Z</time></trkpt><trkpt lat="33.190487" lon="35.555800"><ele>397.472</ele><time>2014-01-17T07:17:17Z</time></trkpt><trkpt lat="33.190487" lon="35.555800"><ele>397.486</ele><time>2014-01-17T07:17:57Z</time></trkpt><trkpt lat="33.190768" lon="35.555638"><ele>396.796</ele><time>2014-01-17T07:17:58Z</time></trkpt><trkpt lat="33.190862" lon="35.555616"><ele>399.781</ele><time>2014-01-17T07:18:04Z</time></trkpt><trkpt lat="33.190962" lon="35.555590"><ele>402.218</ele><time>2014-01-17T07:18:09Z</time></trkpt><trkpt lat="33.191057" lon="35.555555"><ele>405.017</ele><time>2014-01-17T07:18:15Z</time></trkpt><trkpt lat="33.191158" lon="35.555521"><ele>406.887</ele><time>2014-01-17T07:18:20Z</time></trkpt><trkpt lat="33.191257" lon="35.555475"><ele>407.715</ele><time>2014-01-17T07:18:25Z</time></trkpt><trkpt lat="33.191361" lon="35.555452"><ele>408.007</ele><time>2014-01-17T07:18:31Z</time></trkpt><trkpt lat="33.191453" lon="35.555398"><ele>407.816</ele><time>2014-01-17T07:18:37Z</time></trkpt><trkpt lat="33.191547" lon="35.555350"><ele>407.790</ele><time>2014-01-17T07:18:43Z</time></trkpt><trkpt lat="33.191637" lon="35.555319"><ele>408.968</ele><time>2014-01-17T07:18:48Z</time></trkpt><trkpt lat="33.191733" lon="35.555298"><ele>410.042</ele><time>2014-01-17T07:18:53Z</time></trkpt><trkpt lat="33.191836" lon="35.555282"><ele>409.632</ele><time>2014-01-17T07:18:58Z</time></trkpt><trkpt lat="33.191926" lon="35.555264"><ele>409.487</ele><time>2014-01-17T07:19:04Z</time></trkpt><trkpt lat="33.192024" lon="35.555242"><ele>409.744</ele><time>2014-01-17T07:19:11Z</time></trkpt><trkpt lat="33.192185" lon="35.555258"><ele>413.662</ele><time>2014-01-17T07:19:26Z</time></trkpt><trkpt lat="33.192286" lon="35.555245"><ele>414.283</ele><time>2014-01-17T07:19:33Z</time></trkpt><trkpt lat="33.192381" lon="35.555221"><ele>415.511</ele><time>2014-01-17T07:19:40Z</time></trkpt><trkpt lat="33.192476" lon="35.555202"><ele>417.307</ele><time>2014-01-17T07:19:47Z</time></trkpt><trkpt lat="33.192665" lon="35.555040"><ele>425.121</ele><time>2014-01-17T07:20:06Z</time></trkpt><trkpt lat="33.192729" lon="35.555128"><ele>424.235</ele><time>2014-01-17T07:20:12Z</time></trkpt><trkpt lat="33.192794" lon="35.555205"><ele>423.853</ele><time>2014-01-17T07:20:17Z</time></trkpt><trkpt lat="33.192879" lon="35.555253"><ele>423.587</ele><time>2014-01-17T07:20:22Z</time></trkpt><trkpt lat="33.192973" lon="35.555286"><ele>423.557</ele><time>2014-01-17T07:20:27Z</time></trkpt><trkpt lat="33.193284" lon="35.555201"><ele>427.872</ele><time>2014-01-17T07:20:55Z</time></trkpt><trkpt lat="33.193370" lon="35.555254"><ele>428.049</ele><time>2014-01-17T07:21:00Z</time></trkpt><trkpt lat="33.193444" lon="35.555334"><ele>427.871</ele><time>2014-01-17T07:21:07Z</time></trkpt><trkpt lat="33.193534" lon="35.555396"><ele>427.541</ele><time>2014-01-17T07:21:14Z</time></trkpt><trkpt lat="33.193620" lon="35.555456"><ele>426.415</ele><time>2014-01-17T07:21:20Z</time></trkpt><trkpt lat="33.193688" lon="35.555527"><ele>426.007</ele><time>2014-01-17T07:21:24Z</time></trkpt><trkpt lat="33.193775" lon="35.555620"><ele>426.222</ele><time>2014-01-17T07:21:28Z</time></trkpt><trkpt lat="33.193849" lon="35.555728"><ele>425.786</ele><time>2014-01-17T07:21:32Z</time></trkpt><trkpt lat="33.193886" lon="35.555878"><ele>426.224</ele><time>2014-01-17T07:21:35Z</time></trkpt><trkpt lat="33.193892" lon="35.556010"><ele>426.768</ele><time>2014-01-17T07:21:37Z</time></trkpt><trkpt lat="33.193911" lon="35.556172"><ele>426.378</ele><time>2014-01-17T07:21:39Z</time></trkpt><trkpt lat="33.193926" lon="35.556318"><ele>426.583</ele><time>2014-01-17T07:21:41Z</time></trkpt><trkpt lat="33.193922" lon="35.556448"><ele>427.140</ele><time>2014-01-17T07:21:43Z</time></trkpt><trkpt lat="33.193927" lon="35.556597"><ele>427.385</ele><time>2014-01-17T07:21:46Z</time></trkpt><trkpt lat="33.193978" lon="35.556700"><ele>426.489</ele><time>2014-01-17T07:21:48Z</time></trkpt><trkpt lat="33.194055" lon="35.556776"><ele>426.717</ele><time>2014-01-17T07:21:50Z</time></trkpt><trkpt lat="33.194157" lon="35.556827"><ele>426.807</ele><time>2014-01-17T07:21:53Z</time></trkpt><trkpt lat="33.194259" lon="35.556851"><ele>426.973</ele><time>2014-01-17T07:21:57Z</time></trkpt><trkpt lat="33.194364" lon="35.556860"><ele>428.727</ele><time>2014-01-17T07:22:02Z</time></trkpt><trkpt lat="33.194465" lon="35.556860"><ele>432.375</ele><time>2014-01-17T07:22:08Z</time></trkpt><trkpt lat="33.194558" lon="35.556856"><ele>433.199</ele><time>2014-01-17T07:22:14Z</time></trkpt><trkpt lat="33.194652" lon="35.556859"><ele>432.479</ele><time>2014-01-17T07:22:20Z</time></trkpt><trkpt lat="33.194747" lon="35.556875"><ele>434.944</ele><time>2014-01-17T07:22:27Z</time></trkpt><trkpt lat="33.194759" lon="35.556874"><ele>435.441</ele><time>2014-01-17T07:23:07Z</time></trkpt><trkpt lat="33.194706" lon="35.556718"><ele>434.224</ele><time>2014-01-17T07:23:17Z</time></trkpt><trkpt lat="33.194714" lon="35.556690"><ele>433.304</ele><time>2014-01-17T07:23:57Z</time></trkpt><trkpt lat="33.194714" lon="35.556690"><ele>433.314</ele><time>2014-01-17T07:24:37Z</time></trkpt><trkpt lat="33.194714" lon="35.556690"><ele>433.307</ele><time>2014-01-17T07:25:17Z</time></trkpt><trkpt lat="33.194714" lon="35.556690"><ele>433.397</ele><time>2014-01-17T07:25:57Z</time></trkpt><trkpt lat="33.194714" lon="35.556690"><ele>433.381</ele><time>2014-01-17T07:26:37Z</time></trkpt><trkpt lat="33.194714" lon="35.556690"><ele>433.319</ele><time>2014-01-17T07:27:17Z</time></trkpt><trkpt lat="33.194714" lon="35.556690"><ele>433.383</ele><time>2014-01-17T07:27:57Z</time></trkpt><trkpt lat="33.194714" lon="35.556690"><ele>433.393</ele><time>2014-01-17T07:28:37Z</time></trkpt><trkpt lat="33.194837" lon="35.556744"><ele>436.458</ele><time>2014-01-17T07:28:50Z</time></trkpt><trkpt lat="33.194933" lon="35.556781"><ele>437.235</ele><time>2014-01-17T07:28:55Z</time></trkpt><trkpt lat="33.195034" lon="35.556782"><ele>437.749</ele><time>2014-01-17T07:29:00Z</time></trkpt><trkpt lat="33.195136" lon="35.556795"><ele>438.302</ele><time>2014-01-17T07:29:06Z</time></trkpt><trkpt lat="33.195231" lon="35.556796"><ele>438.722</ele><time>2014-01-17T07:29:11Z</time></trkpt><trkpt lat="33.195328" lon="35.556798"><ele>438.707</ele><time>2014-01-17T07:29:17Z</time></trkpt><trkpt lat="33.195419" lon="35.556771"><ele>438.549</ele><time>2014-01-17T07:29:22Z</time></trkpt><trkpt lat="33.195520" lon="35.556759"><ele>438.373</ele><time>2014-01-17T07:29:27Z</time></trkpt><trkpt lat="33.195624" lon="35.556748"><ele>437.741</ele><time>2014-01-17T07:29:33Z</time></trkpt><trkpt lat="33.195705" lon="35.556689"><ele>438.345</ele><time>2014-01-17T07:29:40Z</time></trkpt><trkpt lat="33.195817" lon="35.556718"><ele>438.435</ele><time>2014-01-17T07:29:50Z</time></trkpt><trkpt lat="33.195896" lon="35.556772"><ele>439.450</ele><time>2014-01-17T07:29:58Z</time></trkpt><trkpt lat="33.195988" lon="35.556782"><ele>440.147</ele><time>2014-01-17T07:30:03Z</time></trkpt><trkpt lat="33.196083" lon="35.556825"><ele>441.159</ele><time>2014-01-17T07:30:08Z</time></trkpt><trkpt lat="33.196178" lon="35.556842"><ele>441.703</ele><time>2014-01-17T07:30:15Z</time></trkpt><trkpt lat="33.196272" lon="35.556809"><ele>441.523</ele><time>2014-01-17T07:30:21Z</time></trkpt><trkpt lat="33.196375" lon="35.556781"><ele>442.507</ele><time>2014-01-17T07:30:26Z</time></trkpt><trkpt lat="33.196464" lon="35.556758"><ele>442.530</ele><time>2014-01-17T07:30:31Z</time></trkpt><trkpt lat="33.196554" lon="35.556792"><ele>441.654</ele><time>2014-01-17T07:30:38Z</time></trkpt><trkpt lat="33.196661" lon="35.556812"><ele>442.292</ele><time>2014-01-17T07:30:45Z</time></trkpt><trkpt lat="33.196757" lon="35.556804"><ele>443.556</ele><time>2014-01-17T07:30:50Z</time></trkpt><trkpt lat="33.196862" lon="35.556821"><ele>444.956</ele><time>2014-01-17T07:30:56Z</time></trkpt><trkpt lat="33.196963" lon="35.556830"><ele>444.841</ele><time>2014-01-17T07:31:00Z</time></trkpt><trkpt lat="33.197072" lon="35.556822"><ele>445.098</ele><time>2014-01-17T07:31:05Z</time></trkpt><trkpt lat="33.197179" lon="35.556816"><ele>447.157</ele><time>2014-01-17T07:31:10Z</time></trkpt><trkpt lat="33.197277" lon="35.556828"><ele>448.100</ele><time>2014-01-17T07:31:15Z</time></trkpt><trkpt lat="33.197380" lon="35.556840"><ele>448.920</ele><time>2014-01-17T07:31:19Z</time></trkpt><trkpt lat="33.197477" lon="35.556860"><ele>449.807</ele><time>2014-01-17T07:31:25Z</time></trkpt><trkpt lat="33.197591" lon="35.556852"><ele>450.230</ele><time>2014-01-17T07:31:29Z</time></trkpt><trkpt lat="33.197694" lon="35.556843"><ele>450.064</ele><time>2014-01-17T07:31:34Z</time></trkpt><trkpt lat="33.197795" lon="35.556807"><ele>450.112</ele><time>2014-01-17T07:31:38Z</time></trkpt><trkpt lat="33.197890" lon="35.556784"><ele>449.016</ele><time>2014-01-17T07:31:43Z</time></trkpt><trkpt lat="33.197990" lon="35.556767"><ele>448.996</ele><time>2014-01-17T07:31:48Z</time></trkpt><trkpt lat="33.198094" lon="35.556768"><ele>448.811</ele><time>2014-01-17T07:31:52Z</time></trkpt><trkpt lat="33.198197" lon="35.556790"><ele>449.748</ele><time>2014-01-17T07:31:55Z</time></trkpt><trkpt lat="33.198293" lon="35.556802"><ele>452.024</ele><time>2014-01-17T07:31:59Z</time></trkpt><trkpt lat="33.198401" lon="35.556814"><ele>453.104</ele><time>2014-01-17T07:32:03Z</time></trkpt><trkpt lat="33.198500" lon="35.556788"><ele>451.514</ele><time>2014-01-17T07:32:07Z</time></trkpt><trkpt lat="33.198591" lon="35.556762"><ele>449.307</ele><time>2014-01-17T07:32:11Z</time></trkpt><trkpt lat="33.198689" lon="35.556757"><ele>450.317</ele><time>2014-01-17T07:32:14Z</time></trkpt><trkpt lat="33.198781" lon="35.556741"><ele>451.251</ele><time>2014-01-17T07:32:17Z</time></trkpt><trkpt lat="33.198881" lon="35.556727"><ele>451.589</ele><time>2014-01-17T07:32:21Z</time></trkpt><trkpt lat="33.198981" lon="35.556705"><ele>452.943</ele><time>2014-01-17T07:32:25Z</time></trkpt><trkpt lat="33.199079" lon="35.556652"><ele>454.783</ele><time>2014-01-17T07:32:30Z</time></trkpt><trkpt lat="33.199191" lon="35.556669"><ele>455.598</ele><time>2014-01-17T07:32:36Z</time></trkpt><trkpt lat="33.199277" lon="35.556701"><ele>456.775</ele><time>2014-01-17T07:32:40Z</time></trkpt><trkpt lat="33.199377" lon="35.556687"><ele>458.417</ele><time>2014-01-17T07:32:45Z</time></trkpt><trkpt lat="33.199480" lon="35.556706"><ele>458.787</ele><time>2014-01-17T07:32:50Z</time></trkpt><trkpt lat="33.199590" lon="35.556720"><ele>459.515</ele><time>2014-01-17T07:32:54Z</time></trkpt><trkpt lat="33.199693" lon="35.556738"><ele>460.407</ele><time>2014-01-17T07:32:58Z</time></trkpt><trkpt lat="33.199786" lon="35.556734"><ele>461.046</ele><time>2014-01-17T07:33:02Z</time></trkpt><trkpt lat="33.199875" lon="35.556757"><ele>461.990</ele><time>2014-01-17T07:33:07Z</time></trkpt><trkpt lat="33.199983" lon="35.556785"><ele>462.848</ele><time>2014-01-17T07:33:10Z</time></trkpt><trkpt lat="33.200079" lon="35.556781"><ele>463.342</ele><time>2014-01-17T07:33:13Z</time></trkpt><trkpt lat="33.200176" lon="35.556715"><ele>463.772</ele><time>2014-01-17T07:33:17Z</time></trkpt><trkpt lat="33.200245" lon="35.556618"><ele>465.157</ele><time>2014-01-17T07:33:22Z</time></trkpt><trkpt lat="33.200342" lon="35.556532"><ele>466.084</ele><time>2014-01-17T07:33:26Z</time></trkpt><trkpt lat="33.200416" lon="35.556410"><ele>467.661</ele><time>2014-01-17T07:33:29Z</time></trkpt><trkpt lat="33.200472" lon="35.556307"><ele>470.321</ele><time>2014-01-17T07:33:32Z</time></trkpt><trkpt lat="33.200581" lon="35.556284"><ele>472.413</ele><time>2014-01-17T07:33:36Z</time></trkpt><trkpt lat="33.200671" lon="35.556274"><ele>473.307</ele><time>2014-01-17T07:33:38Z</time></trkpt><trkpt lat="33.200803" lon="35.556255"><ele>475.121</ele><time>2014-01-17T07:33:41Z</time></trkpt><trkpt lat="33.200904" lon="35.556230"><ele>476.385</ele><time>2014-01-17T07:33:44Z</time></trkpt><trkpt lat="33.201025" lon="35.556234"><ele>477.823</ele><time>2014-01-17T07:33:47Z</time></trkpt><trkpt lat="33.201146" lon="35.556201"><ele>480.347</ele><time>2014-01-17T07:33:50Z</time></trkpt><trkpt lat="33.201229" lon="35.556129"><ele>481.017</ele><time>2014-01-17T07:33:54Z</time></trkpt><trkpt lat="33.201277" lon="35.556027"><ele>482.092</ele><time>2014-01-17T07:33:59Z</time></trkpt><trkpt lat="33.201386" lon="35.555988"><ele>483.589</ele><time>2014-01-17T07:34:05Z</time></trkpt><trkpt lat="33.201492" lon="35.555943"><ele>484.696</ele><time>2014-01-17T07:34:09Z</time></trkpt><trkpt lat="33.201592" lon="35.555916"><ele>487.331</ele><time>2014-01-17T07:34:13Z</time></trkpt><trkpt lat="33.201692" lon="35.555877"><ele>488.224</ele><time>2014-01-17T07:34:17Z</time></trkpt><trkpt lat="33.201803" lon="35.555843"><ele>489.407</ele><time>2014-01-17T07:34:21Z</time></trkpt><trkpt lat="33.201904" lon="35.555808"><ele>489.934</ele><time>2014-01-17T07:34:25Z</time></trkpt><trkpt lat="33.202010" lon="35.555775"><ele>490.798</ele><time>2014-01-17T07:34:29Z</time></trkpt><trkpt lat="33.202112" lon="35.555764"><ele>492.536</ele><time>2014-01-17T07:34:35Z</time></trkpt><trkpt lat="33.202219" lon="35.555786"><ele>492.260</ele><time>2014-01-17T07:34:40Z</time></trkpt><trkpt lat="33.202329" lon="35.555768"><ele>491.110</ele><time>2014-01-17T07:34:43Z</time></trkpt><trkpt lat="33.202426" lon="35.555740"><ele>490.655</ele><time>2014-01-17T07:34:46Z</time></trkpt><trkpt lat="33.202554" lon="35.555701"><ele>490.682</ele><time>2014-01-17T07:34:49Z</time></trkpt><trkpt lat="33.202657" lon="35.555649"><ele>491.691</ele><time>2014-01-17T07:34:53Z</time></trkpt><trkpt lat="33.202774" lon="35.555658"><ele>492.781</ele><time>2014-01-17T07:34:57Z</time></trkpt><trkpt lat="33.202868" lon="35.555677"><ele>493.219</ele><time>2014-01-17T07:34:59Z</time></trkpt><trkpt lat="33.202991" lon="35.555673"><ele>492.407</ele><time>2014-01-17T07:35:02Z</time></trkpt><trkpt lat="33.203101" lon="35.555643"><ele>490.244</ele><time>2014-01-17T07:35:05Z</time></trkpt><trkpt lat="33.203186" lon="35.555606"><ele>489.938</ele><time>2014-01-17T07:35:08Z</time></trkpt><trkpt lat="33.203261" lon="35.555546"><ele>492.196</ele><time>2014-01-17T07:35:12Z</time></trkpt><trkpt lat="33.203371" lon="35.555504"><ele>494.470</ele><time>2014-01-17T07:35:17Z</time></trkpt><trkpt lat="33.203470" lon="35.555482"><ele>494.110</ele><time>2014-01-17T07:35:20Z</time></trkpt><trkpt lat="33.203564" lon="35.555458"><ele>493.985</ele><time>2014-01-17T07:35:24Z</time></trkpt><trkpt lat="33.203663" lon="35.555455"><ele>494.842</ele><time>2014-01-17T07:35:27Z</time></trkpt><trkpt lat="33.203763" lon="35.555473"><ele>494.945</ele><time>2014-01-17T07:35:30Z</time></trkpt><trkpt lat="33.203872" lon="35.555470"><ele>493.547</ele><time>2014-01-17T07:35:34Z</time></trkpt><trkpt lat="33.203973" lon="35.555491"><ele>492.711</ele><time>2014-01-17T07:35:37Z</time></trkpt><trkpt lat="33.204082" lon="35.555493"><ele>490.907</ele><time>2014-01-17T07:35:41Z</time></trkpt><trkpt lat="33.204197" lon="35.555518"><ele>488.379</ele><time>2014-01-17T07:35:45Z</time></trkpt><trkpt lat="33.204304" lon="35.555543"><ele>487.173</ele><time>2014-01-17T07:35:48Z</time></trkpt><trkpt lat="33.204401" lon="35.555589"><ele>486.971</ele><time>2014-01-17T07:35:53Z</time></trkpt><trkpt lat="33.204502" lon="35.555643"><ele>487.655</ele><time>2014-01-17T07:35:57Z</time></trkpt><trkpt lat="33.204617" lon="35.555657"><ele>488.055</ele><time>2014-01-17T07:36:00Z</time></trkpt><trkpt lat="33.204730" lon="35.555656"><ele>487.470</ele><time>2014-01-17T07:36:03Z</time></trkpt><trkpt lat="33.204845" lon="35.555648"><ele>488.667</ele><time>2014-01-17T07:36:06Z</time></trkpt><trkpt lat="33.204947" lon="35.555621"><ele>490.239</ele><time>2014-01-17T07:36:10Z</time></trkpt><trkpt lat="33.204973" lon="35.555567"><ele>491.001</ele><time>2014-01-17T07:36:20Z</time></trkpt><trkpt lat="33.204937" lon="35.555339"><ele>486.021</ele><time>2014-01-17T07:36:33Z</time></trkpt><trkpt lat="33.204898" lon="35.555305"><ele>485.907</ele><time>2014-01-17T07:36:43Z</time></trkpt><trkpt lat="33.204758" lon="35.555247"><ele>488.388</ele><time>2014-01-17T07:36:46Z</time></trkpt><trkpt lat="33.204684" lon="35.555221"><ele>488.332</ele><time>2014-01-17T07:36:56Z</time></trkpt><trkpt lat="33.204552" lon="35.555142"><ele>487.370</ele><time>2014-01-17T07:37:01Z</time></trkpt><trkpt lat="33.204485" lon="35.555030"><ele>486.864</ele><time>2014-01-17T07:37:11Z</time></trkpt><trkpt lat="33.204397" lon="35.554997"><ele>487.544</ele><time>2014-01-17T07:37:14Z</time></trkpt><trkpt lat="33.204296" lon="35.554973"><ele>489.599</ele><time>2014-01-17T07:37:20Z</time></trkpt><trkpt lat="33.204210" lon="35.554936"><ele>489.496</ele><time>2014-01-17T07:37:25Z</time></trkpt><trkpt lat="33.204125" lon="35.554887"><ele>490.469</ele><time>2014-01-17T07:37:31Z</time></trkpt><trkpt lat="33.204038" lon="35.554824"><ele>492.004</ele><time>2014-01-17T07:37:39Z</time></trkpt><trkpt lat="33.203941" lon="35.554777"><ele>492.924</ele><time>2014-01-17T07:37:45Z</time></trkpt><trkpt lat="33.203835" lon="35.554764"><ele>495.207</ele><time>2014-01-17T07:37:51Z</time></trkpt><trkpt lat="33.203735" lon="35.554775"><ele>493.791</ele><time>2014-01-17T07:37:56Z</time></trkpt><trkpt lat="33.203637" lon="35.554774"><ele>493.055</ele><time>2014-01-17T07:38:00Z</time></trkpt><trkpt lat="33.203534" lon="35.554793"><ele>493.753</ele><time>2014-01-17T07:38:05Z</time></trkpt><trkpt lat="33.203416" lon="35.554820"><ele>494.517</ele><time>2014-01-17T07:38:10Z</time></trkpt><trkpt lat="33.203309" lon="35.554828"><ele>495.097</ele><time>2014-01-17T07:38:15Z</time></trkpt><trkpt lat="33.203193" lon="35.554862"><ele>495.012</ele><time>2014-01-17T07:38:19Z</time></trkpt><trkpt lat="33.203096" lon="35.554888"><ele>494.939</ele><time>2014-01-17T07:38:23Z</time></trkpt><trkpt lat="33.202997" lon="35.554921"><ele>494.972</ele><time>2014-01-17T07:38:27Z</time></trkpt><trkpt lat="33.202905" lon="35.554954"><ele>495.413</ele><time>2014-01-17T07:38:30Z</time></trkpt><trkpt lat="33.202793" lon="35.554949"><ele>495.314</ele><time>2014-01-17T07:38:34Z</time></trkpt><trkpt lat="33.202690" lon="35.554954"><ele>495.307</ele><time>2014-01-17T07:38:38Z</time></trkpt><trkpt lat="33.202571" lon="35.554978"><ele>496.362</ele><time>2014-01-17T07:38:42Z</time></trkpt><trkpt lat="33.202456" lon="35.554999"><ele>496.396</ele><time>2014-01-17T07:38:46Z</time></trkpt><trkpt lat="33.202342" lon="35.555015"><ele>496.694</ele><time>2014-01-17T07:38:50Z</time></trkpt><trkpt lat="33.202220" lon="35.555042"><ele>495.788</ele><time>2014-01-17T07:38:53Z</time></trkpt><trkpt lat="33.202089" lon="35.555037"><ele>494.688</ele><time>2014-01-17T07:38:56Z</time></trkpt><trkpt lat="33.201971" lon="35.555025"><ele>494.513</ele><time>2014-01-17T07:38:59Z</time></trkpt><trkpt lat="33.201852" lon="35.555066"><ele>493.940</ele><time>2014-01-17T07:39:02Z</time></trkpt><trkpt lat="33.201768" lon="35.555112"><ele>493.616</ele><time>2014-01-17T07:39:04Z</time></trkpt><trkpt lat="33.201656" lon="35.555181"><ele>492.876</ele><time>2014-01-17T07:39:07Z</time></trkpt><trkpt lat="33.201543" lon="35.555228"><ele>492.513</ele><time>2014-01-17T07:39:10Z</time></trkpt><trkpt lat="33.201438" lon="35.555262"><ele>493.007</ele><time>2014-01-17T07:39:13Z</time></trkpt><trkpt lat="33.201329" lon="35.555306"><ele>493.336</ele><time>2014-01-17T07:39:16Z</time></trkpt><trkpt lat="33.201235" lon="35.555349"><ele>493.740</ele><time>2014-01-17T07:39:18Z</time></trkpt><trkpt lat="33.201146" lon="35.555403"><ele>494.038</ele><time>2014-01-17T07:39:20Z</time></trkpt><trkpt lat="33.201058" lon="35.555467"><ele>494.232</ele><time>2014-01-17T07:39:22Z</time></trkpt><trkpt lat="33.200958" lon="35.555537"><ele>494.282</ele><time>2014-01-17T07:39:24Z</time></trkpt><trkpt lat="33.200865" lon="35.555508"><ele>494.167</ele><time>2014-01-17T07:39:27Z</time></trkpt><trkpt lat="33.200908" lon="35.555457"><ele>492.384</ele><time>2014-01-17T07:39:39Z</time></trkpt><trkpt lat="33.201008" lon="35.555448"><ele>494.077</ele><time>2014-01-17T07:39:43Z</time></trkpt><trkpt lat="33.201087" lon="35.555388"><ele>495.261</ele><time>2014-01-17T07:39:46Z</time></trkpt><trkpt lat="33.201149" lon="35.555302"><ele>498.427</ele><time>2014-01-17T07:39:52Z</time></trkpt><trkpt lat="33.201238" lon="35.555245"><ele>500.607</ele><time>2014-01-17T07:39:55Z</time></trkpt><trkpt lat="33.201313" lon="35.555184"><ele>502.932</ele><time>2014-01-17T07:39:59Z</time></trkpt><trkpt lat="33.201413" lon="35.555119"><ele>503.436</ele><time>2014-01-17T07:40:04Z</time></trkpt><trkpt lat="33.201500" lon="35.555075"><ele>504.114</ele><time>2014-01-17T07:40:09Z</time></trkpt><trkpt lat="33.201585" lon="35.555029"><ele>506.028</ele><time>2014-01-17T07:40:13Z</time></trkpt><trkpt lat="33.201674" lon="35.554973"><ele>506.548</ele><time>2014-01-17T07:40:17Z</time></trkpt><trkpt lat="33.201776" lon="35.554935"><ele>507.853</ele><time>2014-01-17T07:40:21Z</time></trkpt><trkpt lat="33.201864" lon="35.554895"><ele>508.630</ele><time>2014-01-17T07:40:25Z</time></trkpt><trkpt lat="33.201970" lon="35.554860"><ele>512.394</ele><time>2014-01-17T07:40:30Z</time></trkpt><trkpt lat="33.202076" lon="35.554813"><ele>512.857</ele><time>2014-01-17T07:40:34Z</time></trkpt><trkpt lat="33.202172" lon="35.554797"><ele>514.222</ele><time>2014-01-17T07:40:38Z</time></trkpt><trkpt lat="33.202290" lon="35.554826"><ele>514.207</ele><time>2014-01-17T07:40:42Z</time></trkpt><trkpt lat="33.202406" lon="35.554851"><ele>514.494</ele><time>2014-01-17T07:40:45Z</time></trkpt><trkpt lat="33.202512" lon="35.554831"><ele>515.558</ele><time>2014-01-17T07:40:48Z</time></trkpt><trkpt lat="33.202620" lon="35.554796"><ele>515.746</ele><time>2014-01-17T07:40:51Z</time></trkpt><trkpt lat="33.202740" lon="35.554783"><ele>515.910</ele><time>2014-01-17T07:40:54Z</time></trkpt><trkpt lat="33.202835" lon="35.554770"><ele>515.740</ele><time>2014-01-17T07:40:56Z</time></trkpt><trkpt lat="33.202927" lon="35.554740"><ele>516.365</ele><time>2014-01-17T07:40:58Z</time></trkpt><trkpt lat="33.203017" lon="35.554702"><ele>516.052</ele><time>2014-01-17T07:41:02Z</time></trkpt><trkpt lat="33.203011" lon="35.554584"><ele>513.872</ele><time>2014-01-17T07:41:07Z</time></trkpt><trkpt lat="33.202927" lon="35.554539"><ele>513.213</ele><time>2014-01-17T07:41:13Z</time></trkpt><trkpt lat="33.202837" lon="35.554494"><ele>514.114</ele><time>2014-01-17T07:41:19Z</time></trkpt><trkpt lat="33.202747" lon="35.554475"><ele>514.907</ele><time>2014-01-17T07:41:23Z</time></trkpt><trkpt lat="33.202642" lon="35.554454"><ele>515.312</ele><time>2014-01-17T07:41:28Z</time></trkpt><trkpt lat="33.202539" lon="35.554452"><ele>516.096</ele><time>2014-01-17T07:41:32Z</time></trkpt><trkpt lat="33.202430" lon="35.554461"><ele>517.344</ele><time>2014-01-17T07:41:36Z</time></trkpt><trkpt lat="33.202322" lon="35.554457"><ele>517.538</ele><time>2014-01-17T07:41:39Z</time></trkpt><trkpt lat="33.202204" lon="35.554456"><ele>517.668</ele><time>2014-01-17T07:41:42Z</time></trkpt><trkpt lat="33.202112" lon="35.554460"><ele>517.873</ele><time>2014-01-17T07:41:45Z</time></trkpt><trkpt lat="33.201999" lon="35.554472"><ele>518.210</ele><time>2014-01-17T07:41:49Z</time></trkpt><trkpt lat="33.201907" lon="35.554475"><ele>518.131</ele><time>2014-01-17T07:41:52Z</time></trkpt><trkpt lat="33.201802" lon="35.554487"><ele>518.661</ele><time>2014-01-17T07:41:56Z</time></trkpt><trkpt lat="33.201708" lon="35.554497"><ele>519.307</ele><time>2014-01-17T07:42:00Z</time></trkpt><trkpt lat="33.201608" lon="35.554501"><ele>520.107</ele><time>2014-01-17T07:42:05Z</time></trkpt><trkpt lat="33.201511" lon="35.554499"><ele>520.798</ele><time>2014-01-17T07:42:11Z</time></trkpt><trkpt lat="33.201419" lon="35.554499"><ele>520.152</ele><time>2014-01-17T07:42:15Z</time></trkpt><trkpt lat="33.201323" lon="35.554503"><ele>519.740</ele><time>2014-01-17T07:42:19Z</time></trkpt><trkpt lat="33.201213" lon="35.554485"><ele>518.354</ele><time>2014-01-17T07:42:24Z</time></trkpt><trkpt lat="33.201106" lon="35.554463"><ele>517.914</ele><time>2014-01-17T07:42:29Z</time></trkpt><trkpt lat="33.201015" lon="35.554460"><ele>517.869</ele><time>2014-01-17T07:42:33Z</time></trkpt><trkpt lat="33.200913" lon="35.554463"><ele>518.896</ele><time>2014-01-17T07:42:38Z</time></trkpt><trkpt lat="33.200823" lon="35.554470"><ele>519.798</ele><time>2014-01-17T07:42:43Z</time></trkpt><trkpt lat="33.200719" lon="35.554464"><ele>520.415</ele><time>2014-01-17T07:42:48Z</time></trkpt><trkpt lat="33.200624" lon="35.554468"><ele>521.526</ele><time>2014-01-17T07:42:53Z</time></trkpt><trkpt lat="33.200523" lon="35.554498"><ele>522.107</ele><time>2014-01-17T07:42:59Z</time></trkpt><trkpt lat="33.200421" lon="35.554498"><ele>523.194</ele><time>2014-01-17T07:43:05Z</time></trkpt><trkpt lat="33.200336" lon="35.554438"><ele>524.368</ele><time>2014-01-17T07:43:11Z</time></trkpt><trkpt lat="33.200289" lon="35.554359"><ele>526.026</ele><time>2014-01-17T07:43:21Z</time></trkpt><trkpt lat="33.200345" lon="35.554257"><ele>528.080</ele><time>2014-01-17T07:43:25Z</time></trkpt><trkpt lat="33.200404" lon="35.554158"><ele>530.510</ele><time>2014-01-17T07:43:31Z</time></trkpt><trkpt lat="33.200383" lon="35.554032"><ele>533.125</ele><time>2014-01-17T07:43:39Z</time></trkpt><trkpt lat="33.200349" lon="35.553970"><ele>534.922</ele><time>2014-01-17T07:43:49Z</time></trkpt><trkpt lat="33.200203" lon="35.553907"><ele>537.697</ele><time>2014-01-17T07:43:58Z</time></trkpt><trkpt lat="33.200126" lon="35.553981"><ele>537.223</ele><time>2014-01-17T07:44:04Z</time></trkpt><trkpt lat="33.199975" lon="35.554072"><ele>536.825</ele><time>2014-01-17T07:44:13Z</time></trkpt><trkpt lat="33.199893" lon="35.554164"><ele>539.107</ele><time>2014-01-17T07:44:19Z</time></trkpt><trkpt lat="33.199831" lon="35.554257"><ele>539.494</ele><time>2014-01-17T07:44:23Z</time></trkpt><trkpt lat="33.199781" lon="35.554374"><ele>539.348</ele><time>2014-01-17T07:44:27Z</time></trkpt><trkpt lat="33.199735" lon="35.554468"><ele>540.076</ele><time>2014-01-17T07:44:31Z</time></trkpt><trkpt lat="33.199675" lon="35.554570"><ele>539.380</ele><time>2014-01-17T07:44:36Z</time></trkpt><trkpt lat="33.199598" lon="35.554644"><ele>541.030</ele><time>2014-01-17T07:44:41Z</time></trkpt><trkpt lat="33.199510" lon="35.554700"><ele>542.725</ele><time>2014-01-17T07:44:46Z</time></trkpt><trkpt lat="33.199401" lon="35.554726"><ele>542.722</ele><time>2014-01-17T07:44:51Z</time></trkpt><trkpt lat="33.199312" lon="35.554746"><ele>542.812</ele><time>2014-01-17T07:44:54Z</time></trkpt><trkpt lat="33.199202" lon="35.554766"><ele>543.832</ele><time>2014-01-17T07:44:59Z</time></trkpt><trkpt lat="33.199087" lon="35.554763"><ele>544.305</ele><time>2014-01-17T07:45:03Z</time></trkpt><trkpt lat="33.198967" lon="35.554751"><ele>544.607</ele><time>2014-01-17T07:45:07Z</time></trkpt><trkpt lat="33.198871" lon="35.554729"><ele>544.726</ele><time>2014-01-17T07:45:10Z</time></trkpt><trkpt lat="33.198768" lon="35.554701"><ele>544.620</ele><time>2014-01-17T07:45:13Z</time></trkpt><trkpt lat="33.198659" lon="35.554727"><ele>544.498</ele><time>2014-01-17T07:45:16Z</time></trkpt><trkpt lat="33.198560" lon="35.554791"><ele>544.512</ele><time>2014-01-17T07:45:19Z</time></trkpt><trkpt lat="33.198473" lon="35.554834"><ele>544.632</ele><time>2014-01-17T07:45:22Z</time></trkpt><trkpt lat="33.198359" lon="35.554826"><ele>544.077</ele><time>2014-01-17T07:45:25Z</time></trkpt><trkpt lat="33.198222" lon="35.554840"><ele>543.334</ele><time>2014-01-17T07:45:28Z</time></trkpt><trkpt lat="33.198088" lon="35.554871"><ele>543.643</ele><time>2014-01-17T07:45:31Z</time></trkpt><trkpt lat="33.197983" lon="35.554876"><ele>542.764</ele><time>2014-01-17T07:45:33Z</time></trkpt><trkpt lat="33.197854" lon="35.554903"><ele>542.510</ele><time>2014-01-17T07:45:36Z</time></trkpt><trkpt lat="33.197730" lon="35.554912"><ele>542.507</ele><time>2014-01-17T07:45:39Z</time></trkpt><trkpt lat="33.197635" lon="35.554938"><ele>543.199</ele><time>2014-01-17T07:45:41Z</time></trkpt><trkpt lat="33.197523" lon="35.554950"><ele>542.023</ele><time>2014-01-17T07:45:44Z</time></trkpt><trkpt lat="33.197430" lon="35.554984"><ele>540.991</ele><time>2014-01-17T07:45:47Z</time></trkpt><trkpt lat="33.197301" lon="35.555002"><ele>541.425</ele><time>2014-01-17T07:45:50Z</time></trkpt><trkpt lat="33.197182" lon="35.555019"><ele>540.615</ele><time>2014-01-17T07:45:53Z</time></trkpt><trkpt lat="33.197049" lon="35.555031"><ele>540.360</ele><time>2014-01-17T07:45:56Z</time></trkpt><trkpt lat="33.196956" lon="35.555007"><ele>539.897</ele><time>2014-01-17T07:45:58Z</time></trkpt><trkpt lat="33.196864" lon="35.554973"><ele>539.119</ele><time>2014-01-17T07:46:00Z</time></trkpt><trkpt lat="33.196760" lon="35.554898"><ele>538.709</ele><time>2014-01-17T07:46:03Z</time></trkpt><trkpt lat="33.196670" lon="35.554856"><ele>537.319</ele><time>2014-01-17T07:46:05Z</time></trkpt><trkpt lat="33.196554" lon="35.554823"><ele>535.707</ele><time>2014-01-17T07:46:07Z</time></trkpt><trkpt lat="33.196415" lon="35.554870"><ele>534.736</ele><time>2014-01-17T07:46:10Z</time></trkpt><trkpt lat="33.196294" lon="35.554928"><ele>534.390</ele><time>2014-01-17T07:46:12Z</time></trkpt><trkpt lat="33.196171" lon="35.554965"><ele>533.748</ele><time>2014-01-17T07:46:14Z</time></trkpt><trkpt lat="33.196056" lon="35.555002"><ele>533.952</ele><time>2014-01-17T07:46:16Z</time></trkpt><trkpt lat="33.195945" lon="35.555020"><ele>533.142</ele><time>2014-01-17T07:46:18Z</time></trkpt><trkpt lat="33.195817" lon="35.555021"><ele>532.077</ele><time>2014-01-17T07:46:20Z</time></trkpt><trkpt lat="33.195661" lon="35.554993"><ele>531.424</ele><time>2014-01-17T07:46:22Z</time></trkpt><trkpt lat="33.195507" lon="35.554982"><ele>530.659</ele><time>2014-01-17T07:46:24Z</time></trkpt><trkpt lat="33.195386" lon="35.554959"><ele>529.503</ele><time>2014-01-17T07:46:26Z</time></trkpt><trkpt lat="33.195295" lon="35.554906"><ele>529.123</ele><time>2014-01-17T07:46:28Z</time></trkpt><trkpt lat="33.195219" lon="35.554847"><ele>528.407</ele><time>2014-01-17T07:46:30Z</time></trkpt><trkpt lat="33.195130" lon="35.554771"><ele>527.050</ele><time>2014-01-17T07:46:33Z</time></trkpt><trkpt lat="33.195083" lon="35.554736"><ele>526.274</ele><time>2014-01-17T07:46:45Z</time></trkpt><trkpt lat="33.195027" lon="35.554627"><ele>525.842</ele><time>2014-01-17T07:46:49Z</time></trkpt><trkpt lat="33.194994" lon="35.554516"><ele>525.026</ele><time>2014-01-17T07:46:52Z</time></trkpt><trkpt lat="33.194978" lon="35.554396"><ele>524.776</ele><time>2014-01-17T07:46:55Z</time></trkpt><trkpt lat="33.194978" lon="35.554288"><ele>524.391</ele><time>2014-01-17T07:46:59Z</time></trkpt><trkpt lat="33.194998" lon="35.554155"><ele>524.048</ele><time>2014-01-17T07:47:13Z</time></trkpt><trkpt lat="33.195050" lon="35.554263"><ele>523.758</ele><time>2014-01-17T07:47:18Z</time></trkpt><trkpt lat="33.195094" lon="35.554368"><ele>523.752</ele><time>2014-01-17T07:47:24Z</time></trkpt><trkpt lat="33.195138" lon="35.554486"><ele>523.917</ele><time>2014-01-17T07:47:29Z</time></trkpt><trkpt lat="33.195217" lon="35.554591"><ele>524.507</ele><time>2014-01-17T07:47:33Z</time></trkpt><trkpt lat="33.195305" lon="35.554658"><ele>525.190</ele><time>2014-01-17T07:47:37Z</time></trkpt><trkpt lat="33.195395" lon="35.554699"><ele>525.984</ele><time>2014-01-17T07:47:41Z</time></trkpt><trkpt lat="33.195495" lon="35.554725"><ele>526.662</ele><time>2014-01-17T07:47:45Z</time></trkpt><trkpt lat="33.195602" lon="35.554733"><ele>526.546</ele><time>2014-01-17T07:47:49Z</time></trkpt><trkpt lat="33.195707" lon="35.554723"><ele>526.556</ele><time>2014-01-17T07:47:53Z</time></trkpt><trkpt lat="33.195814" lon="35.554724"><ele>527.121</ele><time>2014-01-17T07:47:57Z</time></trkpt><trkpt lat="33.195924" lon="35.554745"><ele>527.578</ele><time>2014-01-17T07:48:01Z</time></trkpt><trkpt lat="33.196032" lon="35.554752"><ele>528.087</ele><time>2014-01-17T07:48:05Z</time></trkpt><trkpt lat="33.196144" lon="35.554754"><ele>528.742</ele><time>2014-01-17T07:48:09Z</time></trkpt><trkpt lat="33.196256" lon="35.554767"><ele>529.826</ele><time>2014-01-17T07:48:13Z</time></trkpt><trkpt lat="33.196358" lon="35.554778"><ele>530.507</ele><time>2014-01-17T07:48:17Z</time></trkpt><trkpt lat="33.196470" lon="35.554778"><ele>531.063</ele><time>2014-01-17T07:48:21Z</time></trkpt><trkpt lat="33.196564" lon="35.554793"><ele>531.557</ele><time>2014-01-17T07:48:25Z</time></trkpt><trkpt lat="33.196660" lon="35.554840"><ele>533.855</ele><time>2014-01-17T07:48:30Z</time></trkpt><trkpt lat="33.196745" lon="35.554910"><ele>535.549</ele><time>2014-01-17T07:48:35Z</time></trkpt><trkpt lat="33.196829" lon="35.554954"><ele>537.049</ele><time>2014-01-17T07:48:39Z</time></trkpt><trkpt lat="33.196927" lon="35.554990"><ele>538.064</ele><time>2014-01-17T07:48:43Z</time></trkpt><trkpt lat="33.197031" lon="35.555008"><ele>538.871</ele><time>2014-01-17T07:48:47Z</time></trkpt><trkpt lat="33.197126" lon="35.555006"><ele>538.476</ele><time>2014-01-17T07:48:50Z</time></trkpt><trkpt lat="33.197220" lon="35.554993"><ele>538.190</ele><time>2014-01-17T07:48:53Z</time></trkpt><trkpt lat="33.197331" lon="35.554972"><ele>538.619</ele><time>2014-01-17T07:48:57Z</time></trkpt><trkpt lat="33.197435" lon="35.554923"><ele>540.107</ele><time>2014-01-17T07:49:01Z</time></trkpt><trkpt lat="33.197536" lon="35.554888"><ele>541.332</ele><time>2014-01-17T07:49:05Z</time></trkpt><trkpt lat="33.197654" lon="35.554868"><ele>543.326</ele><time>2014-01-17T07:49:10Z</time></trkpt><trkpt lat="33.197767" lon="35.554842"><ele>542.764</ele><time>2014-01-17T07:49:14Z</time></trkpt><trkpt lat="33.197889" lon="35.554817"><ele>543.188</ele><time>2014-01-17T07:49:18Z</time></trkpt><trkpt lat="33.197985" lon="35.554789"><ele>543.318</ele><time>2014-01-17T07:49:21Z</time></trkpt><trkpt lat="33.198087" lon="35.554768"><ele>543.713</ele><time>2014-01-17T07:49:25Z</time></trkpt><trkpt lat="33.198186" lon="35.554749"><ele>543.820</ele><time>2014-01-17T07:49:29Z</time></trkpt><trkpt lat="33.198288" lon="35.554723"><ele>543.383</ele><time>2014-01-17T07:49:33Z</time></trkpt><trkpt lat="33.198391" lon="35.554689"><ele>544.725</ele><time>2014-01-17T07:49:37Z</time></trkpt><trkpt lat="33.198488" lon="35.554644"><ele>545.517</ele><time>2014-01-17T07:49:40Z</time></trkpt><trkpt lat="33.198596" lon="35.554607"><ele>547.707</ele><time>2014-01-17T07:49:44Z</time></trkpt><trkpt lat="33.198688" lon="35.554579"><ele>548.133</ele><time>2014-01-17T07:49:47Z</time></trkpt><trkpt lat="33.198804" lon="35.554551"><ele>548.457</ele><time>2014-01-17T07:49:51Z</time></trkpt><trkpt lat="33.198901" lon="35.554545"><ele>548.595</ele><time>2014-01-17T07:49:55Z</time></trkpt><trkpt lat="33.198962" lon="35.554551"><ele>549.189</ele><time>2014-01-17T07:50:05Z</time></trkpt><trkpt lat="33.198962" lon="35.554551"><ele>549.199</ele><time>2014-01-17T07:50:45Z</time></trkpt><trkpt lat="33.198962" lon="35.554551"><ele>549.114</ele><time>2014-01-17T07:51:25Z</time></trkpt><trkpt lat="33.198962" lon="35.554551"><ele>549.161</ele><time>2014-01-17T07:52:05Z</time></trkpt><trkpt lat="33.198962" lon="35.554551"><ele>549.131</ele><time>2014-01-17T07:52:45Z</time></trkpt><trkpt lat="33.198962" lon="35.554551"><ele>549.161</ele><time>2014-01-17T07:53:25Z</time></trkpt><trkpt lat="33.198962" lon="35.554551"><ele>549.107</ele><time>2014-01-17T07:54:05Z</time></trkpt><trkpt lat="33.198962" lon="35.554551"><ele>549.107</ele><time>2014-01-17T07:54:45Z</time></trkpt><trkpt lat="33.198962" lon="35.554551"><ele>549.138</ele><time>2014-01-17T07:55:25Z</time></trkpt><trkpt lat="33.198962" lon="35.554551"><ele>549.142</ele><time>2014-01-17T07:56:05Z</time></trkpt><trkpt lat="33.198962" lon="35.554551"><ele>549.190</ele><time>2014-01-17T07:56:45Z</time></trkpt><trkpt lat="33.198962" lon="35.554551"><ele>549.124</ele><time>2014-01-17T07:57:25Z</time></trkpt><trkpt lat="33.198962" lon="35.554551"><ele>549.194</ele><time>2014-01-17T07:58:05Z</time></trkpt><trkpt lat="33.198962" lon="35.554551"><ele>549.129</ele><time>2014-01-17T07:58:45Z</time></trkpt><trkpt lat="33.198962" lon="35.554551"><ele>549.146</ele><time>2014-01-17T07:59:25Z</time></trkpt><trkpt lat="33.198962" lon="35.554551"><ele>549.198</ele><time>2014-01-17T08:00:05Z</time></trkpt><trkpt lat="33.198962" lon="35.554551"><ele>549.115</ele><time>2014-01-17T08:00:45Z</time></trkpt><trkpt lat="33.198962" lon="35.554551"><ele>549.126</ele><time>2014-01-17T08:01:25Z</time></trkpt><trkpt lat="33.198962" lon="35.554551"><ele>549.107</ele><time>2014-01-17T08:02:05Z</time></trkpt><trkpt lat="33.198962" lon="35.554551"><ele>549.134</ele><time>2014-01-17T08:02:45Z</time></trkpt><trkpt lat="33.198962" lon="35.554551"><ele>549.128</ele><time>2014-01-17T08:03:25Z</time></trkpt><trkpt lat="33.198962" lon="35.554551"><ele>549.136</ele><time>2014-01-17T08:04:05Z</time></trkpt><trkpt lat="33.198962" lon="35.554551"><ele>549.150</ele><time>2014-01-17T08:04:45Z</time></trkpt><trkpt lat="33.199134" lon="35.554514"><ele>551.370</ele><time>2014-01-17T08:05:13Z</time></trkpt><trkpt lat="33.199228" lon="35.554502"><ele>550.625</ele><time>2014-01-17T08:05:17Z</time></trkpt><trkpt lat="33.199330" lon="35.554498"><ele>550.072</ele><time>2014-01-17T08:05:20Z</time></trkpt><trkpt lat="33.199433" lon="35.554450"><ele>550.467</ele><time>2014-01-17T08:05:24Z</time></trkpt><trkpt lat="33.199547" lon="35.554416"><ele>551.181</ele><time>2014-01-17T08:05:28Z</time></trkpt><trkpt lat="33.199645" lon="35.554326"><ele>551.819</ele><time>2014-01-17T08:05:31Z</time></trkpt><trkpt lat="33.199705" lon="35.554243"><ele>552.407</ele><time>2014-01-17T08:05:33Z</time></trkpt><trkpt lat="33.199778" lon="35.554108"><ele>553.311</ele><time>2014-01-17T08:05:36Z</time></trkpt><trkpt lat="33.199847" lon="35.554005"><ele>553.955</ele><time>2014-01-17T08:05:38Z</time></trkpt><trkpt lat="33.199937" lon="35.553937"><ele>553.923</ele><time>2014-01-17T08:05:40Z</time></trkpt><trkpt lat="33.200063" lon="35.553904"><ele>553.747</ele><time>2014-01-17T08:05:42Z</time></trkpt><trkpt lat="33.200206" lon="35.553904"><ele>554.117</ele><time>2014-01-17T08:05:44Z</time></trkpt><trkpt lat="33.200354" lon="35.553936"><ele>554.632</ele><time>2014-01-17T08:05:46Z</time></trkpt><trkpt lat="33.200494" lon="35.553961"><ele>555.529</ele><time>2014-01-17T08:05:48Z</time></trkpt><trkpt lat="33.200615" lon="35.553997"><ele>556.231</ele><time>2014-01-17T08:05:50Z</time></trkpt><trkpt lat="33.200740" lon="35.554019"><ele>556.261</ele><time>2014-01-17T08:05:52Z</time></trkpt><trkpt lat="33.200865" lon="35.554050"><ele>556.207</ele><time>2014-01-17T08:05:54Z</time></trkpt><trkpt lat="33.200981" lon="35.554097"><ele>556.707</ele><time>2014-01-17T08:05:56Z</time></trkpt><trkpt lat="33.201100" lon="35.554138"><ele>557.618</ele><time>2014-01-17T08:05:58Z</time></trkpt><trkpt lat="33.201223" lon="35.554161"><ele>557.582</ele><time>2014-01-17T08:06:00Z</time></trkpt><trkpt lat="33.201352" lon="35.554171"><ele>557.870</ele><time>2014-01-17T08:06:02Z</time></trkpt><trkpt lat="33.201478" lon="35.554176"><ele>558.094</ele><time>2014-01-17T08:06:04Z</time></trkpt><trkpt lat="33.201619" lon="35.554173"><ele>558.084</ele><time>2014-01-17T08:06:06Z</time></trkpt><trkpt lat="33.201762" lon="35.554142"><ele>557.949</ele><time>2014-01-17T08:06:08Z</time></trkpt><trkpt lat="33.201902" lon="35.554093"><ele>557.126</ele><time>2014-01-17T08:06:10Z</time></trkpt><trkpt lat="33.202042" lon="35.554059"><ele>556.695</ele><time>2014-01-17T08:06:12Z</time></trkpt><trkpt lat="33.202185" lon="35.554046"><ele>556.949</ele><time>2014-01-17T08:06:14Z</time></trkpt><trkpt lat="33.202314" lon="35.554034"><ele>557.823</ele><time>2014-01-17T08:06:16Z</time></trkpt><trkpt lat="33.202433" lon="35.554028"><ele>558.907</ele><time>2014-01-17T08:06:18Z</time></trkpt><trkpt lat="33.202546" lon="35.554033"><ele>560.934</ele><time>2014-01-17T08:06:20Z</time></trkpt><trkpt lat="33.202661" lon="35.554005"><ele>561.678</ele><time>2014-01-17T08:06:22Z</time></trkpt><trkpt lat="33.202772" lon="35.553958"><ele>562.056</ele><time>2014-01-17T08:06:24Z</time></trkpt><trkpt lat="33.202869" lon="35.553898"><ele>561.970</ele><time>2014-01-17T08:06:26Z</time></trkpt><trkpt lat="33.202962" lon="35.553838"><ele>561.960</ele><time>2014-01-17T08:06:28Z</time></trkpt><trkpt lat="33.203054" lon="35.553785"><ele>561.825</ele><time>2014-01-17T08:06:30Z</time></trkpt><trkpt lat="33.203151" lon="35.553744"><ele>561.622</ele><time>2014-01-17T08:06:32Z</time></trkpt><trkpt lat="33.203241" lon="35.553713"><ele>561.514</ele><time>2014-01-17T08:06:34Z</time></trkpt><trkpt lat="33.203368" lon="35.553688"><ele>561.154</ele><time>2014-01-17T08:06:37Z</time></trkpt><trkpt lat="33.203491" lon="35.553653"><ele>560.409</ele><time>2014-01-17T08:06:40Z</time></trkpt><trkpt lat="33.203601" lon="35.553619"><ele>559.507</ele><time>2014-01-17T08:06:43Z</time></trkpt><trkpt lat="33.203702" lon="35.553594"><ele>558.366</ele><time>2014-01-17T08:06:46Z</time></trkpt><trkpt lat="33.203796" lon="35.553576"><ele>557.010</ele><time>2014-01-17T08:06:49Z</time></trkpt><trkpt lat="33.203899" lon="35.553553"><ele>556.218</ele><time>2014-01-17T08:06:52Z</time></trkpt><trkpt lat="33.203999" lon="35.553532"><ele>555.522</ele><time>2014-01-17T08:06:55Z</time></trkpt><trkpt lat="33.204106" lon="35.553505"><ele>555.382</ele><time>2014-01-17T08:06:58Z</time></trkpt><trkpt lat="33.204222" lon="35.553487"><ele>555.037</ele><time>2014-01-17T08:07:01Z</time></trkpt><trkpt lat="33.204327" lon="35.553447"><ele>555.424</ele><time>2014-01-17T08:07:04Z</time></trkpt><trkpt lat="33.204435" lon="35.553418"><ele>556.049</ele><time>2014-01-17T08:07:07Z</time></trkpt><trkpt lat="33.204551" lon="35.553365"><ele>556.602</ele><time>2014-01-17T08:07:10Z</time></trkpt><trkpt lat="33.204653" lon="35.553301"><ele>557.422</ele><time>2014-01-17T08:07:13Z</time></trkpt><trkpt lat="33.204759" lon="35.553230"><ele>557.807</ele><time>2014-01-17T08:07:16Z</time></trkpt><trkpt lat="33.204867" lon="35.553166"><ele>557.899</ele><time>2014-01-17T08:07:19Z</time></trkpt><trkpt lat="33.204969" lon="35.553107"><ele>557.953</ele><time>2014-01-17T08:07:22Z</time></trkpt><trkpt lat="33.205058" lon="35.553124"><ele>558.241</ele><time>2014-01-17T08:07:25Z</time></trkpt><trkpt lat="33.205160" lon="35.553134"><ele>558.985</ele><time>2014-01-17T08:07:29Z</time></trkpt><trkpt lat="33.205251" lon="35.553159"><ele>560.745</ele><time>2014-01-17T08:07:32Z</time></trkpt><trkpt lat="33.205347" lon="35.553177"><ele>561.730</ele><time>2014-01-17T08:07:35Z</time></trkpt><trkpt lat="33.205460" lon="35.553162"><ele>562.487</ele><time>2014-01-17T08:07:38Z</time></trkpt><trkpt lat="33.205566" lon="35.553103"><ele>562.529</ele><time>2014-01-17T08:07:41Z</time></trkpt><trkpt lat="33.205634" lon="35.552989"><ele>561.900</ele><time>2014-01-17T08:07:44Z</time></trkpt><trkpt lat="33.205720" lon="35.552879"><ele>562.120</ele><time>2014-01-17T08:07:47Z</time></trkpt><trkpt lat="33.205844" lon="35.552843"><ele>562.807</ele><time>2014-01-17T08:07:50Z</time></trkpt><trkpt lat="33.205968" lon="35.552816"><ele>563.317</ele><time>2014-01-17T08:07:53Z</time></trkpt><trkpt lat="33.206096" lon="35.552815"><ele>562.211</ele><time>2014-01-17T08:07:56Z</time></trkpt><trkpt lat="33.206222" lon="35.552813"><ele>562.759</ele><time>2014-01-17T08:07:59Z</time></trkpt><trkpt lat="33.206345" lon="35.552804"><ele>563.223</ele><time>2014-01-17T08:08:02Z</time></trkpt><trkpt lat="33.206464" lon="35.552785"><ele>563.893</ele><time>2014-01-17T08:08:05Z</time></trkpt><trkpt lat="33.206586" lon="35.552775"><ele>564.568</ele><time>2014-01-17T08:08:08Z</time></trkpt><trkpt lat="33.206693" lon="35.552758"><ele>564.495</ele><time>2014-01-17T08:08:11Z</time></trkpt><trkpt lat="33.206786" lon="35.552745"><ele>565.614</ele><time>2014-01-17T08:08:14Z</time></trkpt><trkpt lat="33.206895" lon="35.552751"><ele>566.754</ele><time>2014-01-17T08:08:18Z</time></trkpt><trkpt lat="33.206998" lon="35.552681"><ele>566.709</ele><time>2014-01-17T08:08:22Z</time></trkpt><trkpt lat="33.207060" lon="35.552602"><ele>567.007</ele><time>2014-01-17T08:08:25Z</time></trkpt><trkpt lat="33.207122" lon="35.552515"><ele>567.626</ele><time>2014-01-17T08:08:28Z</time></trkpt><trkpt lat="33.207184" lon="35.552435"><ele>568.090</ele><time>2014-01-17T08:08:31Z</time></trkpt><trkpt lat="33.207296" lon="35.552368"><ele>568.228</ele><time>2014-01-17T08:08:35Z</time></trkpt><trkpt lat="33.207382" lon="35.552314"><ele>568.682</ele><time>2014-01-17T08:08:38Z</time></trkpt><trkpt lat="33.207471" lon="35.552225"><ele>569.372</ele><time>2014-01-17T08:08:41Z</time></trkpt><trkpt lat="33.207556" lon="35.552154"><ele>570.017</ele><time>2014-01-17T08:08:44Z</time></trkpt><trkpt lat="33.207661" lon="35.552088"><ele>571.424</ele><time>2014-01-17T08:08:47Z</time></trkpt><trkpt lat="33.207747" lon="35.552038"><ele>572.675</ele><time>2014-01-17T08:08:51Z</time></trkpt><trkpt lat="33.207848" lon="35.551977"><ele>573.428</ele><time>2014-01-17T08:08:55Z</time></trkpt><trkpt lat="33.207927" lon="35.551909"><ele>573.520</ele><time>2014-01-17T08:08:58Z</time></trkpt><trkpt lat="33.208022" lon="35.551859"><ele>573.607</ele><time>2014-01-17T08:09:01Z</time></trkpt><trkpt lat="33.208125" lon="35.551806"><ele>573.662</ele><time>2014-01-17T08:09:04Z</time></trkpt><trkpt lat="33.208215" lon="35.551736"><ele>573.636</ele><time>2014-01-17T08:09:07Z</time></trkpt><trkpt lat="33.208303" lon="35.551680"><ele>574.424</ele><time>2014-01-17T08:09:10Z</time></trkpt><trkpt lat="33.208384" lon="35.551631"><ele>574.098</ele><time>2014-01-17T08:09:13Z</time></trkpt><trkpt lat="33.208476" lon="35.551589"><ele>574.348</ele><time>2014-01-17T08:09:17Z</time></trkpt><trkpt lat="33.208576" lon="35.551580"><ele>575.223</ele><time>2014-01-17T08:09:21Z</time></trkpt><trkpt lat="33.208696" lon="35.551572"><ele>574.650</ele><time>2014-01-17T08:09:25Z</time></trkpt><trkpt lat="33.208788" lon="35.551564"><ele>574.926</ele><time>2014-01-17T08:09:28Z</time></trkpt><trkpt lat="33.208886" lon="35.551551"><ele>574.447</ele><time>2014-01-17T08:09:31Z</time></trkpt><trkpt lat="33.208984" lon="35.551533"><ele>574.511</ele><time>2014-01-17T08:09:34Z</time></trkpt><trkpt lat="33.209082" lon="35.551512"><ele>574.707</ele><time>2014-01-17T08:09:37Z</time></trkpt><trkpt lat="33.209175" lon="35.551471"><ele>575.257</ele><time>2014-01-17T08:09:40Z</time></trkpt><trkpt lat="33.209255" lon="35.551399"><ele>575.521</ele><time>2014-01-17T08:09:43Z</time></trkpt><trkpt lat="33.209319" lon="35.551296"><ele>574.829</ele><time>2014-01-17T08:09:46Z</time></trkpt><trkpt lat="33.209417" lon="35.551230"><ele>575.293</ele><time>2014-01-17T08:09:49Z</time></trkpt><trkpt lat="33.209530" lon="35.551244"><ele>576.763</ele><time>2014-01-17T08:09:52Z</time></trkpt><trkpt lat="33.209628" lon="35.551308"><ele>578.738</ele><time>2014-01-17T08:09:55Z</time></trkpt><trkpt lat="33.209739" lon="35.551336"><ele>580.155</ele><time>2014-01-17T08:09:58Z</time></trkpt><trkpt lat="33.209867" lon="35.551341"><ele>580.897</ele><time>2014-01-17T08:10:01Z</time></trkpt><trkpt lat="33.209967" lon="35.551345"><ele>580.923</ele><time>2014-01-17T08:10:03Z</time></trkpt><trkpt lat="33.210079" lon="35.551356"><ele>580.725</ele><time>2014-01-17T08:10:05Z</time></trkpt><trkpt lat="33.210199" lon="35.551373"><ele>581.807</ele><time>2014-01-17T08:10:07Z</time></trkpt><trkpt lat="33.210320" lon="35.551398"><ele>582.434</ele><time>2014-01-17T08:10:09Z</time></trkpt><trkpt lat="33.210436" lon="35.551405"><ele>582.388</ele><time>2014-01-17T08:10:11Z</time></trkpt><trkpt lat="33.210556" lon="35.551405"><ele>582.256</ele><time>2014-01-17T08:10:13Z</time></trkpt><trkpt lat="33.210681" lon="35.551412"><ele>582.790</ele><time>2014-01-17T08:10:15Z</time></trkpt><trkpt lat="33.210806" lon="35.551415"><ele>583.680</ele><time>2014-01-17T08:10:17Z</time></trkpt><trkpt lat="33.210933" lon="35.551381"><ele>584.885</ele><time>2014-01-17T08:10:19Z</time></trkpt><trkpt lat="33.211046" lon="35.551346"><ele>585.542</ele><time>2014-01-17T08:10:21Z</time></trkpt><trkpt lat="33.211159" lon="35.551312"><ele>585.341</ele><time>2014-01-17T08:10:23Z</time></trkpt><trkpt lat="33.211277" lon="35.551297"><ele>584.481</ele><time>2014-01-17T08:10:25Z</time></trkpt><trkpt lat="33.211400" lon="35.551295"><ele>583.909</ele><time>2014-01-17T08:10:27Z</time></trkpt><trkpt lat="33.211514" lon="35.551272"><ele>583.807</ele><time>2014-01-17T08:10:29Z</time></trkpt><trkpt lat="33.211623" lon="35.551210"><ele>583.919</ele><time>2014-01-17T08:10:31Z</time></trkpt><trkpt lat="33.211715" lon="35.551119"><ele>584.163</ele><time>2014-01-17T08:10:33Z</time></trkpt><trkpt lat="33.211812" lon="35.551027"><ele>584.591</ele><time>2014-01-17T08:10:35Z</time></trkpt><trkpt lat="33.211911" lon="35.550935"><ele>584.195</ele><time>2014-01-17T08:10:37Z</time></trkpt><trkpt lat="33.212006" lon="35.550861"><ele>584.135</ele><time>2014-01-17T08:10:39Z</time></trkpt><trkpt lat="33.212099" lon="35.550798"><ele>584.410</ele><time>2014-01-17T08:10:41Z</time></trkpt><trkpt lat="33.212191" lon="35.550734"><ele>584.787</ele><time>2014-01-17T08:10:43Z</time></trkpt><trkpt lat="33.212301" lon="35.550655"><ele>585.575</ele><time>2014-01-17T08:10:46Z</time></trkpt><trkpt lat="33.212378" lon="35.550592"><ele>585.328</ele><time>2014-01-17T08:10:48Z</time></trkpt><trkpt lat="33.212454" lon="35.550533"><ele>585.520</ele><time>2014-01-17T08:10:50Z</time></trkpt><trkpt lat="33.212541" lon="35.550489"><ele>585.407</ele><time>2014-01-17T08:10:52Z</time></trkpt><trkpt lat="33.212623" lon="35.550440"><ele>585.362</ele><time>2014-01-17T08:10:54Z</time></trkpt><trkpt lat="33.212725" lon="35.550389"><ele>585.126</ele><time>2014-01-17T08:10:57Z</time></trkpt><trkpt lat="33.212818" lon="35.550325"><ele>585.544</ele><time>2014-01-17T08:11:00Z</time></trkpt><trkpt lat="33.212906" lon="35.550267"><ele>585.818</ele><time>2014-01-17T08:11:03Z</time></trkpt><trkpt lat="33.213010" lon="35.550212"><ele>586.768</ele><time>2014-01-17T08:11:07Z</time></trkpt><trkpt lat="33.213117" lon="35.550181"><ele>587.273</ele><time>2014-01-17T08:11:11Z</time></trkpt><trkpt lat="33.213216" lon="35.550169"><ele>588.260</ele><time>2014-01-17T08:11:14Z</time></trkpt><trkpt lat="33.213338" lon="35.550161"><ele>587.919</ele><time>2014-01-17T08:11:17Z</time></trkpt><trkpt lat="33.213452" lon="35.550149"><ele>588.309</ele><time>2014-01-17T08:11:20Z</time></trkpt><trkpt lat="33.213555" lon="35.550125"><ele>589.219</ele><time>2014-01-17T08:11:23Z</time></trkpt><trkpt lat="33.213676" lon="35.550110"><ele>589.807</ele><time>2014-01-17T08:11:26Z</time></trkpt><trkpt lat="33.213804" lon="35.550088"><ele>590.386</ele><time>2014-01-17T08:11:29Z</time></trkpt><trkpt lat="33.213936" lon="35.550089"><ele>591.560</ele><time>2014-01-17T08:11:32Z</time></trkpt><trkpt lat="33.214028" lon="35.550114"><ele>592.518</ele><time>2014-01-17T08:11:34Z</time></trkpt><trkpt lat="33.214126" lon="35.550135"><ele>593.392</ele><time>2014-01-17T08:11:36Z</time></trkpt><trkpt lat="33.214220" lon="35.550169"><ele>594.262</ele><time>2014-01-17T08:11:38Z</time></trkpt><trkpt lat="33.214327" lon="35.550219"><ele>594.647</ele><time>2014-01-17T08:11:40Z</time></trkpt><trkpt lat="33.214431" lon="35.550234"><ele>594.634</ele><time>2014-01-17T08:11:42Z</time></trkpt><trkpt lat="33.214531" lon="35.550223"><ele>594.548</ele><time>2014-01-17T08:11:44Z</time></trkpt><trkpt lat="33.214659" lon="35.550207"><ele>594.061</ele><time>2014-01-17T08:11:47Z</time></trkpt><trkpt lat="33.214768" lon="35.550175"><ele>593.917</ele><time>2014-01-17T08:11:50Z</time></trkpt><trkpt lat="33.214856" lon="35.550135"><ele>594.207</ele><time>2014-01-17T08:11:53Z</time></trkpt><trkpt lat="33.214954" lon="35.550084"><ele>595.059</ele><time>2014-01-17T08:11:57Z</time></trkpt><trkpt lat="33.215051" lon="35.550043"><ele>594.523</ele><time>2014-01-17T08:12:00Z</time></trkpt><trkpt lat="33.215145" lon="35.550016"><ele>594.521</ele><time>2014-01-17T08:12:03Z</time></trkpt><trkpt lat="33.215247" lon="35.549979"><ele>594.775</ele><time>2014-01-17T08:12:06Z</time></trkpt><trkpt lat="33.215339" lon="35.549944"><ele>595.765</ele><time>2014-01-17T08:12:09Z</time></trkpt><trkpt lat="33.215427" lon="35.549909"><ele>596.140</ele><time>2014-01-17T08:12:12Z</time></trkpt><trkpt lat="33.215542" lon="35.549857"><ele>597.317</ele><time>2014-01-17T08:12:16Z</time></trkpt><trkpt lat="33.215638" lon="35.549822"><ele>598.262</ele><time>2014-01-17T08:12:19Z</time></trkpt><trkpt lat="33.215730" lon="35.549776"><ele>598.883</ele><time>2014-01-17T08:12:22Z</time></trkpt><trkpt lat="33.215821" lon="35.549733"><ele>599.411</ele><time>2014-01-17T08:12:25Z</time></trkpt><trkpt lat="33.215912" lon="35.549681"><ele>599.607</ele><time>2014-01-17T08:12:28Z</time></trkpt><trkpt lat="33.216005" lon="35.549620"><ele>600.411</ele><time>2014-01-17T08:12:31Z</time></trkpt><trkpt lat="33.216078" lon="35.549537"><ele>601.655</ele><time>2014-01-17T08:12:34Z</time></trkpt><trkpt lat="33.216124" lon="35.549442"><ele>603.233</ele><time>2014-01-17T08:12:37Z</time></trkpt><trkpt lat="33.216149" lon="35.549318"><ele>604.747</ele><time>2014-01-17T08:12:42Z</time></trkpt><trkpt lat="33.216147" lon="35.549193"><ele>606.847</ele><time>2014-01-17T08:12:48Z</time></trkpt><trkpt lat="33.216141" lon="35.549068"><ele>609.842</ele><time>2014-01-17T08:12:55Z</time></trkpt><trkpt lat="33.216174" lon="35.548949"><ele>611.139</ele><time>2014-01-17T08:13:02Z</time></trkpt><trkpt lat="33.216204" lon="35.548839"><ele>611.792</ele><time>2014-01-17T08:13:07Z</time></trkpt><trkpt lat="33.216250" lon="35.548740"><ele>611.973</ele><time>2014-01-17T08:13:12Z</time></trkpt><trkpt lat="33.216306" lon="35.548640"><ele>612.820</ele><time>2014-01-17T08:13:18Z</time></trkpt><trkpt lat="33.216369" lon="35.548549"><ele>613.607</ele><time>2014-01-17T08:13:23Z</time></trkpt><trkpt lat="33.216438" lon="35.548457"><ele>614.234</ele><time>2014-01-17T08:13:27Z</time></trkpt><trkpt lat="33.216502" lon="35.548377"><ele>614.748</ele><time>2014-01-17T08:13:30Z</time></trkpt><trkpt lat="33.216563" lon="35.548257"><ele>614.556</ele><time>2014-01-17T08:13:33Z</time></trkpt><trkpt lat="33.216611" lon="35.548157"><ele>614.540</ele><time>2014-01-17T08:13:35Z</time></trkpt><trkpt lat="33.216677" lon="35.548023"><ele>615.310</ele><time>2014-01-17T08:13:38Z</time></trkpt><trkpt lat="33.216799" lon="35.547979"><ele>615.875</ele><time>2014-01-17T08:13:41Z</time></trkpt><trkpt lat="33.216907" lon="35.548014"><ele>616.852</ele><time>2014-01-17T08:13:45Z</time></trkpt><trkpt lat="33.217019" lon="35.548054"><ele>617.771</ele><time>2014-01-17T08:13:49Z</time></trkpt><trkpt lat="33.217120" lon="35.548084"><ele>617.941</ele><time>2014-01-17T08:13:52Z</time></trkpt><trkpt lat="33.217212" lon="35.548128"><ele>617.915</ele><time>2014-01-17T08:13:55Z</time></trkpt><trkpt lat="33.217310" lon="35.548169"><ele>618.907</ele><time>2014-01-17T08:13:59Z</time></trkpt><trkpt lat="33.217407" lon="35.548199"><ele>621.072</ele><time>2014-01-17T08:14:02Z</time></trkpt><trkpt lat="33.217505" lon="35.548248"><ele>623.146</ele><time>2014-01-17T08:14:05Z</time></trkpt><trkpt lat="33.217603" lon="35.548263"><ele>623.714</ele><time>2014-01-17T08:14:08Z</time></trkpt><trkpt lat="33.217703" lon="35.548253"><ele>624.188</ele><time>2014-01-17T08:14:11Z</time></trkpt><trkpt lat="33.217799" lon="35.548244"><ele>625.758</ele><time>2014-01-17T08:14:14Z</time></trkpt><trkpt lat="33.217906" lon="35.548223"><ele>627.073</ele><time>2014-01-17T08:14:18Z</time></trkpt><trkpt lat="33.218004" lon="35.548204"><ele>626.910</ele><time>2014-01-17T08:14:22Z</time></trkpt><trkpt lat="33.218102" lon="35.548170"><ele>626.972</ele><time>2014-01-17T08:14:26Z</time></trkpt><trkpt lat="33.218206" lon="35.548115"><ele>627.313</ele><time>2014-01-17T08:14:30Z</time></trkpt><trkpt lat="33.218285" lon="35.548063"><ele>627.114</ele><time>2014-01-17T08:14:33Z</time></trkpt><trkpt lat="33.218383" lon="35.548037"><ele>627.307</ele><time>2014-01-17T08:14:37Z</time></trkpt><trkpt lat="33.218516" lon="35.548045"><ele>627.542</ele><time>2014-01-17T08:14:40Z</time></trkpt><trkpt lat="33.218618" lon="35.548009"><ele>627.376</ele><time>2014-01-17T08:14:42Z</time></trkpt><trkpt lat="33.218724" lon="35.547972"><ele>627.324</ele><time>2014-01-17T08:14:45Z</time></trkpt><trkpt lat="33.218819" lon="35.547981"><ele>627.348</ele><time>2014-01-17T08:14:48Z</time></trkpt><trkpt lat="33.218915" lon="35.548002"><ele>627.398</ele><time>2014-01-17T08:14:50Z</time></trkpt><trkpt lat="33.219015" lon="35.548055"><ele>626.623</ele><time>2014-01-17T08:14:53Z</time></trkpt><trkpt lat="33.218950" lon="35.548131"><ele>625.750</ele><time>2014-01-17T08:14:56Z</time></trkpt><trkpt lat="33.218852" lon="35.548140"><ele>625.289</ele><time>2014-01-17T08:14:58Z</time></trkpt><trkpt lat="33.218760" lon="35.548202"><ele>625.306</ele><time>2014-01-17T08:15:00Z</time></trkpt><trkpt lat="33.218668" lon="35.548254"><ele>625.126</ele><time>2014-01-17T08:15:02Z</time></trkpt><trkpt lat="33.218597" lon="35.548349"><ele>623.307</ele><time>2014-01-17T08:15:06Z</time></trkpt><trkpt lat="33.218658" lon="35.548461"><ele>620.143</ele><time>2014-01-17T08:15:11Z</time></trkpt><trkpt lat="33.218667" lon="35.548607"><ele>620.237</ele><time>2014-01-17T08:15:14Z</time></trkpt><trkpt lat="33.218660" lon="35.548730"><ele>619.985</ele><time>2014-01-17T08:15:17Z</time></trkpt><trkpt lat="33.218696" lon="35.548862"><ele>617.889</ele><time>2014-01-17T08:15:20Z</time></trkpt><trkpt lat="33.218635" lon="35.548951"><ele>614.519</ele><time>2014-01-17T08:15:24Z</time></trkpt><trkpt lat="33.218568" lon="35.549084"><ele>613.254</ele><time>2014-01-17T08:15:27Z</time></trkpt><trkpt lat="33.218570" lon="35.549211"><ele>612.571</ele><time>2014-01-17T08:15:29Z</time></trkpt><trkpt lat="33.218560" lon="35.549319"><ele>611.221</ele><time>2014-01-17T08:15:31Z</time></trkpt><trkpt lat="33.218598" lon="35.549472"><ele>609.041</ele><time>2014-01-17T08:15:34Z</time></trkpt><trkpt lat="33.218705" lon="35.549584"><ele>606.405</ele><time>2014-01-17T08:15:36Z</time></trkpt><trkpt lat="33.218816" lon="35.549632"><ele>604.907</ele><time>2014-01-17T08:15:38Z</time></trkpt><trkpt lat="33.218905" lon="35.549666"><ele>603.787</ele><time>2014-01-17T08:15:40Z</time></trkpt><trkpt lat="33.218997" lon="35.549703"><ele>602.661</ele><time>2014-01-17T08:15:42Z</time></trkpt><trkpt lat="33.219103" lon="35.549750"><ele>602.149</ele><time>2014-01-17T08:15:45Z</time></trkpt><trkpt lat="33.219211" lon="35.549799"><ele>602.043</ele><time>2014-01-17T08:15:48Z</time></trkpt><trkpt lat="33.219319" lon="35.549841"><ele>601.863</ele><time>2014-01-17T08:15:51Z</time></trkpt><trkpt lat="33.219443" lon="35.549876"><ele>601.658</ele><time>2014-01-17T08:15:54Z</time></trkpt><trkpt lat="33.219542" lon="35.549908"><ele>601.655</ele><time>2014-01-17T08:15:56Z</time></trkpt><trkpt lat="33.219645" lon="35.549932"><ele>601.729</ele><time>2014-01-17T08:15:58Z</time></trkpt><trkpt lat="33.219724" lon="35.549993"><ele>601.500</ele><time>2014-01-17T08:16:00Z</time></trkpt><trkpt lat="33.219604" lon="35.550033"><ele>600.820</ele><time>2014-01-17T08:16:05Z</time></trkpt><trkpt lat="33.219491" lon="35.549991"><ele>600.607</ele><time>2014-01-17T08:16:07Z</time></trkpt><trkpt lat="33.219382" lon="35.549961"><ele>600.357</ele><time>2014-01-17T08:16:09Z</time></trkpt><trkpt lat="33.219277" lon="35.549931"><ele>600.011</ele><time>2014-01-17T08:16:11Z</time></trkpt><trkpt lat="33.219171" lon="35.549920"><ele>599.799</ele><time>2014-01-17T08:16:13Z</time></trkpt><trkpt lat="33.219028" lon="35.549901"><ele>598.583</ele><time>2014-01-17T08:16:15Z</time></trkpt><trkpt lat="33.218882" lon="35.549855"><ele>597.313</ele><time>2014-01-17T08:16:17Z</time></trkpt><trkpt lat="33.218757" lon="35.549799"><ele>596.848</ele><time>2014-01-17T08:16:19Z</time></trkpt><trkpt lat="33.218660" lon="35.549749"><ele>596.745</ele><time>2014-01-17T08:16:21Z</time></trkpt><trkpt lat="33.218570" lon="35.549818"><ele>595.656</ele><time>2014-01-17T08:16:24Z</time></trkpt><trkpt lat="33.218614" lon="35.549945"><ele>594.559</ele><time>2014-01-17T08:16:26Z</time></trkpt><trkpt lat="33.218720" lon="35.550022"><ele>593.214</ele><time>2014-01-17T08:16:28Z</time></trkpt><trkpt lat="33.218841" lon="35.550080"><ele>592.307</ele><time>2014-01-17T08:16:30Z</time></trkpt><trkpt lat="33.218960" lon="35.550130"><ele>591.660</ele><time>2014-01-17T08:16:32Z</time></trkpt><trkpt lat="33.219067" lon="35.550161"><ele>591.274</ele><time>2014-01-17T08:16:34Z</time></trkpt><trkpt lat="33.219173" lon="35.550180"><ele>590.642</ele><time>2014-01-17T08:16:36Z</time></trkpt><trkpt lat="33.219295" lon="35.550216"><ele>589.716</ele><time>2014-01-17T08:16:38Z</time></trkpt><trkpt lat="33.219402" lon="35.550249"><ele>589.316</ele><time>2014-01-17T08:16:40Z</time></trkpt><trkpt lat="33.219332" lon="35.550336"><ele>588.661</ele><time>2014-01-17T08:16:45Z</time></trkpt><trkpt lat="33.219213" lon="35.550308"><ele>588.588</ele><time>2014-01-17T08:16:47Z</time></trkpt><trkpt lat="33.219107" lon="35.550279"><ele>587.831</ele><time>2014-01-17T08:16:49Z</time></trkpt><trkpt lat="33.218986" lon="35.550283"><ele>586.061</ele><time>2014-01-17T08:16:51Z</time></trkpt><trkpt lat="33.218868" lon="35.550281"><ele>584.207</ele><time>2014-01-17T08:16:53Z</time></trkpt><trkpt lat="33.218736" lon="35.550271"><ele>583.407</ele><time>2014-01-17T08:16:55Z</time></trkpt><trkpt lat="33.218616" lon="35.550271"><ele>582.658</ele><time>2014-01-17T08:16:57Z</time></trkpt><trkpt lat="33.218520" lon="35.550289"><ele>581.552</ele><time>2014-01-17T08:16:59Z</time></trkpt><trkpt lat="33.218477" lon="35.550408"><ele>579.940</ele><time>2014-01-17T08:17:02Z</time></trkpt><trkpt lat="33.218570" lon="35.550470"><ele>578.834</ele><time>2014-01-17T08:17:04Z</time></trkpt><trkpt lat="33.218690" lon="35.550536"><ele>578.264</ele><time>2014-01-17T08:17:06Z</time></trkpt><trkpt lat="33.218811" lon="35.550608"><ele>576.929</ele><time>2014-01-17T08:17:08Z</time></trkpt><trkpt lat="33.218921" lon="35.550657"><ele>575.886</ele><time>2014-01-17T08:17:10Z</time></trkpt><trkpt lat="33.219018" lon="35.550683"><ele>574.839</ele><time>2014-01-17T08:17:12Z</time></trkpt><trkpt lat="33.219063" lon="35.550779"><ele>573.801</ele><time>2014-01-17T08:17:15Z</time></trkpt><trkpt lat="33.218939" lon="35.550802"><ele>571.421</ele><time>2014-01-17T08:17:19Z</time></trkpt><trkpt lat="33.218845" lon="35.550797"><ele>571.407</ele><time>2014-01-17T08:17:21Z</time></trkpt><trkpt lat="33.218870" lon="35.550952"><ele>570.488</ele><time>2014-01-17T08:17:24Z</time></trkpt><trkpt lat="33.218793" lon="35.551029"><ele>568.432</ele><time>2014-01-17T08:17:29Z</time></trkpt><trkpt lat="33.218699" lon="35.550982"><ele>568.150</ele><time>2014-01-17T08:17:31Z</time></trkpt><trkpt lat="33.218622" lon="35.550908"><ele>567.894</ele><time>2014-01-17T08:17:33Z</time></trkpt><trkpt lat="33.218548" lon="35.550783"><ele>567.124</ele><time>2014-01-17T08:17:36Z</time></trkpt><trkpt lat="33.218455" lon="35.550769"><ele>566.059</ele><time>2014-01-17T08:17:39Z</time></trkpt><trkpt lat="33.218457" lon="35.550935"><ele>565.286</ele><time>2014-01-17T08:17:42Z</time></trkpt><trkpt lat="33.218493" lon="35.551050"><ele>564.555</ele><time>2014-01-17T08:17:44Z</time></trkpt><trkpt lat="33.218532" lon="35.551175"><ele>563.507</ele><time>2014-01-17T08:17:46Z</time></trkpt><trkpt lat="33.218571" lon="35.551286"><ele>563.117</ele><time>2014-01-17T08:17:48Z</time></trkpt><trkpt lat="33.218616" lon="35.551428"><ele>561.507</ele><time>2014-01-17T08:17:50Z</time></trkpt><trkpt lat="33.218643" lon="35.551563"><ele>560.530</ele><time>2014-01-17T08:17:52Z</time></trkpt><trkpt lat="33.218688" lon="35.551698"><ele>559.854</ele><time>2014-01-17T08:17:54Z</time></trkpt><trkpt lat="33.218712" lon="35.551844"><ele>559.092</ele><time>2014-01-17T08:17:56Z</time></trkpt><trkpt lat="33.218720" lon="35.552021"><ele>558.166</ele><time>2014-01-17T08:17:58Z</time></trkpt><trkpt lat="33.218749" lon="35.552184"><ele>556.646</ele><time>2014-01-17T08:18:00Z</time></trkpt><trkpt lat="33.218815" lon="35.552323"><ele>553.841</ele><time>2014-01-17T08:18:02Z</time></trkpt><trkpt lat="33.218888" lon="35.552429"><ele>551.598</ele><time>2014-01-17T08:18:04Z</time></trkpt><trkpt lat="33.218983" lon="35.552546"><ele>549.021</ele><time>2014-01-17T08:18:06Z</time></trkpt><trkpt lat="33.219084" lon="35.552644"><ele>546.941</ele><time>2014-01-17T08:18:08Z</time></trkpt><trkpt lat="33.219181" lon="35.552736"><ele>545.105</ele><time>2014-01-17T08:18:10Z</time></trkpt><trkpt lat="33.219266" lon="35.552832"><ele>543.207</ele><time>2014-01-17T08:18:12Z</time></trkpt><trkpt lat="33.219349" lon="35.552944"><ele>540.587</ele><time>2014-01-17T08:18:14Z</time></trkpt><trkpt lat="33.219448" lon="35.553034"><ele>538.191</ele><time>2014-01-17T08:18:16Z</time></trkpt><trkpt lat="33.219554" lon="35.553102"><ele>536.079</ele><time>2014-01-17T08:18:18Z</time></trkpt><trkpt lat="33.219643" lon="35.553171"><ele>534.013</ele><time>2014-01-17T08:18:20Z</time></trkpt><trkpt lat="33.219713" lon="35.553256"><ele>532.233</ele><time>2014-01-17T08:18:22Z</time></trkpt><trkpt lat="33.219789" lon="35.553339"><ele>530.358</ele><time>2014-01-17T08:18:24Z</time></trkpt><trkpt lat="33.219802" lon="35.553471"><ele>529.615</ele><time>2014-01-17T08:18:28Z</time></trkpt><trkpt lat="33.219750" lon="35.553587"><ele>528.776</ele><time>2014-01-17T08:18:31Z</time></trkpt><trkpt lat="33.219710" lon="35.553698"><ele>528.090</ele><time>2014-01-17T08:18:33Z</time></trkpt><trkpt lat="33.219696" lon="35.553817"><ele>527.719</ele><time>2014-01-17T08:18:35Z</time></trkpt><trkpt lat="33.219690" lon="35.553952"><ele>528.007</ele><time>2014-01-17T08:18:38Z</time></trkpt><trkpt lat="33.219680" lon="35.554061"><ele>527.942</ele><time>2014-01-17T08:18:41Z</time></trkpt><trkpt lat="33.219639" lon="35.554159"><ele>527.996</ele><time>2014-01-17T08:18:43Z</time></trkpt><trkpt lat="33.219612" lon="35.554269"><ele>528.454</ele><time>2014-01-17T08:18:45Z</time></trkpt><trkpt lat="33.219619" lon="35.554387"><ele>527.858</ele><time>2014-01-17T08:18:47Z</time></trkpt><trkpt lat="33.219606" lon="35.554532"><ele>527.248</ele><time>2014-01-17T08:18:50Z</time></trkpt><trkpt lat="33.219540" lon="35.554627"><ele>527.193</ele><time>2014-01-17T08:18:52Z</time></trkpt><trkpt lat="33.219494" lon="35.554761"><ele>527.260</ele><time>2014-01-17T08:18:54Z</time></trkpt><trkpt lat="33.219470" lon="35.554887"><ele>527.296</ele><time>2014-01-17T08:18:56Z</time></trkpt><trkpt lat="33.219380" lon="35.554907"><ele>523.731</ele><time>2014-01-17T08:19:01Z</time></trkpt><trkpt lat="33.219370" lon="35.554774"><ele>523.424</ele><time>2014-01-17T08:19:04Z</time></trkpt><trkpt lat="33.219419" lon="35.554660"><ele>522.407</ele><time>2014-01-17T08:19:07Z</time></trkpt><trkpt lat="33.219464" lon="35.554521"><ele>522.694</ele><time>2014-01-17T08:19:10Z</time></trkpt><trkpt lat="33.219482" lon="35.554386"><ele>523.048</ele><time>2014-01-17T08:19:12Z</time></trkpt><trkpt lat="33.219514" lon="35.554270"><ele>523.046</ele><time>2014-01-17T08:19:14Z</time></trkpt><trkpt lat="33.219529" lon="35.554164"><ele>523.380</ele><time>2014-01-17T08:19:16Z</time></trkpt><trkpt lat="33.219491" lon="35.554066"><ele>522.970</ele><time>2014-01-17T08:19:18Z</time></trkpt><trkpt lat="33.219360" lon="35.554021"><ele>520.895</ele><time>2014-01-17T08:19:21Z</time></trkpt><trkpt lat="33.219269" lon="35.554079"><ele>519.492</ele><time>2014-01-17T08:19:23Z</time></trkpt><trkpt lat="33.219143" lon="35.554150"><ele>518.036</ele><time>2014-01-17T08:19:26Z</time></trkpt><trkpt lat="33.219052" lon="35.554216"><ele>517.117</ele><time>2014-01-17T08:19:28Z</time></trkpt><trkpt lat="33.218943" lon="35.554295"><ele>516.018</ele><time>2014-01-17T08:19:31Z</time></trkpt><trkpt lat="33.218835" lon="35.554345"><ele>514.107</ele><time>2014-01-17T08:19:33Z</time></trkpt><trkpt lat="33.218730" lon="35.554417"><ele>513.758</ele><time>2014-01-17T08:19:35Z</time></trkpt><trkpt lat="33.218637" lon="35.554501"><ele>513.542</ele><time>2014-01-17T08:19:37Z</time></trkpt><trkpt lat="33.218573" lon="35.554593"><ele>513.850</ele><time>2014-01-17T08:19:39Z</time></trkpt><trkpt lat="33.218490" lon="35.554707"><ele>513.424</ele><time>2014-01-17T08:19:42Z</time></trkpt><trkpt lat="33.218416" lon="35.554814"><ele>513.884</ele><time>2014-01-17T08:19:46Z</time></trkpt><trkpt lat="33.218322" lon="35.554870"><ele>512.279</ele><time>2014-01-17T08:19:50Z</time></trkpt><trkpt lat="33.218206" lon="35.554894"><ele>511.536</ele><time>2014-01-17T08:19:53Z</time></trkpt><trkpt lat="33.218099" lon="35.554984"><ele>511.663</ele><time>2014-01-17T08:19:56Z</time></trkpt><trkpt lat="33.218007" lon="35.555031"><ele>511.044</ele><time>2014-01-17T08:19:58Z</time></trkpt><trkpt lat="33.217921" lon="35.555103"><ele>510.818</ele><time>2014-01-17T08:20:00Z</time></trkpt><trkpt lat="33.217862" lon="35.555214"><ele>510.407</ele><time>2014-01-17T08:20:02Z</time></trkpt><trkpt lat="33.217817" lon="35.555332"><ele>509.731</ele><time>2014-01-17T08:20:04Z</time></trkpt><trkpt lat="33.217815" lon="35.555463"><ele>508.995</ele><time>2014-01-17T08:20:06Z</time></trkpt><trkpt lat="33.217832" lon="35.555587"><ele>508.493</ele><time>2014-01-17T08:20:08Z</time></trkpt><trkpt lat="33.217882" lon="35.555713"><ele>507.117</ele><time>2014-01-17T08:20:10Z</time></trkpt><trkpt lat="33.217973" lon="35.555836"><ele>505.367</ele><time>2014-01-17T08:20:12Z</time></trkpt><trkpt lat="33.218093" lon="35.555938"><ele>503.022</ele><time>2014-01-17T08:20:14Z</time></trkpt><trkpt lat="33.218209" lon="35.556034"><ele>501.559</ele><time>2014-01-17T08:20:16Z</time></trkpt><trkpt lat="33.218318" lon="35.556139"><ele>499.686</ele><time>2014-01-17T08:20:18Z</time></trkpt><trkpt lat="33.218418" lon="35.556228"><ele>498.360</ele><time>2014-01-17T08:20:20Z</time></trkpt><trkpt lat="33.218513" lon="35.556328"><ele>497.026</ele><time>2014-01-17T08:20:22Z</time></trkpt><trkpt lat="33.218616" lon="35.556414"><ele>496.507</ele><time>2014-01-17T08:20:24Z</time></trkpt><trkpt lat="33.218710" lon="35.556486"><ele>495.743</ele><time>2014-01-17T08:20:26Z</time></trkpt><trkpt lat="33.218797" lon="35.556545"><ele>495.217</ele><time>2014-01-17T08:20:28Z</time></trkpt><trkpt lat="33.218907" lon="35.556633"><ele>494.515</ele><time>2014-01-17T08:20:31Z</time></trkpt><trkpt lat="33.219008" lon="35.556678"><ele>494.099</ele><time>2014-01-17T08:20:33Z</time></trkpt><trkpt lat="33.219121" lon="35.556706"><ele>493.829</ele><time>2014-01-17T08:20:35Z</time></trkpt><trkpt lat="33.219228" lon="35.556743"><ele>493.794</ele><time>2014-01-17T08:20:37Z</time></trkpt><trkpt lat="33.219332" lon="35.556786"><ele>493.481</ele><time>2014-01-17T08:20:39Z</time></trkpt><trkpt lat="33.219427" lon="35.556850"><ele>492.966</ele><time>2014-01-17T08:20:41Z</time></trkpt><trkpt lat="33.219530" lon="35.556911"><ele>492.329</ele><time>2014-01-17T08:20:43Z</time></trkpt><trkpt lat="33.219630" lon="35.556966"><ele>491.721</ele><time>2014-01-17T08:20:45Z</time></trkpt><trkpt lat="33.219722" lon="35.557020"><ele>491.407</ele><time>2014-01-17T08:20:47Z</time></trkpt><trkpt lat="33.219815" lon="35.557055"><ele>491.181</ele><time>2014-01-17T08:20:49Z</time></trkpt><trkpt lat="33.219913" lon="35.557071"><ele>491.215</ele><time>2014-01-17T08:20:51Z</time></trkpt><trkpt lat="33.220034" lon="35.557078"><ele>491.893</ele><time>2014-01-17T08:20:54Z</time></trkpt><trkpt lat="33.220132" lon="35.557105"><ele>491.687</ele><time>2014-01-17T08:20:58Z</time></trkpt><trkpt lat="33.220224" lon="35.557153"><ele>491.677</ele><time>2014-01-17T08:21:01Z</time></trkpt><trkpt lat="33.220322" lon="35.557168"><ele>491.772</ele><time>2014-01-17T08:21:04Z</time></trkpt><trkpt lat="33.220418" lon="35.557216"><ele>491.629</ele><time>2014-01-17T08:21:08Z</time></trkpt><trkpt lat="33.220503" lon="35.557291"><ele>491.316</ele><time>2014-01-17T08:21:11Z</time></trkpt><trkpt lat="33.220587" lon="35.557363"><ele>491.276</ele><time>2014-01-17T08:21:14Z</time></trkpt><trkpt lat="33.220649" lon="35.557450"><ele>491.213</ele><time>2014-01-17T08:21:17Z</time></trkpt><trkpt lat="33.220751" lon="35.557520"><ele>491.307</ele><time>2014-01-17T08:21:20Z</time></trkpt><trkpt lat="33.220865" lon="35.557543"><ele>491.876</ele><time>2014-01-17T08:21:23Z</time></trkpt><trkpt lat="33.220975" lon="35.557564"><ele>492.210</ele><time>2014-01-17T08:21:26Z</time></trkpt><trkpt lat="33.221097" lon="35.557567"><ele>492.538</ele><time>2014-01-17T08:21:29Z</time></trkpt><trkpt lat="33.221209" lon="35.557557"><ele>492.732</ele><time>2014-01-17T08:21:32Z</time></trkpt><trkpt lat="33.221310" lon="35.557569"><ele>493.032</ele><time>2014-01-17T08:21:35Z</time></trkpt><trkpt lat="33.221413" lon="35.557614"><ele>493.397</ele><time>2014-01-17T08:21:38Z</time></trkpt><trkpt lat="33.221511" lon="35.557682"><ele>493.214</ele><time>2014-01-17T08:21:41Z</time></trkpt><trkpt lat="33.221641" lon="35.557727"><ele>493.077</ele><time>2014-01-17T08:21:44Z</time></trkpt><trkpt lat="33.221731" lon="35.557759"><ele>492.761</ele><time>2014-01-17T08:21:46Z</time></trkpt><trkpt lat="33.221821" lon="35.557811"><ele>492.127</ele><time>2014-01-17T08:21:48Z</time></trkpt><trkpt lat="33.221930" lon="35.557848"><ele>491.907</ele><time>2014-01-17T08:21:50Z</time></trkpt><trkpt lat="33.222036" lon="35.557864"><ele>491.742</ele><time>2014-01-17T08:21:52Z</time></trkpt><trkpt lat="33.222127" lon="35.557877"><ele>492.076</ele><time>2014-01-17T08:21:54Z</time></trkpt><trkpt lat="33.222240" lon="35.557943"><ele>491.984</ele><time>2014-01-17T08:21:57Z</time></trkpt><trkpt lat="33.222324" lon="35.558016"><ele>491.868</ele><time>2014-01-17T08:21:59Z</time></trkpt><trkpt lat="33.222424" lon="35.558092"><ele>491.638</ele><time>2014-01-17T08:22:01Z</time></trkpt><trkpt lat="33.222507" lon="35.558160"><ele>491.833</ele><time>2014-01-17T08:22:03Z</time></trkpt><trkpt lat="33.222584" lon="35.558242"><ele>491.590</ele><time>2014-01-17T08:22:05Z</time></trkpt><trkpt lat="33.222675" lon="35.558304"><ele>491.542</ele><time>2014-01-17T08:22:07Z</time></trkpt><trkpt lat="33.222791" lon="35.558341"><ele>491.222</ele><time>2014-01-17T08:22:09Z</time></trkpt><trkpt lat="33.222897" lon="35.558354"><ele>491.014</ele><time>2014-01-17T08:22:11Z</time></trkpt><trkpt lat="33.223024" lon="35.558380"><ele>490.707</ele><time>2014-01-17T08:22:14Z</time></trkpt><trkpt lat="33.223132" lon="35.558407"><ele>491.489</ele><time>2014-01-17T08:22:17Z</time></trkpt><trkpt lat="33.223259" lon="35.558441"><ele>492.433</ele><time>2014-01-17T08:22:20Z</time></trkpt><trkpt lat="33.223350" lon="35.558475"><ele>492.881</ele><time>2014-01-17T08:22:22Z</time></trkpt><trkpt lat="33.223436" lon="35.558513"><ele>493.165</ele><time>2014-01-17T08:22:24Z</time></trkpt><trkpt lat="33.223528" lon="35.558540"><ele>493.525</ele><time>2014-01-17T08:22:26Z</time></trkpt><trkpt lat="33.223648" lon="35.558563"><ele>493.540</ele><time>2014-01-17T08:22:29Z</time></trkpt><trkpt lat="33.223753" lon="35.558577"><ele>493.337</ele><time>2014-01-17T08:22:32Z</time></trkpt><trkpt lat="33.223864" lon="35.558603"><ele>493.475</ele><time>2014-01-17T08:22:35Z</time></trkpt><trkpt lat="33.223960" lon="35.558639"><ele>493.828</ele><time>2014-01-17T08:22:38Z</time></trkpt><trkpt lat="33.224057" lon="35.558668"><ele>494.120</ele><time>2014-01-17T08:22:41Z</time></trkpt><trkpt lat="33.224162" lon="35.558708"><ele>494.307</ele><time>2014-01-17T08:22:44Z</time></trkpt><trkpt lat="33.224279" lon="35.558792"><ele>494.072</ele><time>2014-01-17T08:22:47Z</time></trkpt><trkpt lat="33.224365" lon="35.558831"><ele>494.046</ele><time>2014-01-17T08:22:49Z</time></trkpt><trkpt lat="33.224490" lon="35.558858"><ele>494.174</ele><time>2014-01-17T08:22:52Z</time></trkpt><trkpt lat="33.224602" lon="35.558887"><ele>494.468</ele><time>2014-01-17T08:22:55Z</time></trkpt><trkpt lat="33.224722" lon="35.558902"><ele>494.638</ele><time>2014-01-17T08:22:58Z</time></trkpt><trkpt lat="33.224828" lon="35.558908"><ele>494.993</ele><time>2014-01-17T08:23:01Z</time></trkpt><trkpt lat="33.224929" lon="35.558914"><ele>494.560</ele><time>2014-01-17T08:23:04Z</time></trkpt><trkpt lat="33.225044" lon="35.558926"><ele>494.125</ele><time>2014-01-17T08:23:07Z</time></trkpt><trkpt lat="33.225141" lon="35.558938"><ele>493.726</ele><time>2014-01-17T08:23:10Z</time></trkpt><trkpt lat="33.225265" lon="35.558935"><ele>492.508</ele><time>2014-01-17T08:23:19Z</time></trkpt><trkpt lat="33.225389" lon="35.558900"><ele>492.207</ele><time>2014-01-17T08:23:22Z</time></trkpt><trkpt lat="33.225501" lon="35.558884"><ele>492.067</ele><time>2014-01-17T08:23:25Z</time></trkpt><trkpt lat="33.225628" lon="35.558858"><ele>492.731</ele><time>2014-01-17T08:23:28Z</time></trkpt><trkpt lat="33.225758" lon="35.558893"><ele>491.989</ele><time>2014-01-17T08:23:31Z</time></trkpt><trkpt lat="33.225863" lon="35.558975"><ele>490.583</ele><time>2014-01-17T08:23:33Z</time></trkpt><trkpt lat="33.225980" lon="35.559092"><ele>489.253</ele><time>2014-01-17T08:23:35Z</time></trkpt><trkpt lat="33.226098" lon="35.559208"><ele>487.688</ele><time>2014-01-17T08:23:37Z</time></trkpt><trkpt lat="33.226194" lon="35.559314"><ele>486.265</ele><time>2014-01-17T08:23:39Z</time></trkpt><trkpt lat="33.226267" lon="35.559420"><ele>484.879</ele><time>2014-01-17T08:23:41Z</time></trkpt><trkpt lat="33.226342" lon="35.559525"><ele>484.005</ele><time>2014-01-17T08:23:43Z</time></trkpt><trkpt lat="33.226426" lon="35.559633"><ele>482.325</ele><time>2014-01-17T08:23:45Z</time></trkpt><trkpt lat="33.226527" lon="35.559733"><ele>480.707</ele><time>2014-01-17T08:23:47Z</time></trkpt><trkpt lat="33.226615" lon="35.559835"><ele>479.092</ele><time>2014-01-17T08:23:49Z</time></trkpt><trkpt lat="33.226691" lon="35.559936"><ele>477.166</ele><time>2014-01-17T08:23:51Z</time></trkpt><trkpt lat="33.226772" lon="35.560018"><ele>475.584</ele><time>2014-01-17T08:23:53Z</time></trkpt><trkpt lat="33.226862" lon="35.560076"><ele>474.088</ele><time>2014-01-17T08:23:55Z</time></trkpt><trkpt lat="33.226981" lon="35.560108"><ele>472.938</ele><time>2014-01-17T08:23:57Z</time></trkpt><trkpt lat="33.227112" lon="35.560125"><ele>472.083</ele><time>2014-01-17T08:23:59Z</time></trkpt><trkpt lat="33.227229" lon="35.560175"><ele>470.820</ele><time>2014-01-17T08:24:01Z</time></trkpt><trkpt lat="33.227339" lon="35.560239"><ele>469.799</ele><time>2014-01-17T08:24:03Z</time></trkpt><trkpt lat="33.227449" lon="35.560290"><ele>469.307</ele><time>2014-01-17T08:24:05Z</time></trkpt><trkpt lat="33.227534" lon="35.560353"><ele>468.227</ele><time>2014-01-17T08:24:07Z</time></trkpt><trkpt lat="33.227621" lon="35.560439"><ele>466.507</ele><time>2014-01-17T08:24:09Z</time></trkpt><trkpt lat="33.227723" lon="35.560510"><ele>464.964</ele><time>2014-01-17T08:24:11Z</time></trkpt><trkpt lat="33.227829" lon="35.560579"><ele>463.658</ele><time>2014-01-17T08:24:13Z</time></trkpt><trkpt lat="33.227933" lon="35.560621"><ele>462.846</ele><time>2014-01-17T08:24:15Z</time></trkpt><trkpt lat="33.228034" lon="35.560653"><ele>462.820</ele><time>2014-01-17T08:24:17Z</time></trkpt><trkpt lat="33.228160" lon="35.560681"><ele>462.550</ele><time>2014-01-17T08:24:20Z</time></trkpt><trkpt lat="33.228287" lon="35.560718"><ele>462.635</ele><time>2014-01-17T08:24:23Z</time></trkpt><trkpt lat="33.228413" lon="35.560744"><ele>463.152</ele><time>2014-01-17T08:24:26Z</time></trkpt><trkpt lat="33.228521" lon="35.560782"><ele>463.048</ele><time>2014-01-17T08:24:29Z</time></trkpt><trkpt lat="33.228599" lon="35.560841"><ele>462.361</ele><time>2014-01-17T08:24:31Z</time></trkpt><trkpt lat="33.228687" lon="35.560891"><ele>462.217</ele><time>2014-01-17T08:24:33Z</time></trkpt><trkpt lat="33.228774" lon="35.560929"><ele>462.007</ele><time>2014-01-17T08:24:35Z</time></trkpt><trkpt lat="33.228860" lon="35.560962"><ele>462.039</ele><time>2014-01-17T08:24:37Z</time></trkpt><trkpt lat="33.228976" lon="35.560990"><ele>460.983</ele><time>2014-01-17T08:24:40Z</time></trkpt><trkpt lat="33.229083" lon="35.561011"><ele>459.611</ele><time>2014-01-17T08:24:43Z</time></trkpt><trkpt lat="33.229181" lon="35.561041"><ele>459.365</ele><time>2014-01-17T08:24:47Z</time></trkpt><trkpt lat="33.229279" lon="35.561098"><ele>458.835</ele><time>2014-01-17T08:24:50Z</time></trkpt><trkpt lat="33.229391" lon="35.561129"><ele>458.920</ele><time>2014-01-17T08:24:53Z</time></trkpt><trkpt lat="33.229491" lon="35.561148"><ele>458.877</ele><time>2014-01-17T08:24:56Z</time></trkpt><trkpt lat="33.229606" lon="35.561189"><ele>459.012</ele><time>2014-01-17T08:24:59Z</time></trkpt><trkpt lat="33.229696" lon="35.561221"><ele>459.232</ele><time>2014-01-17T08:25:01Z</time></trkpt><trkpt lat="33.229793" lon="35.561265"><ele>459.505</ele><time>2014-01-17T08:25:03Z</time></trkpt><trkpt lat="33.229894" lon="35.561307"><ele>459.307</ele><time>2014-01-17T08:25:05Z</time></trkpt><trkpt lat="33.229989" lon="35.561346"><ele>459.076</ele><time>2014-01-17T08:25:07Z</time></trkpt><trkpt lat="33.230099" lon="35.561378"><ele>458.810</ele><time>2014-01-17T08:25:09Z</time></trkpt><trkpt lat="33.230219" lon="35.561404"><ele>458.838</ele><time>2014-01-17T08:25:11Z</time></trkpt><trkpt lat="33.230348" lon="35.561414"><ele>458.852</ele><time>2014-01-17T08:25:13Z</time></trkpt><trkpt lat="33.230471" lon="35.561409"><ele>458.822</ele><time>2014-01-17T08:25:15Z</time></trkpt><trkpt lat="33.230576" lon="35.561460"><ele>458.667</ele><time>2014-01-17T08:25:19Z</time></trkpt><trkpt lat="33.230676" lon="35.561506"><ele>458.274</ele><time>2014-01-17T08:25:22Z</time></trkpt><trkpt lat="33.230777" lon="35.561532"><ele>457.918</ele><time>2014-01-17T08:25:26Z</time></trkpt><trkpt lat="33.230882" lon="35.561565"><ele>459.398</ele><time>2014-01-17T08:25:30Z</time></trkpt><trkpt lat="33.230973" lon="35.561593"><ele>460.217</ele><time>2014-01-17T08:25:34Z</time></trkpt><trkpt lat="33.231093" lon="35.561658"><ele>461.007</ele><time>2014-01-17T08:25:37Z</time></trkpt><trkpt lat="33.231183" lon="35.561753"><ele>461.136</ele><time>2014-01-17T08:25:40Z</time></trkpt><trkpt lat="33.231264" lon="35.561858"><ele>460.660</ele><time>2014-01-17T08:25:43Z</time></trkpt><trkpt lat="33.231346" lon="35.561940"><ele>460.678</ele><time>2014-01-17T08:25:46Z</time></trkpt><trkpt lat="33.231450" lon="35.562030"><ele>459.332</ele><time>2014-01-17T08:25:49Z</time></trkpt><trkpt lat="33.231540" lon="35.562132"><ele>459.462</ele><time>2014-01-17T08:25:52Z</time></trkpt><trkpt lat="33.231605" lon="35.562229"><ele>459.197</ele><time>2014-01-17T08:25:54Z</time></trkpt><trkpt lat="33.231678" lon="35.562321"><ele>459.144</ele><time>2014-01-17T08:25:56Z</time></trkpt><trkpt lat="33.231758" lon="35.562396"><ele>459.047</ele><time>2014-01-17T08:25:58Z</time></trkpt><trkpt lat="33.231837" lon="35.562454"><ele>459.329</ele><time>2014-01-17T08:26:01Z</time></trkpt><trkpt lat="33.231897" lon="35.562554"><ele>459.421</ele><time>2014-01-17T08:26:05Z</time></trkpt><trkpt lat="33.231941" lon="35.562678"><ele>459.707</ele><time>2014-01-17T08:26:09Z</time></trkpt><trkpt lat="33.232002" lon="35.562771"><ele>459.899</ele><time>2014-01-17T08:26:12Z</time></trkpt><trkpt lat="33.232064" lon="35.562906"><ele>459.643</ele><time>2014-01-17T08:26:15Z</time></trkpt><trkpt lat="33.232140" lon="35.563055"><ele>459.581</ele><time>2014-01-17T08:26:18Z</time></trkpt><trkpt lat="33.232201" lon="35.563162"><ele>460.015</ele><time>2014-01-17T08:26:20Z</time></trkpt><trkpt lat="33.232273" lon="35.563319"><ele>460.375</ele><time>2014-01-17T08:26:22Z</time></trkpt><trkpt lat="33.232352" lon="35.563481"><ele>460.190</ele><time>2014-01-17T08:26:24Z</time></trkpt><trkpt lat="33.232431" lon="35.563686"><ele>459.317</ele><time>2014-01-17T08:26:26Z</time></trkpt><trkpt lat="33.232477" lon="35.563791"><ele>459.324</ele><time>2014-01-17T08:26:27Z</time></trkpt><trkpt lat="33.232541" lon="35.563962"><ele>459.404</ele><time>2014-01-17T08:26:29Z</time></trkpt><trkpt lat="33.232557" lon="35.564117"><ele>459.514</ele><time>2014-01-17T08:26:31Z</time></trkpt><trkpt lat="33.232532" lon="35.564271"><ele>459.807</ele><time>2014-01-17T08:26:33Z</time></trkpt><trkpt lat="33.232536" lon="35.564388"><ele>461.117</ele><time>2014-01-17T08:26:35Z</time></trkpt><trkpt lat="33.232593" lon="35.564491"><ele>461.271</ele><time>2014-01-17T08:26:37Z</time></trkpt><trkpt lat="33.232681" lon="35.564553"><ele>460.589</ele><time>2014-01-17T08:26:39Z</time></trkpt><trkpt lat="33.232770" lon="35.564600"><ele>458.943</ele><time>2014-01-17T08:26:41Z</time></trkpt><trkpt lat="33.232868" lon="35.564639"><ele>458.053</ele><time>2014-01-17T08:26:43Z</time></trkpt><trkpt lat="33.232978" lon="35.564681"><ele>456.848</ele><time>2014-01-17T08:26:45Z</time></trkpt><trkpt lat="33.233100" lon="35.564716"><ele>455.795</ele><time>2014-01-17T08:26:47Z</time></trkpt><trkpt lat="33.233214" lon="35.564752"><ele>454.866</ele><time>2014-01-17T08:26:49Z</time></trkpt><trkpt lat="33.233329" lon="35.564787"><ele>454.629</ele><time>2014-01-17T08:26:51Z</time></trkpt><trkpt lat="33.233448" lon="35.564813"><ele>454.321</ele><time>2014-01-17T08:26:53Z</time></trkpt><trkpt lat="33.233561" lon="35.564847"><ele>454.607</ele><time>2014-01-17T08:26:55Z</time></trkpt><trkpt lat="33.233670" lon="35.564865"><ele>453.941</ele><time>2014-01-17T08:26:57Z</time></trkpt><trkpt lat="33.233762" lon="35.564885"><ele>453.275</ele><time>2014-01-17T08:26:59Z</time></trkpt><trkpt lat="33.233693" lon="35.564986"><ele>452.883</ele><time>2014-01-17T08:27:05Z</time></trkpt><trkpt lat="33.233597" lon="35.564948"><ele>451.827</ele><time>2014-01-17T08:27:07Z</time></trkpt><trkpt lat="33.233484" lon="35.564905"><ele>451.277</ele><time>2014-01-17T08:27:09Z</time></trkpt><trkpt lat="33.233372" lon="35.564869"><ele>451.872</ele><time>2014-01-17T08:27:11Z</time></trkpt><trkpt lat="33.233270" lon="35.564831"><ele>452.579</ele><time>2014-01-17T08:27:13Z</time></trkpt><trkpt lat="33.233177" lon="35.564816"><ele>452.341</ele><time>2014-01-17T08:27:15Z</time></trkpt><trkpt lat="33.233106" lon="35.564921"><ele>453.081</ele><time>2014-01-17T08:27:18Z</time></trkpt><trkpt lat="33.233136" lon="35.565041"><ele>452.109</ele><time>2014-01-17T08:27:20Z</time></trkpt><trkpt lat="33.233231" lon="35.565132"><ele>450.707</ele><time>2014-01-17T08:27:23Z</time></trkpt><trkpt lat="33.233342" lon="35.565178"><ele>450.049</ele><time>2014-01-17T08:27:25Z</time></trkpt><trkpt lat="33.233445" lon="35.565236"><ele>449.523</ele><time>2014-01-17T08:27:27Z</time></trkpt><trkpt lat="33.233532" lon="35.565299"><ele>449.011</ele><time>2014-01-17T08:27:29Z</time></trkpt><trkpt lat="33.233608" lon="35.565362"><ele>449.125</ele><time>2014-01-17T08:27:31Z</time></trkpt><trkpt lat="33.233686" lon="35.565425"><ele>448.665</ele><time>2014-01-17T08:27:34Z</time></trkpt><trkpt lat="33.233786" lon="35.565514"><ele>448.520</ele><time>2014-01-17T08:27:37Z</time></trkpt><trkpt lat="33.233892" lon="35.565569"><ele>448.437</ele><time>2014-01-17T08:27:39Z</time></trkpt><trkpt lat="33.233999" lon="35.565624"><ele>448.692</ele><time>2014-01-17T08:27:41Z</time></trkpt><trkpt lat="33.234114" lon="35.565657"><ele>449.173</ele><time>2014-01-17T08:27:43Z</time></trkpt><trkpt lat="33.234220" lon="35.565664"><ele>449.720</ele><time>2014-01-17T08:27:45Z</time></trkpt><trkpt lat="33.234314" lon="35.565650"><ele>450.307</ele><time>2014-01-17T08:27:47Z</time></trkpt><trkpt lat="33.234403" lon="35.565616"><ele>451.214</ele><time>2014-01-17T08:27:49Z</time></trkpt><trkpt lat="33.234528" lon="35.565570"><ele>452.468</ele><time>2014-01-17T08:27:52Z</time></trkpt><trkpt lat="33.234654" lon="35.565529"><ele>453.146</ele><time>2014-01-17T08:27:55Z</time></trkpt><trkpt lat="33.234742" lon="35.565500"><ele>453.020</ele><time>2014-01-17T08:27:57Z</time></trkpt><trkpt lat="33.234830" lon="35.565466"><ele>453.420</ele><time>2014-01-17T08:27:59Z</time></trkpt><trkpt lat="33.234932" lon="35.565431"><ele>453.565</ele><time>2014-01-17T08:28:02Z</time></trkpt><trkpt lat="33.234980" lon="35.565545"><ele>453.542</ele><time>2014-01-17T08:28:07Z</time></trkpt><trkpt lat="33.234934" lon="35.565637"><ele>453.522</ele><time>2014-01-17T08:28:10Z</time></trkpt><trkpt lat="33.234804" lon="35.565717"><ele>453.562</ele><time>2014-01-17T08:28:13Z</time></trkpt><trkpt lat="33.234709" lon="35.565771"><ele>452.608</ele><time>2014-01-17T08:28:15Z</time></trkpt><trkpt lat="33.234622" lon="35.565815"><ele>452.707</ele><time>2014-01-17T08:28:17Z</time></trkpt><trkpt lat="33.234534" lon="35.565854"><ele>452.457</ele><time>2014-01-17T08:28:19Z</time></trkpt><trkpt lat="33.234444" lon="35.565885"><ele>451.841</ele><time>2014-01-17T08:28:21Z</time></trkpt><trkpt lat="33.234349" lon="35.565908"><ele>451.579</ele><time>2014-01-17T08:28:23Z</time></trkpt><trkpt lat="33.234216" lon="35.565939"><ele>451.213</ele><time>2014-01-17T08:28:26Z</time></trkpt><trkpt lat="33.234120" lon="35.565965"><ele>450.883</ele><time>2014-01-17T08:28:28Z</time></trkpt><trkpt lat="33.234013" lon="35.566002"><ele>449.578</ele><time>2014-01-17T08:28:30Z</time></trkpt><trkpt lat="33.233897" lon="35.566018"><ele>448.955</ele><time>2014-01-17T08:28:32Z</time></trkpt><trkpt lat="33.233795" lon="35.566047"><ele>447.489</ele><time>2014-01-17T08:28:34Z</time></trkpt><trkpt lat="33.233734" lon="35.566134"><ele>445.806</ele><time>2014-01-17T08:28:37Z</time></trkpt><trkpt lat="33.233812" lon="35.566203"><ele>444.826</ele><time>2014-01-17T08:28:39Z</time></trkpt><trkpt lat="33.233914" lon="35.566253"><ele>443.807</ele><time>2014-01-17T08:28:41Z</time></trkpt><trkpt lat="33.234025" lon="35.566310"><ele>442.473</ele><time>2014-01-17T08:28:43Z</time></trkpt><trkpt lat="33.234151" lon="35.566353"><ele>441.277</ele><time>2014-01-17T08:28:45Z</time></trkpt><trkpt lat="33.234265" lon="35.566365"><ele>440.245</ele><time>2014-01-17T08:28:47Z</time></trkpt><trkpt lat="33.234389" lon="35.566360"><ele>440.099</ele><time>2014-01-17T08:28:50Z</time></trkpt><trkpt lat="33.234337" lon="35.566466"><ele>439.799</ele><time>2014-01-17T08:28:55Z</time></trkpt><trkpt lat="33.234213" lon="35.566493"><ele>439.774</ele><time>2014-01-17T08:28:58Z</time></trkpt><trkpt lat="33.234097" lon="35.566525"><ele>439.191</ele><time>2014-01-17T08:29:00Z</time></trkpt><trkpt lat="33.233970" lon="35.566567"><ele>438.352</ele><time>2014-01-17T08:29:02Z</time></trkpt><trkpt lat="33.233849" lon="35.566631"><ele>437.153</ele><time>2014-01-17T08:29:04Z</time></trkpt><trkpt lat="33.233720" lon="35.566704"><ele>435.008</ele><time>2014-01-17T08:29:06Z</time></trkpt><trkpt lat="33.233588" lon="35.566754"><ele>434.507</ele><time>2014-01-17T08:29:08Z</time></trkpt><trkpt lat="33.233461" lon="35.566816"><ele>433.690</ele><time>2014-01-17T08:29:10Z</time></trkpt><trkpt lat="33.233343" lon="35.566859"><ele>432.514</ele><time>2014-01-17T08:29:12Z</time></trkpt><trkpt lat="33.233222" lon="35.566860"><ele>431.012</ele><time>2014-01-17T08:29:14Z</time></trkpt><trkpt lat="33.233092" lon="35.566869"><ele>428.996</ele><time>2014-01-17T08:29:16Z</time></trkpt><trkpt lat="33.232977" lon="35.566863"><ele>426.446</ele><time>2014-01-17T08:29:18Z</time></trkpt><trkpt lat="33.232871" lon="35.566869"><ele>423.781</ele><time>2014-01-17T08:29:20Z</time></trkpt><trkpt lat="33.232772" lon="35.566965"><ele>421.088</ele><time>2014-01-17T08:29:23Z</time></trkpt><trkpt lat="33.232768" lon="35.567123"><ele>419.899</ele><time>2014-01-17T08:29:26Z</time></trkpt><trkpt lat="33.232833" lon="35.567247"><ele>419.007</ele><time>2014-01-17T08:29:29Z</time></trkpt><trkpt lat="33.232955" lon="35.567312"><ele>417.727</ele><time>2014-01-17T08:29:32Z</time></trkpt><trkpt lat="33.233065" lon="35.567317"><ele>417.107</ele><time>2014-01-17T08:29:35Z</time></trkpt><trkpt lat="33.233157" lon="35.567317"><ele>416.344</ele><time>2014-01-17T08:29:39Z</time></trkpt><trkpt lat="33.233269" lon="35.567315"><ele>415.378</ele><time>2014-01-17T08:29:43Z</time></trkpt><trkpt lat="33.233385" lon="35.567312"><ele>413.266</ele><time>2014-01-17T08:29:46Z</time></trkpt><trkpt lat="33.233476" lon="35.567320"><ele>412.640</ele><time>2014-01-17T08:29:48Z</time></trkpt><trkpt lat="33.233598" lon="35.567320"><ele>411.890</ele><time>2014-01-17T08:29:50Z</time></trkpt><trkpt lat="33.233743" lon="35.567317"><ele>411.655</ele><time>2014-01-17T08:29:52Z</time></trkpt><trkpt lat="33.233867" lon="35.567323"><ele>412.112</ele><time>2014-01-17T08:29:54Z</time></trkpt><trkpt lat="33.233994" lon="35.567360"><ele>411.646</ele><time>2014-01-17T08:29:56Z</time></trkpt><trkpt lat="33.234122" lon="35.567376"><ele>410.788</ele><time>2014-01-17T08:29:58Z</time></trkpt><trkpt lat="33.234233" lon="35.567385"><ele>410.016</ele><time>2014-01-17T08:30:00Z</time></trkpt><trkpt lat="33.234339" lon="35.567440"><ele>409.807</ele><time>2014-01-17T08:30:02Z</time></trkpt><trkpt lat="33.234461" lon="35.567509"><ele>409.799</ele><time>2014-01-17T08:30:04Z</time></trkpt><trkpt lat="33.234565" lon="35.567605"><ele>408.913</ele><time>2014-01-17T08:30:06Z</time></trkpt><trkpt lat="33.234662" lon="35.567727"><ele>408.051</ele><time>2014-01-17T08:30:08Z</time></trkpt><trkpt lat="33.234744" lon="35.567844"><ele>407.865</ele><time>2014-01-17T08:30:10Z</time></trkpt><trkpt lat="33.234801" lon="35.567983"><ele>407.595</ele><time>2014-01-17T08:30:12Z</time></trkpt><trkpt lat="33.234893" lon="35.568127"><ele>407.180</ele><time>2014-01-17T08:30:14Z</time></trkpt><trkpt lat="33.235033" lon="35.568239"><ele>406.047</ele><time>2014-01-17T08:30:16Z</time></trkpt><trkpt lat="33.235136" lon="35.568336"><ele>405.396</ele><time>2014-01-17T08:30:18Z</time></trkpt><trkpt lat="33.235205" lon="35.568432"><ele>405.031</ele><time>2014-01-17T08:30:20Z</time></trkpt><trkpt lat="33.235293" lon="35.568529"><ele>404.424</ele><time>2014-01-17T08:30:23Z</time></trkpt><trkpt lat="33.235371" lon="35.568584"><ele>403.707</ele><time>2014-01-17T08:30:26Z</time></trkpt><trkpt lat="33.235467" lon="35.568582"><ele>402.584</ele><time>2014-01-17T08:30:28Z</time></trkpt><trkpt lat="33.235559" lon="35.568562"><ele>401.568</ele><time>2014-01-17T08:30:30Z</time></trkpt><trkpt lat="33.235672" lon="35.568487"><ele>402.586</ele><time>2014-01-17T08:30:33Z</time></trkpt><trkpt lat="33.235758" lon="35.568430"><ele>402.590</ele><time>2014-01-17T08:30:36Z</time></trkpt><trkpt lat="33.235886" lon="35.568380"><ele>402.610</ele><time>2014-01-17T08:30:39Z</time></trkpt><trkpt lat="33.235991" lon="35.568366"><ele>401.635</ele><time>2014-01-17T08:30:41Z</time></trkpt><trkpt lat="33.236128" lon="35.568398"><ele>400.822</ele><time>2014-01-17T08:30:43Z</time></trkpt><trkpt lat="33.236269" lon="35.568461"><ele>400.382</ele><time>2014-01-17T08:30:45Z</time></trkpt><trkpt lat="33.236415" lon="35.568537"><ele>399.143</ele><time>2014-01-17T08:30:47Z</time></trkpt><trkpt lat="33.236534" lon="35.568614"><ele>398.417</ele><time>2014-01-17T08:30:49Z</time></trkpt><trkpt lat="33.236600" lon="35.568728"><ele>398.507</ele><time>2014-01-17T08:30:51Z</time></trkpt><trkpt lat="33.236683" lon="35.568827"><ele>398.153</ele><time>2014-01-17T08:30:53Z</time></trkpt><trkpt lat="33.236756" lon="35.568938"><ele>397.787</ele><time>2014-01-17T08:30:55Z</time></trkpt><trkpt lat="33.236828" lon="35.569031"><ele>397.245</ele><time>2014-01-17T08:30:57Z</time></trkpt><trkpt lat="33.236947" lon="35.569135"><ele>396.549</ele><time>2014-01-17T08:31:00Z</time></trkpt><trkpt lat="33.237081" lon="35.569199"><ele>395.119</ele><time>2014-01-17T08:31:02Z</time></trkpt><trkpt lat="33.237205" lon="35.569265"><ele>393.524</ele><time>2014-01-17T08:31:04Z</time></trkpt><trkpt lat="33.237290" lon="35.569387"><ele>392.781</ele><time>2014-01-17T08:31:06Z</time></trkpt><trkpt lat="33.237352" lon="35.569518"><ele>391.717</ele><time>2014-01-17T08:31:08Z</time></trkpt><trkpt lat="33.237430" lon="35.569625"><ele>391.187</ele><time>2014-01-17T08:31:10Z</time></trkpt><trkpt lat="33.237476" lon="35.569736"><ele>390.515</ele><time>2014-01-17T08:31:12Z</time></trkpt><trkpt lat="33.237558" lon="35.569827"><ele>389.807</ele><time>2014-01-17T08:31:14Z</time></trkpt><trkpt lat="33.237677" lon="35.569895"><ele>389.336</ele><time>2014-01-17T08:31:16Z</time></trkpt><trkpt lat="33.237767" lon="35.569980"><ele>388.770</ele><time>2014-01-17T08:31:18Z</time></trkpt><trkpt lat="33.237863" lon="35.570079"><ele>388.588</ele><time>2014-01-17T08:31:20Z</time></trkpt><trkpt lat="33.237971" lon="35.570178"><ele>388.132</ele><time>2014-01-17T08:31:22Z</time></trkpt><trkpt lat="33.238075" lon="35.570280"><ele>387.992</ele><time>2014-01-17T08:31:24Z</time></trkpt><trkpt lat="33.238146" lon="35.570386"><ele>387.927</ele><time>2014-01-17T08:31:26Z</time></trkpt><trkpt lat="33.238210" lon="35.570507"><ele>387.884</ele><time>2014-01-17T08:31:28Z</time></trkpt><trkpt lat="33.238273" lon="35.570617"><ele>387.662</ele><time>2014-01-17T08:31:30Z</time></trkpt><trkpt lat="33.238381" lon="35.570740"><ele>386.783</ele><time>2014-01-17T08:31:32Z</time></trkpt><trkpt lat="33.238464" lon="35.570883"><ele>385.811</ele><time>2014-01-17T08:31:34Z</time></trkpt><trkpt lat="33.238576" lon="35.571025"><ele>384.607</ele><time>2014-01-17T08:31:36Z</time></trkpt><trkpt lat="33.238666" lon="35.571126"><ele>383.491</ele><time>2014-01-17T08:31:38Z</time></trkpt><trkpt lat="33.238733" lon="35.571224"><ele>382.575</ele><time>2014-01-17T08:31:40Z</time></trkpt><trkpt lat="33.238738" lon="35.571372"><ele>381.023</ele><time>2014-01-17T08:31:44Z</time></trkpt><trkpt lat="33.238784" lon="35.571469"><ele>376.787</ele><time>2014-01-17T08:31:46Z</time></trkpt><trkpt lat="33.238861" lon="35.571528"><ele>375.477</ele><time>2014-01-17T08:31:48Z</time></trkpt><trkpt lat="33.238916" lon="35.571559"><ele>372.662</ele><time>2014-01-17T08:31:58Z</time></trkpt><trkpt lat="33.238916" lon="35.571559"><ele>372.669</ele><time>2014-01-17T08:32:38Z</time></trkpt></trkseg></trk></gpx>